<?xml version="1.0" encoding="UTF-8" standalone="no" ?>
<gpx xmlns="http://www.topografix.com/GPX/1/1" xmlns:xsi="http://www.w3.org/2001/XMLSchema-instance" xsi:schemaLocation="http://www.topografix.com/GPX/1/1 http://www.topografix.com/GPX/1/1/gpx.xsd" version="1.1" creator="VisuGPX - https://www.visugpx.com">
  <metadata>
    <name>Voile Caminar du 17 juillet 2018</name>
    <desc><![CDATA[Circuit voile sur le lac de Sanguinet du 17 juillet 2018. Caminar. Francis et Irène. Force 3
]]></desc>
  </metadata>
  <trk>
    <name><![CDATA[Randonnée du 17/07/2018 à 14:32]]></name>
    <trkseg>
      <trkpt lat="44.49443" lon="-1.07984">
        <ele>95</ele>
        <time>2018-07-17T14:34:07+02:00</time>
      </trkpt>
      <trkpt lat="44.49437" lon="-1.08002">
        <ele>66</ele>
        <time>2018-07-17T14:34:09+02:00</time>
      </trkpt>
      <trkpt lat="44.49427" lon="-1.08006">
        <ele>57</ele>
        <time>2018-07-17T15:19:35+02:00</time>
      </trkpt>
      <trkpt lat="44.49417" lon="-1.08011">
        <ele>59</ele>
        <time>2018-07-17T15:19:40+02:00</time>
      </trkpt>
      <trkpt lat="44.49409" lon="-1.08018">
        <ele>61</ele>
        <time>2018-07-17T15:19:44+02:00</time>
      </trkpt>
      <trkpt lat="44.49398" lon="-1.08023">
        <ele>61</ele>
        <time>2018-07-17T15:19:48+02:00</time>
      </trkpt>
      <trkpt lat="44.49389" lon="-1.08024">
        <ele>62</ele>
        <time>2018-07-17T15:19:51+02:00</time>
      </trkpt>
      <trkpt lat="44.49381" lon="-1.08029">
        <ele>65</ele>
        <time>2018-07-17T15:19:55+02:00</time>
      </trkpt>
      <trkpt lat="44.49371" lon="-1.08035">
        <ele>66</ele>
        <time>2018-07-17T15:19:59+02:00</time>
      </trkpt>
      <trkpt lat="44.49362" lon="-1.08042">
        <ele>67</ele>
        <time>2018-07-17T15:20:03+02:00</time>
      </trkpt>
      <trkpt lat="44.49353" lon="-1.08049">
        <ele>69</ele>
        <time>2018-07-17T15:20:07+02:00</time>
      </trkpt>
      <trkpt lat="44.49345" lon="-1.08058">
        <ele>68</ele>
        <time>2018-07-17T15:20:12+02:00</time>
      </trkpt>
      <trkpt lat="44.49335" lon="-1.08064">
        <ele>69</ele>
        <time>2018-07-17T15:20:17+02:00</time>
      </trkpt>
      <trkpt lat="44.49325" lon="-1.08068">
        <ele>69</ele>
        <time>2018-07-17T15:20:21+02:00</time>
      </trkpt>
      <trkpt lat="44.49317" lon="-1.08074">
        <ele>69</ele>
        <time>2018-07-17T15:20:25+02:00</time>
      </trkpt>
      <trkpt lat="44.49308" lon="-1.08079">
        <ele>68</ele>
        <time>2018-07-17T15:20:29+02:00</time>
      </trkpt>
      <trkpt lat="44.493" lon="-1.08084">
        <ele>69</ele>
        <time>2018-07-17T15:20:33+02:00</time>
      </trkpt>
      <trkpt lat="44.49292" lon="-1.0809">
        <ele>70</ele>
        <time>2018-07-17T15:20:37+02:00</time>
      </trkpt>
      <trkpt lat="44.49283" lon="-1.08098">
        <ele>69</ele>
        <time>2018-07-17T15:20:42+02:00</time>
      </trkpt>
      <trkpt lat="44.49274" lon="-1.08105">
        <ele>67</ele>
        <time>2018-07-17T15:20:47+02:00</time>
      </trkpt>
      <trkpt lat="44.49265" lon="-1.0811">
        <ele>67</ele>
        <time>2018-07-17T15:20:51+02:00</time>
      </trkpt>
      <trkpt lat="44.49257" lon="-1.08116">
        <ele>68</ele>
        <time>2018-07-17T15:20:55+02:00</time>
      </trkpt>
      <trkpt lat="44.49249" lon="-1.08122">
        <ele>67</ele>
        <time>2018-07-17T15:20:59+02:00</time>
      </trkpt>
      <trkpt lat="44.49241" lon="-1.08128">
        <ele>69</ele>
        <time>2018-07-17T15:21:03+02:00</time>
      </trkpt>
      <trkpt lat="44.49232" lon="-1.08133">
        <ele>69</ele>
        <time>2018-07-17T15:21:07+02:00</time>
      </trkpt>
      <trkpt lat="44.49222" lon="-1.08139">
        <ele>69</ele>
        <time>2018-07-17T15:21:12+02:00</time>
      </trkpt>
      <trkpt lat="44.49214" lon="-1.08144">
        <ele>69</ele>
        <time>2018-07-17T15:21:16+02:00</time>
      </trkpt>
      <trkpt lat="44.49205" lon="-1.08149">
        <ele>69</ele>
        <time>2018-07-17T15:21:20+02:00</time>
      </trkpt>
      <trkpt lat="44.49197" lon="-1.08155">
        <ele>68</ele>
        <time>2018-07-17T15:21:24+02:00</time>
      </trkpt>
      <trkpt lat="44.49187" lon="-1.0816">
        <ele>68</ele>
        <time>2018-07-17T15:21:29+02:00</time>
      </trkpt>
      <trkpt lat="44.49177" lon="-1.08167">
        <ele>68</ele>
        <time>2018-07-17T15:21:34+02:00</time>
      </trkpt>
      <trkpt lat="44.49167" lon="-1.08173">
        <ele>70</ele>
        <time>2018-07-17T15:21:39+02:00</time>
      </trkpt>
      <trkpt lat="44.49159" lon="-1.08179">
        <ele>70</ele>
        <time>2018-07-17T15:21:43+02:00</time>
      </trkpt>
      <trkpt lat="44.4915" lon="-1.08185">
        <ele>69</ele>
        <time>2018-07-17T15:21:48+02:00</time>
      </trkpt>
      <trkpt lat="44.4914" lon="-1.08192">
        <ele>70</ele>
        <time>2018-07-17T15:21:53+02:00</time>
      </trkpt>
      <trkpt lat="44.49131" lon="-1.08197">
        <ele>70</ele>
        <time>2018-07-17T15:21:57+02:00</time>
      </trkpt>
      <trkpt lat="44.49121" lon="-1.08202">
        <ele>70</ele>
        <time>2018-07-17T15:22:01+02:00</time>
      </trkpt>
      <trkpt lat="44.49113" lon="-1.08208">
        <ele>70</ele>
        <time>2018-07-17T15:22:05+02:00</time>
      </trkpt>
      <trkpt lat="44.49105" lon="-1.08216">
        <ele>70</ele>
        <time>2018-07-17T15:22:09+02:00</time>
      </trkpt>
      <trkpt lat="44.49097" lon="-1.08221">
        <ele>70</ele>
        <time>2018-07-17T15:22:13+02:00</time>
      </trkpt>
      <trkpt lat="44.49088" lon="-1.08227">
        <ele>68</ele>
        <time>2018-07-17T15:22:17+02:00</time>
      </trkpt>
      <trkpt lat="44.49079" lon="-1.08234">
        <ele>67</ele>
        <time>2018-07-17T15:22:21+02:00</time>
      </trkpt>
      <trkpt lat="44.49072" lon="-1.08242">
        <ele>68</ele>
        <time>2018-07-17T15:22:25+02:00</time>
      </trkpt>
      <trkpt lat="44.49064" lon="-1.08248">
        <ele>68</ele>
        <time>2018-07-17T15:22:29+02:00</time>
      </trkpt>
      <trkpt lat="44.49056" lon="-1.08256">
        <ele>67</ele>
        <time>2018-07-17T15:22:33+02:00</time>
      </trkpt>
      <trkpt lat="44.49047" lon="-1.08263">
        <ele>66</ele>
        <time>2018-07-17T15:22:37+02:00</time>
      </trkpt>
      <trkpt lat="44.49037" lon="-1.08271">
        <ele>68</ele>
        <time>2018-07-17T15:22:41+02:00</time>
      </trkpt>
      <trkpt lat="44.49029" lon="-1.08277">
        <ele>66</ele>
        <time>2018-07-17T15:22:45+02:00</time>
      </trkpt>
      <trkpt lat="44.4902" lon="-1.08284">
        <ele>68</ele>
        <time>2018-07-17T15:22:49+02:00</time>
      </trkpt>
      <trkpt lat="44.49012" lon="-1.08291">
        <ele>69</ele>
        <time>2018-07-17T15:22:53+02:00</time>
      </trkpt>
      <trkpt lat="44.49003" lon="-1.08299">
        <ele>68</ele>
        <time>2018-07-17T15:22:57+02:00</time>
      </trkpt>
      <trkpt lat="44.48993" lon="-1.08306">
        <ele>70</ele>
        <time>2018-07-17T15:23:01+02:00</time>
      </trkpt>
      <trkpt lat="44.48984" lon="-1.08314">
        <ele>70</ele>
        <time>2018-07-17T15:23:05+02:00</time>
      </trkpt>
      <trkpt lat="44.48977" lon="-1.08322">
        <ele>68</ele>
        <time>2018-07-17T15:23:09+02:00</time>
      </trkpt>
      <trkpt lat="44.48969" lon="-1.0833">
        <ele>70</ele>
        <time>2018-07-17T15:23:14+02:00</time>
      </trkpt>
      <trkpt lat="44.48973" lon="-1.08342">
        <ele>70</ele>
        <time>2018-07-17T15:23:38+02:00</time>
      </trkpt>
      <trkpt lat="44.48982" lon="-1.08345">
        <ele>71</ele>
        <time>2018-07-17T15:23:43+02:00</time>
      </trkpt>
      <trkpt lat="44.48992" lon="-1.08349">
        <ele>70</ele>
        <time>2018-07-17T15:23:48+02:00</time>
      </trkpt>
      <trkpt lat="44.49001" lon="-1.08351">
        <ele>69</ele>
        <time>2018-07-17T15:23:52+02:00</time>
      </trkpt>
      <trkpt lat="44.49011" lon="-1.08355">
        <ele>69</ele>
        <time>2018-07-17T15:23:56+02:00</time>
      </trkpt>
      <trkpt lat="44.49021" lon="-1.08358">
        <ele>67</ele>
        <time>2018-07-17T15:24:00+02:00</time>
      </trkpt>
      <trkpt lat="44.49031" lon="-1.08356">
        <ele>68</ele>
        <time>2018-07-17T15:24:04+02:00</time>
      </trkpt>
      <trkpt lat="44.49042" lon="-1.08354">
        <ele>68</ele>
        <time>2018-07-17T15:24:08+02:00</time>
      </trkpt>
      <trkpt lat="44.49053" lon="-1.08349">
        <ele>68</ele>
        <time>2018-07-17T15:24:12+02:00</time>
      </trkpt>
      <trkpt lat="44.49062" lon="-1.0834">
        <ele>69</ele>
        <time>2018-07-17T15:24:16+02:00</time>
      </trkpt>
      <trkpt lat="44.49071" lon="-1.08331">
        <ele>69</ele>
        <time>2018-07-17T15:24:20+02:00</time>
      </trkpt>
      <trkpt lat="44.49079" lon="-1.08321">
        <ele>71</ele>
        <time>2018-07-17T15:24:24+02:00</time>
      </trkpt>
      <trkpt lat="44.49086" lon="-1.08309">
        <ele>69</ele>
        <time>2018-07-17T15:24:28+02:00</time>
      </trkpt>
      <trkpt lat="44.49093" lon="-1.08299">
        <ele>68</ele>
        <time>2018-07-17T15:24:32+02:00</time>
      </trkpt>
      <trkpt lat="44.49099" lon="-1.08288">
        <ele>69</ele>
        <time>2018-07-17T15:24:36+02:00</time>
      </trkpt>
      <trkpt lat="44.49106" lon="-1.08276">
        <ele>69</ele>
        <time>2018-07-17T15:24:40+02:00</time>
      </trkpt>
      <trkpt lat="44.49113" lon="-1.08265">
        <ele>68</ele>
        <time>2018-07-17T15:24:44+02:00</time>
      </trkpt>
      <trkpt lat="44.49119" lon="-1.08255">
        <ele>68</ele>
        <time>2018-07-17T15:24:48+02:00</time>
      </trkpt>
      <trkpt lat="44.49125" lon="-1.08244">
        <ele>67</ele>
        <time>2018-07-17T15:24:52+02:00</time>
      </trkpt>
      <trkpt lat="44.49133" lon="-1.08234">
        <ele>67</ele>
        <time>2018-07-17T15:24:56+02:00</time>
      </trkpt>
      <trkpt lat="44.49141" lon="-1.08226">
        <ele>67</ele>
        <time>2018-07-17T15:25:00+02:00</time>
      </trkpt>
      <trkpt lat="44.49149" lon="-1.08216">
        <ele>66</ele>
        <time>2018-07-17T15:25:04+02:00</time>
      </trkpt>
      <trkpt lat="44.49156" lon="-1.08205">
        <ele>66</ele>
        <time>2018-07-17T15:25:08+02:00</time>
      </trkpt>
      <trkpt lat="44.49162" lon="-1.08195">
        <ele>66</ele>
        <time>2018-07-17T15:25:12+02:00</time>
      </trkpt>
      <trkpt lat="44.49169" lon="-1.08185">
        <ele>67</ele>
        <time>2018-07-17T15:25:16+02:00</time>
      </trkpt>
      <trkpt lat="44.49176" lon="-1.08175">
        <ele>65</ele>
        <time>2018-07-17T15:25:20+02:00</time>
      </trkpt>
      <trkpt lat="44.49183" lon="-1.08165">
        <ele>67</ele>
        <time>2018-07-17T15:25:24+02:00</time>
      </trkpt>
      <trkpt lat="44.4919" lon="-1.08155">
        <ele>66</ele>
        <time>2018-07-17T15:25:28+02:00</time>
      </trkpt>
      <trkpt lat="44.49196" lon="-1.08145">
        <ele>66</ele>
        <time>2018-07-17T15:25:32+02:00</time>
      </trkpt>
      <trkpt lat="44.49202" lon="-1.08135">
        <ele>66</ele>
        <time>2018-07-17T15:25:36+02:00</time>
      </trkpt>
      <trkpt lat="44.49209" lon="-1.08125">
        <ele>68</ele>
        <time>2018-07-17T15:25:40+02:00</time>
      </trkpt>
      <trkpt lat="44.49216" lon="-1.08115">
        <ele>69</ele>
        <time>2018-07-17T15:25:44+02:00</time>
      </trkpt>
      <trkpt lat="44.49223" lon="-1.08105">
        <ele>68</ele>
        <time>2018-07-17T15:25:48+02:00</time>
      </trkpt>
      <trkpt lat="44.49231" lon="-1.08095">
        <ele>69</ele>
        <time>2018-07-17T15:25:53+02:00</time>
      </trkpt>
      <trkpt lat="44.49238" lon="-1.08085">
        <ele>67</ele>
        <time>2018-07-17T15:25:58+02:00</time>
      </trkpt>
      <trkpt lat="44.49245" lon="-1.08073">
        <ele>67</ele>
        <time>2018-07-17T15:26:03+02:00</time>
      </trkpt>
      <trkpt lat="44.49252" lon="-1.08061">
        <ele>66</ele>
        <time>2018-07-17T15:26:08+02:00</time>
      </trkpt>
      <trkpt lat="44.4926" lon="-1.08052">
        <ele>65</ele>
        <time>2018-07-17T15:26:12+02:00</time>
      </trkpt>
      <trkpt lat="44.49267" lon="-1.08044">
        <ele>67</ele>
        <time>2018-07-17T15:26:16+02:00</time>
      </trkpt>
      <trkpt lat="44.49273" lon="-1.08035">
        <ele>68</ele>
        <time>2018-07-17T15:26:20+02:00</time>
      </trkpt>
      <trkpt lat="44.49279" lon="-1.08022">
        <ele>66</ele>
        <time>2018-07-17T15:26:25+02:00</time>
      </trkpt>
      <trkpt lat="44.49285" lon="-1.08012">
        <ele>66</ele>
        <time>2018-07-17T15:26:29+02:00</time>
      </trkpt>
      <trkpt lat="44.4929" lon="-1.08001">
        <ele>65</ele>
        <time>2018-07-17T15:26:33+02:00</time>
      </trkpt>
      <trkpt lat="44.49296" lon="-1.07991">
        <ele>65</ele>
        <time>2018-07-17T15:26:37+02:00</time>
      </trkpt>
      <trkpt lat="44.49302" lon="-1.07981">
        <ele>65</ele>
        <time>2018-07-17T15:26:41+02:00</time>
      </trkpt>
      <trkpt lat="44.49307" lon="-1.07971">
        <ele>64</ele>
        <time>2018-07-17T15:26:45+02:00</time>
      </trkpt>
      <trkpt lat="44.49315" lon="-1.07959">
        <ele>64</ele>
        <time>2018-07-17T15:26:50+02:00</time>
      </trkpt>
      <trkpt lat="44.49322" lon="-1.07949">
        <ele>63</ele>
        <time>2018-07-17T15:26:55+02:00</time>
      </trkpt>
      <trkpt lat="44.49332" lon="-1.07942">
        <ele>64</ele>
        <time>2018-07-17T15:27:00+02:00</time>
      </trkpt>
      <trkpt lat="44.4934" lon="-1.07936">
        <ele>65</ele>
        <time>2018-07-17T15:27:04+02:00</time>
      </trkpt>
      <trkpt lat="44.49349" lon="-1.07931">
        <ele>66</ele>
        <time>2018-07-17T15:27:08+02:00</time>
      </trkpt>
      <trkpt lat="44.49358" lon="-1.07927">
        <ele>66</ele>
        <time>2018-07-17T15:27:12+02:00</time>
      </trkpt>
      <trkpt lat="44.49367" lon="-1.07923">
        <ele>66</ele>
        <time>2018-07-17T15:27:16+02:00</time>
      </trkpt>
      <trkpt lat="44.49378" lon="-1.07925">
        <ele>66</ele>
        <time>2018-07-17T15:27:21+02:00</time>
      </trkpt>
      <trkpt lat="44.49378" lon="-1.07938">
        <ele>68</ele>
        <time>2018-07-17T15:27:29+02:00</time>
      </trkpt>
      <trkpt lat="44.49369" lon="-1.07942">
        <ele>64</ele>
        <time>2018-07-17T15:27:35+02:00</time>
      </trkpt>
      <trkpt lat="44.49359" lon="-1.07951">
        <ele>65</ele>
        <time>2018-07-17T15:27:40+02:00</time>
      </trkpt>
      <trkpt lat="44.4935" lon="-1.07958">
        <ele>66</ele>
        <time>2018-07-17T15:27:44+02:00</time>
      </trkpt>
      <trkpt lat="44.49342" lon="-1.07966">
        <ele>67</ele>
        <time>2018-07-17T15:27:48+02:00</time>
      </trkpt>
      <trkpt lat="44.49333" lon="-1.07974">
        <ele>67</ele>
        <time>2018-07-17T15:27:52+02:00</time>
      </trkpt>
      <trkpt lat="44.49324" lon="-1.07982">
        <ele>68</ele>
        <time>2018-07-17T15:27:56+02:00</time>
      </trkpt>
      <trkpt lat="44.49316" lon="-1.07989">
        <ele>69</ele>
        <time>2018-07-17T15:28:00+02:00</time>
      </trkpt>
      <trkpt lat="44.4931" lon="-1.07998">
        <ele>68</ele>
        <time>2018-07-17T15:28:04+02:00</time>
      </trkpt>
      <trkpt lat="44.49304" lon="-1.08007">
        <ele>68</ele>
        <time>2018-07-17T15:28:08+02:00</time>
      </trkpt>
      <trkpt lat="44.49297" lon="-1.08016">
        <ele>68</ele>
        <time>2018-07-17T15:28:12+02:00</time>
      </trkpt>
      <trkpt lat="44.4929" lon="-1.08024">
        <ele>69</ele>
        <time>2018-07-17T15:28:16+02:00</time>
      </trkpt>
      <trkpt lat="44.49282" lon="-1.08034">
        <ele>69</ele>
        <time>2018-07-17T15:28:21+02:00</time>
      </trkpt>
      <trkpt lat="44.49272" lon="-1.08044">
        <ele>68</ele>
        <time>2018-07-17T15:28:26+02:00</time>
      </trkpt>
      <trkpt lat="44.49265" lon="-1.08054">
        <ele>69</ele>
        <time>2018-07-17T15:28:30+02:00</time>
      </trkpt>
      <trkpt lat="44.49258" lon="-1.08066">
        <ele>68</ele>
        <time>2018-07-17T15:28:34+02:00</time>
      </trkpt>
      <trkpt lat="44.49251" lon="-1.08076">
        <ele>67</ele>
        <time>2018-07-17T15:28:38+02:00</time>
      </trkpt>
      <trkpt lat="44.49244" lon="-1.08086">
        <ele>67</ele>
        <time>2018-07-17T15:28:42+02:00</time>
      </trkpt>
      <trkpt lat="44.49236" lon="-1.08096">
        <ele>69</ele>
        <time>2018-07-17T15:28:46+02:00</time>
      </trkpt>
      <trkpt lat="44.49228" lon="-1.08105">
        <ele>69</ele>
        <time>2018-07-17T15:28:50+02:00</time>
      </trkpt>
      <trkpt lat="44.49219" lon="-1.08113">
        <ele>69</ele>
        <time>2018-07-17T15:28:54+02:00</time>
      </trkpt>
      <trkpt lat="44.49213" lon="-1.08123">
        <ele>68</ele>
        <time>2018-07-17T15:28:58+02:00</time>
      </trkpt>
      <trkpt lat="44.49206" lon="-1.08132">
        <ele>67</ele>
        <time>2018-07-17T15:29:02+02:00</time>
      </trkpt>
      <trkpt lat="44.49198" lon="-1.08142">
        <ele>66</ele>
        <time>2018-07-17T15:29:07+02:00</time>
      </trkpt>
      <trkpt lat="44.49191" lon="-1.0815">
        <ele>64</ele>
        <time>2018-07-17T15:29:12+02:00</time>
      </trkpt>
      <trkpt lat="44.49184" lon="-1.08161">
        <ele>66</ele>
        <time>2018-07-17T15:29:17+02:00</time>
      </trkpt>
      <trkpt lat="44.49176" lon="-1.08171">
        <ele>68</ele>
        <time>2018-07-17T15:29:22+02:00</time>
      </trkpt>
      <trkpt lat="44.49168" lon="-1.0818">
        <ele>66</ele>
        <time>2018-07-17T15:29:27+02:00</time>
      </trkpt>
      <trkpt lat="44.4916" lon="-1.08189">
        <ele>66</ele>
        <time>2018-07-17T15:29:32+02:00</time>
      </trkpt>
      <trkpt lat="44.49152" lon="-1.082">
        <ele>65</ele>
        <time>2018-07-17T15:29:37+02:00</time>
      </trkpt>
      <trkpt lat="44.49144" lon="-1.08209">
        <ele>65</ele>
        <time>2018-07-17T15:29:42+02:00</time>
      </trkpt>
      <trkpt lat="44.49138" lon="-1.08219">
        <ele>66</ele>
        <time>2018-07-17T15:29:46+02:00</time>
      </trkpt>
      <trkpt lat="44.4913" lon="-1.08228">
        <ele>66</ele>
        <time>2018-07-17T15:29:50+02:00</time>
      </trkpt>
      <trkpt lat="44.49123" lon="-1.08238">
        <ele>66</ele>
        <time>2018-07-17T15:29:54+02:00</time>
      </trkpt>
      <trkpt lat="44.49116" lon="-1.08247">
        <ele>67</ele>
        <time>2018-07-17T15:29:58+02:00</time>
      </trkpt>
      <trkpt lat="44.4911" lon="-1.08258">
        <ele>66</ele>
        <time>2018-07-17T15:30:03+02:00</time>
      </trkpt>
      <trkpt lat="44.49103" lon="-1.08267">
        <ele>68</ele>
        <time>2018-07-17T15:30:07+02:00</time>
      </trkpt>
      <trkpt lat="44.49096" lon="-1.08277">
        <ele>69</ele>
        <time>2018-07-17T15:30:11+02:00</time>
      </trkpt>
      <trkpt lat="44.49089" lon="-1.08288">
        <ele>69</ele>
        <time>2018-07-17T15:30:15+02:00</time>
      </trkpt>
      <trkpt lat="44.49082" lon="-1.08298">
        <ele>67</ele>
        <time>2018-07-17T15:30:19+02:00</time>
      </trkpt>
      <trkpt lat="44.49074" lon="-1.08308">
        <ele>67</ele>
        <time>2018-07-17T15:30:23+02:00</time>
      </trkpt>
      <trkpt lat="44.49066" lon="-1.08317">
        <ele>67</ele>
        <time>2018-07-17T15:30:27+02:00</time>
      </trkpt>
      <trkpt lat="44.49058" lon="-1.08326">
        <ele>67</ele>
        <time>2018-07-17T15:30:31+02:00</time>
      </trkpt>
      <trkpt lat="44.49051" lon="-1.08335">
        <ele>68</ele>
        <time>2018-07-17T15:30:35+02:00</time>
      </trkpt>
      <trkpt lat="44.49043" lon="-1.08345">
        <ele>69</ele>
        <time>2018-07-17T15:30:39+02:00</time>
      </trkpt>
      <trkpt lat="44.49036" lon="-1.08354">
        <ele>69</ele>
        <time>2018-07-17T15:30:43+02:00</time>
      </trkpt>
      <trkpt lat="44.49029" lon="-1.08365">
        <ele>70</ele>
        <time>2018-07-17T15:30:48+02:00</time>
      </trkpt>
      <trkpt lat="44.49021" lon="-1.08373">
        <ele>72</ele>
        <time>2018-07-17T15:30:53+02:00</time>
      </trkpt>
      <trkpt lat="44.49012" lon="-1.08381">
        <ele>71</ele>
        <time>2018-07-17T15:30:58+02:00</time>
      </trkpt>
      <trkpt lat="44.49004" lon="-1.0839">
        <ele>70</ele>
        <time>2018-07-17T15:31:03+02:00</time>
      </trkpt>
      <trkpt lat="44.48997" lon="-1.08399">
        <ele>70</ele>
        <time>2018-07-17T15:31:07+02:00</time>
      </trkpt>
      <trkpt lat="44.4899" lon="-1.08407">
        <ele>71</ele>
        <time>2018-07-17T15:31:12+02:00</time>
      </trkpt>
      <trkpt lat="44.48979" lon="-1.08412">
        <ele>72</ele>
        <time>2018-07-17T15:31:17+02:00</time>
      </trkpt>
      <trkpt lat="44.4897" lon="-1.08417">
        <ele>69</ele>
        <time>2018-07-17T15:31:21+02:00</time>
      </trkpt>
      <trkpt lat="44.48959" lon="-1.08421">
        <ele>70</ele>
        <time>2018-07-17T15:31:25+02:00</time>
      </trkpt>
      <trkpt lat="44.4895" lon="-1.08428">
        <ele>70</ele>
        <time>2018-07-17T15:31:29+02:00</time>
      </trkpt>
      <trkpt lat="44.48943" lon="-1.08437">
        <ele>70</ele>
        <time>2018-07-17T15:31:33+02:00</time>
      </trkpt>
      <trkpt lat="44.48935" lon="-1.08445">
        <ele>68</ele>
        <time>2018-07-17T15:31:37+02:00</time>
      </trkpt>
      <trkpt lat="44.48928" lon="-1.08453">
        <ele>68</ele>
        <time>2018-07-17T15:31:41+02:00</time>
      </trkpt>
      <trkpt lat="44.48921" lon="-1.08461">
        <ele>69</ele>
        <time>2018-07-17T15:31:45+02:00</time>
      </trkpt>
      <trkpt lat="44.48913" lon="-1.0847">
        <ele>68</ele>
        <time>2018-07-17T15:31:49+02:00</time>
      </trkpt>
      <trkpt lat="44.48905" lon="-1.08478">
        <ele>68</ele>
        <time>2018-07-17T15:31:53+02:00</time>
      </trkpt>
      <trkpt lat="44.48898" lon="-1.08486">
        <ele>66</ele>
        <time>2018-07-17T15:31:57+02:00</time>
      </trkpt>
      <trkpt lat="44.48891" lon="-1.08494">
        <ele>65</ele>
        <time>2018-07-17T15:32:01+02:00</time>
      </trkpt>
      <trkpt lat="44.48882" lon="-1.08502">
        <ele>65</ele>
        <time>2018-07-17T15:32:06+02:00</time>
      </trkpt>
      <trkpt lat="44.48874" lon="-1.08511">
        <ele>64</ele>
        <time>2018-07-17T15:32:11+02:00</time>
      </trkpt>
      <trkpt lat="44.48867" lon="-1.08519">
        <ele>65</ele>
        <time>2018-07-17T15:32:15+02:00</time>
      </trkpt>
      <trkpt lat="44.48859" lon="-1.08528">
        <ele>68</ele>
        <time>2018-07-17T15:32:19+02:00</time>
      </trkpt>
      <trkpt lat="44.48852" lon="-1.08536">
        <ele>68</ele>
        <time>2018-07-17T15:32:23+02:00</time>
      </trkpt>
      <trkpt lat="44.48847" lon="-1.08547">
        <ele>68</ele>
        <time>2018-07-17T15:32:28+02:00</time>
      </trkpt>
      <trkpt lat="44.48854" lon="-1.08555">
        <ele>67</ele>
        <time>2018-07-17T15:32:37+02:00</time>
      </trkpt>
      <trkpt lat="44.48863" lon="-1.08564">
        <ele>67</ele>
        <time>2018-07-17T15:32:43+02:00</time>
      </trkpt>
      <trkpt lat="44.4887" lon="-1.08573">
        <ele>68</ele>
        <time>2018-07-17T15:32:48+02:00</time>
      </trkpt>
      <trkpt lat="44.48878" lon="-1.08581">
        <ele>70</ele>
        <time>2018-07-17T15:32:53+02:00</time>
      </trkpt>
      <trkpt lat="44.48888" lon="-1.08587">
        <ele>71</ele>
        <time>2018-07-17T15:32:58+02:00</time>
      </trkpt>
      <trkpt lat="44.48896" lon="-1.08595">
        <ele>70</ele>
        <time>2018-07-17T15:33:02+02:00</time>
      </trkpt>
      <trkpt lat="44.48902" lon="-1.08604">
        <ele>69</ele>
        <time>2018-07-17T15:33:06+02:00</time>
      </trkpt>
      <trkpt lat="44.48909" lon="-1.08613">
        <ele>70</ele>
        <time>2018-07-17T15:33:10+02:00</time>
      </trkpt>
      <trkpt lat="44.48917" lon="-1.08624">
        <ele>71</ele>
        <time>2018-07-17T15:33:15+02:00</time>
      </trkpt>
      <trkpt lat="44.48923" lon="-1.08633">
        <ele>68</ele>
        <time>2018-07-17T15:33:20+02:00</time>
      </trkpt>
      <trkpt lat="44.48931" lon="-1.08643">
        <ele>68</ele>
        <time>2018-07-17T15:33:26+02:00</time>
      </trkpt>
      <trkpt lat="44.48939" lon="-1.08652">
        <ele>70</ele>
        <time>2018-07-17T15:33:31+02:00</time>
      </trkpt>
      <trkpt lat="44.48946" lon="-1.0866">
        <ele>71</ele>
        <time>2018-07-17T15:33:36+02:00</time>
      </trkpt>
      <trkpt lat="44.48954" lon="-1.08665">
        <ele>70</ele>
        <time>2018-07-17T15:33:41+02:00</time>
      </trkpt>
      <trkpt lat="44.48963" lon="-1.08672">
        <ele>69</ele>
        <time>2018-07-17T15:33:46+02:00</time>
      </trkpt>
      <trkpt lat="44.48972" lon="-1.0868">
        <ele>71</ele>
        <time>2018-07-17T15:33:51+02:00</time>
      </trkpt>
      <trkpt lat="44.4898" lon="-1.08688">
        <ele>72</ele>
        <time>2018-07-17T15:33:56+02:00</time>
      </trkpt>
      <trkpt lat="44.48989" lon="-1.08695">
        <ele>74</ele>
        <time>2018-07-17T15:34:02+02:00</time>
      </trkpt>
      <trkpt lat="44.48997" lon="-1.08703">
        <ele>75</ele>
        <time>2018-07-17T15:34:08+02:00</time>
      </trkpt>
      <trkpt lat="44.49006" lon="-1.08711">
        <ele>73</ele>
        <time>2018-07-17T15:34:14+02:00</time>
      </trkpt>
      <trkpt lat="44.49015" lon="-1.08719">
        <ele>71</ele>
        <time>2018-07-17T15:34:19+02:00</time>
      </trkpt>
      <trkpt lat="44.49023" lon="-1.08727">
        <ele>70</ele>
        <time>2018-07-17T15:34:24+02:00</time>
      </trkpt>
      <trkpt lat="44.4903" lon="-1.08736">
        <ele>70</ele>
        <time>2018-07-17T15:34:29+02:00</time>
      </trkpt>
      <trkpt lat="44.49038" lon="-1.08742">
        <ele>71</ele>
        <time>2018-07-17T15:34:34+02:00</time>
      </trkpt>
      <trkpt lat="44.49046" lon="-1.0875">
        <ele>70</ele>
        <time>2018-07-17T15:34:40+02:00</time>
      </trkpt>
      <trkpt lat="44.49055" lon="-1.08759">
        <ele>70</ele>
        <time>2018-07-17T15:34:46+02:00</time>
      </trkpt>
      <trkpt lat="44.49062" lon="-1.08767">
        <ele>70</ele>
        <time>2018-07-17T15:34:51+02:00</time>
      </trkpt>
      <trkpt lat="44.4907" lon="-1.08774">
        <ele>69</ele>
        <time>2018-07-17T15:34:57+02:00</time>
      </trkpt>
      <trkpt lat="44.49078" lon="-1.08782">
        <ele>70</ele>
        <time>2018-07-17T15:35:03+02:00</time>
      </trkpt>
      <trkpt lat="44.49085" lon="-1.08791">
        <ele>70</ele>
        <time>2018-07-17T15:35:10+02:00</time>
      </trkpt>
      <trkpt lat="44.49092" lon="-1.08802">
        <ele>68</ele>
        <time>2018-07-17T15:35:18+02:00</time>
      </trkpt>
      <trkpt lat="44.49097" lon="-1.08813">
        <ele>68</ele>
        <time>2018-07-17T15:35:25+02:00</time>
      </trkpt>
      <trkpt lat="44.49104" lon="-1.08821">
        <ele>71</ele>
        <time>2018-07-17T15:35:33+02:00</time>
      </trkpt>
      <trkpt lat="44.49111" lon="-1.08831">
        <ele>71</ele>
        <time>2018-07-17T15:35:40+02:00</time>
      </trkpt>
      <trkpt lat="44.49116" lon="-1.08842">
        <ele>70</ele>
        <time>2018-07-17T15:35:48+02:00</time>
      </trkpt>
      <trkpt lat="44.49123" lon="-1.08851">
        <ele>71</ele>
        <time>2018-07-17T15:35:57+02:00</time>
      </trkpt>
      <trkpt lat="44.49131" lon="-1.08857">
        <ele>69</ele>
        <time>2018-07-17T15:36:05+02:00</time>
      </trkpt>
      <trkpt lat="44.4914" lon="-1.08865">
        <ele>69</ele>
        <time>2018-07-17T15:36:11+02:00</time>
      </trkpt>
      <trkpt lat="44.49147" lon="-1.08875">
        <ele>71</ele>
        <time>2018-07-17T15:36:17+02:00</time>
      </trkpt>
      <trkpt lat="44.49155" lon="-1.08884">
        <ele>71</ele>
        <time>2018-07-17T15:36:23+02:00</time>
      </trkpt>
      <trkpt lat="44.49162" lon="-1.08892">
        <ele>71</ele>
        <time>2018-07-17T15:36:30+02:00</time>
      </trkpt>
      <trkpt lat="44.4917" lon="-1.08901">
        <ele>70</ele>
        <time>2018-07-17T15:36:37+02:00</time>
      </trkpt>
      <trkpt lat="44.49178" lon="-1.08909">
        <ele>71</ele>
        <time>2018-07-17T15:36:43+02:00</time>
      </trkpt>
      <trkpt lat="44.49186" lon="-1.08917">
        <ele>71</ele>
        <time>2018-07-17T15:36:49+02:00</time>
      </trkpt>
      <trkpt lat="44.49192" lon="-1.08925">
        <ele>70</ele>
        <time>2018-07-17T15:36:55+02:00</time>
      </trkpt>
      <trkpt lat="44.49201" lon="-1.08934">
        <ele>70</ele>
        <time>2018-07-17T15:37:02+02:00</time>
      </trkpt>
      <trkpt lat="44.49208" lon="-1.08944">
        <ele>70</ele>
        <time>2018-07-17T15:37:09+02:00</time>
      </trkpt>
      <trkpt lat="44.49216" lon="-1.08952">
        <ele>69</ele>
        <time>2018-07-17T15:37:16+02:00</time>
      </trkpt>
      <trkpt lat="44.49225" lon="-1.08957">
        <ele>70</ele>
        <time>2018-07-17T15:37:22+02:00</time>
      </trkpt>
      <trkpt lat="44.49233" lon="-1.08961">
        <ele>69</ele>
        <time>2018-07-17T15:37:27+02:00</time>
      </trkpt>
      <trkpt lat="44.49244" lon="-1.08966">
        <ele>66</ele>
        <time>2018-07-17T15:37:33+02:00</time>
      </trkpt>
      <trkpt lat="44.49253" lon="-1.0897">
        <ele>66</ele>
        <time>2018-07-17T15:37:38+02:00</time>
      </trkpt>
      <trkpt lat="44.49261" lon="-1.08978">
        <ele>68</ele>
        <time>2018-07-17T15:37:44+02:00</time>
      </trkpt>
      <trkpt lat="44.49254" lon="-1.08988">
        <ele>68</ele>
        <time>2018-07-17T15:37:53+02:00</time>
      </trkpt>
      <trkpt lat="44.49245" lon="-1.08993">
        <ele>67</ele>
        <time>2018-07-17T15:37:58+02:00</time>
      </trkpt>
      <trkpt lat="44.49237" lon="-1.09002">
        <ele>68</ele>
        <time>2018-07-17T15:38:03+02:00</time>
      </trkpt>
      <trkpt lat="44.49229" lon="-1.09011">
        <ele>69</ele>
        <time>2018-07-17T15:38:08+02:00</time>
      </trkpt>
      <trkpt lat="44.49221" lon="-1.0902">
        <ele>70</ele>
        <time>2018-07-17T15:38:13+02:00</time>
      </trkpt>
      <trkpt lat="44.49212" lon="-1.09029">
        <ele>70</ele>
        <time>2018-07-17T15:38:18+02:00</time>
      </trkpt>
      <trkpt lat="44.49206" lon="-1.09038">
        <ele>70</ele>
        <time>2018-07-17T15:38:22+02:00</time>
      </trkpt>
      <trkpt lat="44.49198" lon="-1.09049">
        <ele>70</ele>
        <time>2018-07-17T15:38:27+02:00</time>
      </trkpt>
      <trkpt lat="44.49191" lon="-1.09059">
        <ele>69</ele>
        <time>2018-07-17T15:38:32+02:00</time>
      </trkpt>
      <trkpt lat="44.49183" lon="-1.09067">
        <ele>71</ele>
        <time>2018-07-17T15:38:37+02:00</time>
      </trkpt>
      <trkpt lat="44.49175" lon="-1.09077">
        <ele>70</ele>
        <time>2018-07-17T15:38:42+02:00</time>
      </trkpt>
      <trkpt lat="44.49168" lon="-1.09089">
        <ele>69</ele>
        <time>2018-07-17T15:38:47+02:00</time>
      </trkpt>
      <trkpt lat="44.49162" lon="-1.09098">
        <ele>69</ele>
        <time>2018-07-17T15:38:52+02:00</time>
      </trkpt>
      <trkpt lat="44.49154" lon="-1.09106">
        <ele>69</ele>
        <time>2018-07-17T15:38:57+02:00</time>
      </trkpt>
      <trkpt lat="44.49147" lon="-1.09116">
        <ele>69</ele>
        <time>2018-07-17T15:39:03+02:00</time>
      </trkpt>
      <trkpt lat="44.49138" lon="-1.09125">
        <ele>68</ele>
        <time>2018-07-17T15:39:08+02:00</time>
      </trkpt>
      <trkpt lat="44.49132" lon="-1.09134">
        <ele>69</ele>
        <time>2018-07-17T15:39:13+02:00</time>
      </trkpt>
      <trkpt lat="44.49125" lon="-1.09144">
        <ele>67</ele>
        <time>2018-07-17T15:39:18+02:00</time>
      </trkpt>
      <trkpt lat="44.49119" lon="-1.09153">
        <ele>70</ele>
        <time>2018-07-17T15:39:23+02:00</time>
      </trkpt>
      <trkpt lat="44.49113" lon="-1.09165">
        <ele>69</ele>
        <time>2018-07-17T15:39:28+02:00</time>
      </trkpt>
      <trkpt lat="44.49105" lon="-1.09175">
        <ele>69</ele>
        <time>2018-07-17T15:39:33+02:00</time>
      </trkpt>
      <trkpt lat="44.49097" lon="-1.09186">
        <ele>69</ele>
        <time>2018-07-17T15:39:38+02:00</time>
      </trkpt>
      <trkpt lat="44.4909" lon="-1.09196">
        <ele>67</ele>
        <time>2018-07-17T15:39:43+02:00</time>
      </trkpt>
      <trkpt lat="44.49083" lon="-1.09206">
        <ele>68</ele>
        <time>2018-07-17T15:39:48+02:00</time>
      </trkpt>
      <trkpt lat="44.49077" lon="-1.09217">
        <ele>68</ele>
        <time>2018-07-17T15:39:53+02:00</time>
      </trkpt>
      <trkpt lat="44.4907" lon="-1.09227">
        <ele>67</ele>
        <time>2018-07-17T15:39:58+02:00</time>
      </trkpt>
      <trkpt lat="44.49062" lon="-1.09239">
        <ele>67</ele>
        <time>2018-07-17T15:40:03+02:00</time>
      </trkpt>
      <trkpt lat="44.49055" lon="-1.0925">
        <ele>66</ele>
        <time>2018-07-17T15:40:07+02:00</time>
      </trkpt>
      <trkpt lat="44.49048" lon="-1.09259">
        <ele>67</ele>
        <time>2018-07-17T15:40:11+02:00</time>
      </trkpt>
      <trkpt lat="44.49041" lon="-1.09268">
        <ele>67</ele>
        <time>2018-07-17T15:40:15+02:00</time>
      </trkpt>
      <trkpt lat="44.49035" lon="-1.09277">
        <ele>69</ele>
        <time>2018-07-17T15:40:19+02:00</time>
      </trkpt>
      <trkpt lat="44.49027" lon="-1.09287">
        <ele>69</ele>
        <time>2018-07-17T15:40:24+02:00</time>
      </trkpt>
      <trkpt lat="44.4902" lon="-1.09297">
        <ele>70</ele>
        <time>2018-07-17T15:40:29+02:00</time>
      </trkpt>
      <trkpt lat="44.49012" lon="-1.09309">
        <ele>69</ele>
        <time>2018-07-17T15:40:34+02:00</time>
      </trkpt>
      <trkpt lat="44.49004" lon="-1.09319">
        <ele>70</ele>
        <time>2018-07-17T15:40:39+02:00</time>
      </trkpt>
      <trkpt lat="44.48998" lon="-1.09329">
        <ele>70</ele>
        <time>2018-07-17T15:40:44+02:00</time>
      </trkpt>
      <trkpt lat="44.48991" lon="-1.09338">
        <ele>71</ele>
        <time>2018-07-17T15:40:48+02:00</time>
      </trkpt>
      <trkpt lat="44.48984" lon="-1.09346">
        <ele>71</ele>
        <time>2018-07-17T15:40:52+02:00</time>
      </trkpt>
      <trkpt lat="44.48977" lon="-1.09354">
        <ele>72</ele>
        <time>2018-07-17T15:40:56+02:00</time>
      </trkpt>
      <trkpt lat="44.48969" lon="-1.09364">
        <ele>71</ele>
        <time>2018-07-17T15:41:00+02:00</time>
      </trkpt>
      <trkpt lat="44.48962" lon="-1.09373">
        <ele>70</ele>
        <time>2018-07-17T15:41:04+02:00</time>
      </trkpt>
      <trkpt lat="44.48954" lon="-1.0938">
        <ele>70</ele>
        <time>2018-07-17T15:41:08+02:00</time>
      </trkpt>
      <trkpt lat="44.48946" lon="-1.09391">
        <ele>73</ele>
        <time>2018-07-17T15:41:13+02:00</time>
      </trkpt>
      <trkpt lat="44.48938" lon="-1.09402">
        <ele>72</ele>
        <time>2018-07-17T15:41:18+02:00</time>
      </trkpt>
      <trkpt lat="44.48932" lon="-1.09412">
        <ele>72</ele>
        <time>2018-07-17T15:41:22+02:00</time>
      </trkpt>
      <trkpt lat="44.48924" lon="-1.09419">
        <ele>73</ele>
        <time>2018-07-17T15:41:26+02:00</time>
      </trkpt>
      <trkpt lat="44.48918" lon="-1.09429">
        <ele>74</ele>
        <time>2018-07-17T15:41:30+02:00</time>
      </trkpt>
      <trkpt lat="44.48909" lon="-1.0944">
        <ele>73</ele>
        <time>2018-07-17T15:41:35+02:00</time>
      </trkpt>
      <trkpt lat="44.48901" lon="-1.09447">
        <ele>73</ele>
        <time>2018-07-17T15:41:39+02:00</time>
      </trkpt>
      <trkpt lat="44.48893" lon="-1.09455">
        <ele>71</ele>
        <time>2018-07-17T15:41:43+02:00</time>
      </trkpt>
      <trkpt lat="44.48886" lon="-1.09466">
        <ele>70</ele>
        <time>2018-07-17T15:41:48+02:00</time>
      </trkpt>
      <trkpt lat="44.48878" lon="-1.09475">
        <ele>71</ele>
        <time>2018-07-17T15:41:52+02:00</time>
      </trkpt>
      <trkpt lat="44.4887" lon="-1.09484">
        <ele>69</ele>
        <time>2018-07-17T15:41:56+02:00</time>
      </trkpt>
      <trkpt lat="44.48864" lon="-1.09494">
        <ele>69</ele>
        <time>2018-07-17T15:42:00+02:00</time>
      </trkpt>
      <trkpt lat="44.48857" lon="-1.09504">
        <ele>70</ele>
        <time>2018-07-17T15:42:04+02:00</time>
      </trkpt>
      <trkpt lat="44.4885" lon="-1.09512">
        <ele>69</ele>
        <time>2018-07-17T15:42:08+02:00</time>
      </trkpt>
      <trkpt lat="44.48843" lon="-1.09521">
        <ele>70</ele>
        <time>2018-07-17T15:42:12+02:00</time>
      </trkpt>
      <trkpt lat="44.48835" lon="-1.0953">
        <ele>69</ele>
        <time>2018-07-17T15:42:16+02:00</time>
      </trkpt>
      <trkpt lat="44.48826" lon="-1.09538">
        <ele>68</ele>
        <time>2018-07-17T15:42:20+02:00</time>
      </trkpt>
      <trkpt lat="44.48818" lon="-1.09545">
        <ele>69</ele>
        <time>2018-07-17T15:42:23+02:00</time>
      </trkpt>
      <trkpt lat="44.48808" lon="-1.09553">
        <ele>69</ele>
        <time>2018-07-17T15:42:27+02:00</time>
      </trkpt>
      <trkpt lat="44.48799" lon="-1.0956">
        <ele>67</ele>
        <time>2018-07-17T15:42:31+02:00</time>
      </trkpt>
      <trkpt lat="44.48788" lon="-1.09567">
        <ele>66</ele>
        <time>2018-07-17T15:42:35+02:00</time>
      </trkpt>
      <trkpt lat="44.48779" lon="-1.09572">
        <ele>67</ele>
        <time>2018-07-17T15:42:39+02:00</time>
      </trkpt>
      <trkpt lat="44.48768" lon="-1.09576">
        <ele>68</ele>
        <time>2018-07-17T15:42:43+02:00</time>
      </trkpt>
      <trkpt lat="44.48758" lon="-1.09583">
        <ele>68</ele>
        <time>2018-07-17T15:42:47+02:00</time>
      </trkpt>
      <trkpt lat="44.48749" lon="-1.09591">
        <ele>69</ele>
        <time>2018-07-17T15:42:51+02:00</time>
      </trkpt>
      <trkpt lat="44.48742" lon="-1.09601">
        <ele>70</ele>
        <time>2018-07-17T15:42:55+02:00</time>
      </trkpt>
      <trkpt lat="44.48734" lon="-1.0961">
        <ele>71</ele>
        <time>2018-07-17T15:42:59+02:00</time>
      </trkpt>
      <trkpt lat="44.48726" lon="-1.09619">
        <ele>69</ele>
        <time>2018-07-17T15:43:03+02:00</time>
      </trkpt>
      <trkpt lat="44.48719" lon="-1.09629">
        <ele>68</ele>
        <time>2018-07-17T15:43:07+02:00</time>
      </trkpt>
      <trkpt lat="44.48714" lon="-1.0964">
        <ele>68</ele>
        <time>2018-07-17T15:43:11+02:00</time>
      </trkpt>
      <trkpt lat="44.48709" lon="-1.09651">
        <ele>69</ele>
        <time>2018-07-17T15:43:15+02:00</time>
      </trkpt>
      <trkpt lat="44.48703" lon="-1.09661">
        <ele>70</ele>
        <time>2018-07-17T15:43:19+02:00</time>
      </trkpt>
      <trkpt lat="44.48696" lon="-1.09672">
        <ele>68</ele>
        <time>2018-07-17T15:43:24+02:00</time>
      </trkpt>
      <trkpt lat="44.48689" lon="-1.09684">
        <ele>68</ele>
        <time>2018-07-17T15:43:29+02:00</time>
      </trkpt>
      <trkpt lat="44.48681" lon="-1.09694">
        <ele>69</ele>
        <time>2018-07-17T15:43:34+02:00</time>
      </trkpt>
      <trkpt lat="44.48674" lon="-1.09702">
        <ele>69</ele>
        <time>2018-07-17T15:43:38+02:00</time>
      </trkpt>
      <trkpt lat="44.48667" lon="-1.09711">
        <ele>69</ele>
        <time>2018-07-17T15:43:42+02:00</time>
      </trkpt>
      <trkpt lat="44.4866" lon="-1.09722">
        <ele>72</ele>
        <time>2018-07-17T15:43:47+02:00</time>
      </trkpt>
      <trkpt lat="44.48653" lon="-1.09732">
        <ele>71</ele>
        <time>2018-07-17T15:43:52+02:00</time>
      </trkpt>
      <trkpt lat="44.48644" lon="-1.09742">
        <ele>72</ele>
        <time>2018-07-17T15:43:57+02:00</time>
      </trkpt>
      <trkpt lat="44.48636" lon="-1.0975">
        <ele>71</ele>
        <time>2018-07-17T15:44:01+02:00</time>
      </trkpt>
      <trkpt lat="44.48627" lon="-1.09759">
        <ele>71</ele>
        <time>2018-07-17T15:44:05+02:00</time>
      </trkpt>
      <trkpt lat="44.4862" lon="-1.09768">
        <ele>71</ele>
        <time>2018-07-17T15:44:09+02:00</time>
      </trkpt>
      <trkpt lat="44.48614" lon="-1.09779">
        <ele>72</ele>
        <time>2018-07-17T15:44:13+02:00</time>
      </trkpt>
      <trkpt lat="44.48606" lon="-1.09787">
        <ele>71</ele>
        <time>2018-07-17T15:44:17+02:00</time>
      </trkpt>
      <trkpt lat="44.48598" lon="-1.09797">
        <ele>70</ele>
        <time>2018-07-17T15:44:22+02:00</time>
      </trkpt>
      <trkpt lat="44.4859" lon="-1.09807">
        <ele>70</ele>
        <time>2018-07-17T15:44:27+02:00</time>
      </trkpt>
      <trkpt lat="44.48583" lon="-1.09816">
        <ele>69</ele>
        <time>2018-07-17T15:44:31+02:00</time>
      </trkpt>
      <trkpt lat="44.48575" lon="-1.09825">
        <ele>72</ele>
        <time>2018-07-17T15:44:35+02:00</time>
      </trkpt>
      <trkpt lat="44.48566" lon="-1.09834">
        <ele>71</ele>
        <time>2018-07-17T15:44:40+02:00</time>
      </trkpt>
      <trkpt lat="44.48557" lon="-1.09841">
        <ele>71</ele>
        <time>2018-07-17T15:44:45+02:00</time>
      </trkpt>
      <trkpt lat="44.48549" lon="-1.0985">
        <ele>72</ele>
        <time>2018-07-17T15:44:50+02:00</time>
      </trkpt>
      <trkpt lat="44.48543" lon="-1.0986">
        <ele>71</ele>
        <time>2018-07-17T15:44:55+02:00</time>
      </trkpt>
      <trkpt lat="44.48534" lon="-1.09868">
        <ele>70</ele>
        <time>2018-07-17T15:45:00+02:00</time>
      </trkpt>
      <trkpt lat="44.48525" lon="-1.09873">
        <ele>69</ele>
        <time>2018-07-17T15:45:04+02:00</time>
      </trkpt>
      <trkpt lat="44.48516" lon="-1.09881">
        <ele>68</ele>
        <time>2018-07-17T15:45:09+02:00</time>
      </trkpt>
      <trkpt lat="44.48516" lon="-1.09895">
        <ele>69</ele>
        <time>2018-07-17T15:45:16+02:00</time>
      </trkpt>
      <trkpt lat="44.48524" lon="-1.09901">
        <ele>69</ele>
        <time>2018-07-17T15:45:23+02:00</time>
      </trkpt>
      <trkpt lat="44.48532" lon="-1.09906">
        <ele>67</ele>
        <time>2018-07-17T15:45:28+02:00</time>
      </trkpt>
      <trkpt lat="44.48542" lon="-1.09913">
        <ele>69</ele>
        <time>2018-07-17T15:45:33+02:00</time>
      </trkpt>
      <trkpt lat="44.48551" lon="-1.09919">
        <ele>69</ele>
        <time>2018-07-17T15:45:38+02:00</time>
      </trkpt>
      <trkpt lat="44.48559" lon="-1.09925">
        <ele>70</ele>
        <time>2018-07-17T15:45:42+02:00</time>
      </trkpt>
      <trkpt lat="44.48568" lon="-1.09931">
        <ele>70</ele>
        <time>2018-07-17T15:45:46+02:00</time>
      </trkpt>
      <trkpt lat="44.48576" lon="-1.09936">
        <ele>70</ele>
        <time>2018-07-17T15:45:50+02:00</time>
      </trkpt>
      <trkpt lat="44.48586" lon="-1.09942">
        <ele>70</ele>
        <time>2018-07-17T15:45:54+02:00</time>
      </trkpt>
      <trkpt lat="44.48595" lon="-1.09947">
        <ele>70</ele>
        <time>2018-07-17T15:45:58+02:00</time>
      </trkpt>
      <trkpt lat="44.48604" lon="-1.09952">
        <ele>70</ele>
        <time>2018-07-17T15:46:02+02:00</time>
      </trkpt>
      <trkpt lat="44.48613" lon="-1.09956">
        <ele>70</ele>
        <time>2018-07-17T15:46:06+02:00</time>
      </trkpt>
      <trkpt lat="44.48622" lon="-1.09961">
        <ele>71</ele>
        <time>2018-07-17T15:46:10+02:00</time>
      </trkpt>
      <trkpt lat="44.48631" lon="-1.09965">
        <ele>68</ele>
        <time>2018-07-17T15:46:14+02:00</time>
      </trkpt>
      <trkpt lat="44.4864" lon="-1.09969">
        <ele>68</ele>
        <time>2018-07-17T15:46:18+02:00</time>
      </trkpt>
      <trkpt lat="44.48649" lon="-1.09974">
        <ele>69</ele>
        <time>2018-07-17T15:46:22+02:00</time>
      </trkpt>
      <trkpt lat="44.48657" lon="-1.09979">
        <ele>69</ele>
        <time>2018-07-17T15:46:26+02:00</time>
      </trkpt>
      <trkpt lat="44.48666" lon="-1.09986">
        <ele>69</ele>
        <time>2018-07-17T15:46:30+02:00</time>
      </trkpt>
      <trkpt lat="44.48675" lon="-1.09993">
        <ele>68</ele>
        <time>2018-07-17T15:46:34+02:00</time>
      </trkpt>
      <trkpt lat="44.48684" lon="-1.09999">
        <ele>68</ele>
        <time>2018-07-17T15:46:38+02:00</time>
      </trkpt>
      <trkpt lat="44.48693" lon="-1.10005">
        <ele>69</ele>
        <time>2018-07-17T15:46:42+02:00</time>
      </trkpt>
      <trkpt lat="44.48703" lon="-1.1001">
        <ele>70</ele>
        <time>2018-07-17T15:46:46+02:00</time>
      </trkpt>
      <trkpt lat="44.48713" lon="-1.10014">
        <ele>70</ele>
        <time>2018-07-17T15:46:50+02:00</time>
      </trkpt>
      <trkpt lat="44.48722" lon="-1.1002">
        <ele>71</ele>
        <time>2018-07-17T15:46:54+02:00</time>
      </trkpt>
      <trkpt lat="44.48731" lon="-1.10024">
        <ele>70</ele>
        <time>2018-07-17T15:46:58+02:00</time>
      </trkpt>
      <trkpt lat="44.4874" lon="-1.10029">
        <ele>70</ele>
        <time>2018-07-17T15:47:02+02:00</time>
      </trkpt>
      <trkpt lat="44.4875" lon="-1.10036">
        <ele>70</ele>
        <time>2018-07-17T15:47:07+02:00</time>
      </trkpt>
      <trkpt lat="44.4876" lon="-1.10041">
        <ele>71</ele>
        <time>2018-07-17T15:47:12+02:00</time>
      </trkpt>
      <trkpt lat="44.48769" lon="-1.10048">
        <ele>70</ele>
        <time>2018-07-17T15:47:16+02:00</time>
      </trkpt>
      <trkpt lat="44.48778" lon="-1.10053">
        <ele>70</ele>
        <time>2018-07-17T15:47:20+02:00</time>
      </trkpt>
      <trkpt lat="44.48787" lon="-1.10059">
        <ele>70</ele>
        <time>2018-07-17T15:47:24+02:00</time>
      </trkpt>
      <trkpt lat="44.48797" lon="-1.10064">
        <ele>69</ele>
        <time>2018-07-17T15:47:28+02:00</time>
      </trkpt>
      <trkpt lat="44.48806" lon="-1.10069">
        <ele>70</ele>
        <time>2018-07-17T15:47:32+02:00</time>
      </trkpt>
      <trkpt lat="44.48814" lon="-1.10075">
        <ele>69</ele>
        <time>2018-07-17T15:47:36+02:00</time>
      </trkpt>
      <trkpt lat="44.48823" lon="-1.10082">
        <ele>70</ele>
        <time>2018-07-17T15:47:40+02:00</time>
      </trkpt>
      <trkpt lat="44.48832" lon="-1.10088">
        <ele>69</ele>
        <time>2018-07-17T15:47:44+02:00</time>
      </trkpt>
      <trkpt lat="44.4884" lon="-1.10095">
        <ele>69</ele>
        <time>2018-07-17T15:47:48+02:00</time>
      </trkpt>
      <trkpt lat="44.48848" lon="-1.10102">
        <ele>70</ele>
        <time>2018-07-17T15:47:52+02:00</time>
      </trkpt>
      <trkpt lat="44.48858" lon="-1.10109">
        <ele>69</ele>
        <time>2018-07-17T15:47:56+02:00</time>
      </trkpt>
      <trkpt lat="44.48867" lon="-1.10113">
        <ele>69</ele>
        <time>2018-07-17T15:48:00+02:00</time>
      </trkpt>
      <trkpt lat="44.48875" lon="-1.10119">
        <ele>70</ele>
        <time>2018-07-17T15:48:04+02:00</time>
      </trkpt>
      <trkpt lat="44.48884" lon="-1.10127">
        <ele>69</ele>
        <time>2018-07-17T15:48:09+02:00</time>
      </trkpt>
      <trkpt lat="44.48893" lon="-1.10131">
        <ele>68</ele>
        <time>2018-07-17T15:48:13+02:00</time>
      </trkpt>
      <trkpt lat="44.48901" lon="-1.10138">
        <ele>69</ele>
        <time>2018-07-17T15:48:17+02:00</time>
      </trkpt>
      <trkpt lat="44.4891" lon="-1.10147">
        <ele>70</ele>
        <time>2018-07-17T15:48:22+02:00</time>
      </trkpt>
      <trkpt lat="44.48917" lon="-1.10155">
        <ele>68</ele>
        <time>2018-07-17T15:48:26+02:00</time>
      </trkpt>
      <trkpt lat="44.48925" lon="-1.10162">
        <ele>69</ele>
        <time>2018-07-17T15:48:30+02:00</time>
      </trkpt>
      <trkpt lat="44.48933" lon="-1.10168">
        <ele>69</ele>
        <time>2018-07-17T15:48:34+02:00</time>
      </trkpt>
      <trkpt lat="44.48941" lon="-1.10174">
        <ele>70</ele>
        <time>2018-07-17T15:48:38+02:00</time>
      </trkpt>
      <trkpt lat="44.4895" lon="-1.1018">
        <ele>70</ele>
        <time>2018-07-17T15:48:42+02:00</time>
      </trkpt>
      <trkpt lat="44.48958" lon="-1.10186">
        <ele>70</ele>
        <time>2018-07-17T15:48:46+02:00</time>
      </trkpt>
      <trkpt lat="44.48966" lon="-1.10193">
        <ele>71</ele>
        <time>2018-07-17T15:48:50+02:00</time>
      </trkpt>
      <trkpt lat="44.48975" lon="-1.10199">
        <ele>71</ele>
        <time>2018-07-17T15:48:54+02:00</time>
      </trkpt>
      <trkpt lat="44.48984" lon="-1.10206">
        <ele>69</ele>
        <time>2018-07-17T15:48:58+02:00</time>
      </trkpt>
      <trkpt lat="44.48992" lon="-1.10212">
        <ele>69</ele>
        <time>2018-07-17T15:49:02+02:00</time>
      </trkpt>
      <trkpt lat="44.49001" lon="-1.10217">
        <ele>69</ele>
        <time>2018-07-17T15:49:06+02:00</time>
      </trkpt>
      <trkpt lat="44.4901" lon="-1.10222">
        <ele>70</ele>
        <time>2018-07-17T15:49:10+02:00</time>
      </trkpt>
      <trkpt lat="44.4902" lon="-1.10228">
        <ele>70</ele>
        <time>2018-07-17T15:49:14+02:00</time>
      </trkpt>
      <trkpt lat="44.49029" lon="-1.10232">
        <ele>69</ele>
        <time>2018-07-17T15:49:18+02:00</time>
      </trkpt>
      <trkpt lat="44.49039" lon="-1.10239">
        <ele>70</ele>
        <time>2018-07-17T15:49:23+02:00</time>
      </trkpt>
      <trkpt lat="44.49049" lon="-1.10246">
        <ele>70</ele>
        <time>2018-07-17T15:49:28+02:00</time>
      </trkpt>
      <trkpt lat="44.49059" lon="-1.10252">
        <ele>70</ele>
        <time>2018-07-17T15:49:32+02:00</time>
      </trkpt>
      <trkpt lat="44.49067" lon="-1.10258">
        <ele>69</ele>
        <time>2018-07-17T15:49:36+02:00</time>
      </trkpt>
      <trkpt lat="44.49076" lon="-1.10265">
        <ele>69</ele>
        <time>2018-07-17T15:49:40+02:00</time>
      </trkpt>
      <trkpt lat="44.49085" lon="-1.1027">
        <ele>69</ele>
        <time>2018-07-17T15:49:44+02:00</time>
      </trkpt>
      <trkpt lat="44.49094" lon="-1.10275">
        <ele>69</ele>
        <time>2018-07-17T15:49:48+02:00</time>
      </trkpt>
      <trkpt lat="44.49104" lon="-1.10283">
        <ele>70</ele>
        <time>2018-07-17T15:49:53+02:00</time>
      </trkpt>
      <trkpt lat="44.49115" lon="-1.10289">
        <ele>70</ele>
        <time>2018-07-17T15:49:58+02:00</time>
      </trkpt>
      <trkpt lat="44.49123" lon="-1.10295">
        <ele>69</ele>
        <time>2018-07-17T15:50:02+02:00</time>
      </trkpt>
      <trkpt lat="44.49132" lon="-1.10301">
        <ele>70</ele>
        <time>2018-07-17T15:50:06+02:00</time>
      </trkpt>
      <trkpt lat="44.4914" lon="-1.10308">
        <ele>70</ele>
        <time>2018-07-17T15:50:10+02:00</time>
      </trkpt>
      <trkpt lat="44.49149" lon="-1.10315">
        <ele>69</ele>
        <time>2018-07-17T15:50:14+02:00</time>
      </trkpt>
      <trkpt lat="44.49157" lon="-1.1032">
        <ele>70</ele>
        <time>2018-07-17T15:50:18+02:00</time>
      </trkpt>
      <trkpt lat="44.49166" lon="-1.10327">
        <ele>69</ele>
        <time>2018-07-17T15:50:22+02:00</time>
      </trkpt>
      <trkpt lat="44.49176" lon="-1.10334">
        <ele>70</ele>
        <time>2018-07-17T15:50:27+02:00</time>
      </trkpt>
      <trkpt lat="44.49184" lon="-1.10341">
        <ele>68</ele>
        <time>2018-07-17T15:50:31+02:00</time>
      </trkpt>
      <trkpt lat="44.49192" lon="-1.10348">
        <ele>69</ele>
        <time>2018-07-17T15:50:35+02:00</time>
      </trkpt>
      <trkpt lat="44.49201" lon="-1.10354">
        <ele>70</ele>
        <time>2018-07-17T15:50:39+02:00</time>
      </trkpt>
      <trkpt lat="44.4921" lon="-1.1036">
        <ele>69</ele>
        <time>2018-07-17T15:50:43+02:00</time>
      </trkpt>
      <trkpt lat="44.49219" lon="-1.10365">
        <ele>70</ele>
        <time>2018-07-17T15:50:47+02:00</time>
      </trkpt>
      <trkpt lat="44.49228" lon="-1.1037">
        <ele>69</ele>
        <time>2018-07-17T15:50:51+02:00</time>
      </trkpt>
      <trkpt lat="44.49237" lon="-1.10375">
        <ele>68</ele>
        <time>2018-07-17T15:50:55+02:00</time>
      </trkpt>
      <trkpt lat="44.49245" lon="-1.10382">
        <ele>68</ele>
        <time>2018-07-17T15:50:59+02:00</time>
      </trkpt>
      <trkpt lat="44.49253" lon="-1.10389">
        <ele>68</ele>
        <time>2018-07-17T15:51:03+02:00</time>
      </trkpt>
      <trkpt lat="44.49261" lon="-1.10395">
        <ele>70</ele>
        <time>2018-07-17T15:51:07+02:00</time>
      </trkpt>
      <trkpt lat="44.4927" lon="-1.10402">
        <ele>71</ele>
        <time>2018-07-17T15:51:11+02:00</time>
      </trkpt>
      <trkpt lat="44.49277" lon="-1.10408">
        <ele>70</ele>
        <time>2018-07-17T15:51:15+02:00</time>
      </trkpt>
      <trkpt lat="44.49286" lon="-1.10418">
        <ele>70</ele>
        <time>2018-07-17T15:51:20+02:00</time>
      </trkpt>
      <trkpt lat="44.49292" lon="-1.10428">
        <ele>70</ele>
        <time>2018-07-17T15:51:25+02:00</time>
      </trkpt>
      <trkpt lat="44.49301" lon="-1.10437">
        <ele>69</ele>
        <time>2018-07-17T15:51:30+02:00</time>
      </trkpt>
      <trkpt lat="44.49309" lon="-1.10448">
        <ele>69</ele>
        <time>2018-07-17T15:51:35+02:00</time>
      </trkpt>
      <trkpt lat="44.49316" lon="-1.10458">
        <ele>68</ele>
        <time>2018-07-17T15:51:40+02:00</time>
      </trkpt>
      <trkpt lat="44.49325" lon="-1.10467">
        <ele>66</ele>
        <time>2018-07-17T15:51:45+02:00</time>
      </trkpt>
      <trkpt lat="44.49332" lon="-1.10477">
        <ele>67</ele>
        <time>2018-07-17T15:51:50+02:00</time>
      </trkpt>
      <trkpt lat="44.4934" lon="-1.10484">
        <ele>67</ele>
        <time>2018-07-17T15:51:55+02:00</time>
      </trkpt>
      <trkpt lat="44.49347" lon="-1.10491">
        <ele>68</ele>
        <time>2018-07-17T15:51:59+02:00</time>
      </trkpt>
      <trkpt lat="44.49355" lon="-1.10499">
        <ele>69</ele>
        <time>2018-07-17T15:52:03+02:00</time>
      </trkpt>
      <trkpt lat="44.49362" lon="-1.10508">
        <ele>68</ele>
        <time>2018-07-17T15:52:07+02:00</time>
      </trkpt>
      <trkpt lat="44.4937" lon="-1.10517">
        <ele>69</ele>
        <time>2018-07-17T15:52:11+02:00</time>
      </trkpt>
      <trkpt lat="44.49379" lon="-1.10524">
        <ele>69</ele>
        <time>2018-07-17T15:52:15+02:00</time>
      </trkpt>
      <trkpt lat="44.49387" lon="-1.10531">
        <ele>69</ele>
        <time>2018-07-17T15:52:19+02:00</time>
      </trkpt>
      <trkpt lat="44.49395" lon="-1.10539">
        <ele>69</ele>
        <time>2018-07-17T15:52:23+02:00</time>
      </trkpt>
      <trkpt lat="44.49403" lon="-1.10546">
        <ele>69</ele>
        <time>2018-07-17T15:52:27+02:00</time>
      </trkpt>
      <trkpt lat="44.49412" lon="-1.10553">
        <ele>70</ele>
        <time>2018-07-17T15:52:31+02:00</time>
      </trkpt>
      <trkpt lat="44.49419" lon="-1.10561">
        <ele>69</ele>
        <time>2018-07-17T15:52:35+02:00</time>
      </trkpt>
      <trkpt lat="44.49428" lon="-1.1057">
        <ele>70</ele>
        <time>2018-07-17T15:52:40+02:00</time>
      </trkpt>
      <trkpt lat="44.49437" lon="-1.10577">
        <ele>69</ele>
        <time>2018-07-17T15:52:45+02:00</time>
      </trkpt>
      <trkpt lat="44.49445" lon="-1.10587">
        <ele>69</ele>
        <time>2018-07-17T15:52:50+02:00</time>
      </trkpt>
      <trkpt lat="44.49451" lon="-1.10599">
        <ele>69</ele>
        <time>2018-07-17T15:52:55+02:00</time>
      </trkpt>
      <trkpt lat="44.4946" lon="-1.10608">
        <ele>70</ele>
        <time>2018-07-17T15:53:01+02:00</time>
      </trkpt>
      <trkpt lat="44.49469" lon="-1.10615">
        <ele>70</ele>
        <time>2018-07-17T15:53:06+02:00</time>
      </trkpt>
      <trkpt lat="44.49476" lon="-1.10624">
        <ele>71</ele>
        <time>2018-07-17T15:53:11+02:00</time>
      </trkpt>
      <trkpt lat="44.49484" lon="-1.10633">
        <ele>71</ele>
        <time>2018-07-17T15:53:17+02:00</time>
      </trkpt>
      <trkpt lat="44.49492" lon="-1.10642">
        <ele>70</ele>
        <time>2018-07-17T15:53:22+02:00</time>
      </trkpt>
      <trkpt lat="44.495" lon="-1.10651">
        <ele>70</ele>
        <time>2018-07-17T15:53:27+02:00</time>
      </trkpt>
      <trkpt lat="44.49508" lon="-1.10657">
        <ele>70</ele>
        <time>2018-07-17T15:53:31+02:00</time>
      </trkpt>
      <trkpt lat="44.49516" lon="-1.10668">
        <ele>68</ele>
        <time>2018-07-17T15:53:36+02:00</time>
      </trkpt>
      <trkpt lat="44.49525" lon="-1.10677">
        <ele>67</ele>
        <time>2018-07-17T15:53:41+02:00</time>
      </trkpt>
      <trkpt lat="44.49532" lon="-1.10685">
        <ele>69</ele>
        <time>2018-07-17T15:53:46+02:00</time>
      </trkpt>
      <trkpt lat="44.49538" lon="-1.10695">
        <ele>68</ele>
        <time>2018-07-17T15:53:51+02:00</time>
      </trkpt>
      <trkpt lat="44.49546" lon="-1.10705">
        <ele>69</ele>
        <time>2018-07-17T15:53:57+02:00</time>
      </trkpt>
      <trkpt lat="44.49553" lon="-1.10713">
        <ele>70</ele>
        <time>2018-07-17T15:54:02+02:00</time>
      </trkpt>
      <trkpt lat="44.4956" lon="-1.10723">
        <ele>70</ele>
        <time>2018-07-17T15:54:08+02:00</time>
      </trkpt>
      <trkpt lat="44.49567" lon="-1.10733">
        <ele>72</ele>
        <time>2018-07-17T15:54:15+02:00</time>
      </trkpt>
      <trkpt lat="44.49575" lon="-1.10742">
        <ele>72</ele>
        <time>2018-07-17T15:54:22+02:00</time>
      </trkpt>
      <trkpt lat="44.49581" lon="-1.10751">
        <ele>70</ele>
        <time>2018-07-17T15:54:28+02:00</time>
      </trkpt>
      <trkpt lat="44.49588" lon="-1.1076">
        <ele>71</ele>
        <time>2018-07-17T15:54:34+02:00</time>
      </trkpt>
      <trkpt lat="44.49596" lon="-1.10769">
        <ele>72</ele>
        <time>2018-07-17T15:54:40+02:00</time>
      </trkpt>
      <trkpt lat="44.49604" lon="-1.10778">
        <ele>73</ele>
        <time>2018-07-17T15:54:46+02:00</time>
      </trkpt>
      <trkpt lat="44.49612" lon="-1.10787">
        <ele>73</ele>
        <time>2018-07-17T15:54:52+02:00</time>
      </trkpt>
      <trkpt lat="44.49619" lon="-1.10796">
        <ele>72</ele>
        <time>2018-07-17T15:54:58+02:00</time>
      </trkpt>
      <trkpt lat="44.49627" lon="-1.10804">
        <ele>68</ele>
        <time>2018-07-17T15:55:05+02:00</time>
      </trkpt>
      <trkpt lat="44.49631" lon="-1.10815">
        <ele>71</ele>
        <time>2018-07-17T15:55:15+02:00</time>
      </trkpt>
      <trkpt lat="44.49638" lon="-1.10825">
        <ele>71</ele>
        <time>2018-07-17T15:55:22+02:00</time>
      </trkpt>
      <trkpt lat="44.49644" lon="-1.10835">
        <ele>70</ele>
        <time>2018-07-17T15:55:28+02:00</time>
      </trkpt>
      <trkpt lat="44.49651" lon="-1.10845">
        <ele>71</ele>
        <time>2018-07-17T15:55:34+02:00</time>
      </trkpt>
      <trkpt lat="44.49657" lon="-1.10854">
        <ele>69</ele>
        <time>2018-07-17T15:55:39+02:00</time>
      </trkpt>
      <trkpt lat="44.49664" lon="-1.10863">
        <ele>70</ele>
        <time>2018-07-17T15:55:44+02:00</time>
      </trkpt>
      <trkpt lat="44.49671" lon="-1.10872">
        <ele>70</ele>
        <time>2018-07-17T15:55:51+02:00</time>
      </trkpt>
      <trkpt lat="44.49679" lon="-1.10879">
        <ele>69</ele>
        <time>2018-07-17T15:55:59+02:00</time>
      </trkpt>
      <trkpt lat="44.49686" lon="-1.10888">
        <ele>69</ele>
        <time>2018-07-17T15:56:09+02:00</time>
      </trkpt>
      <trkpt lat="44.49694" lon="-1.10896">
        <ele>70</ele>
        <time>2018-07-17T15:56:18+02:00</time>
      </trkpt>
      <trkpt lat="44.49702" lon="-1.10902">
        <ele>69</ele>
        <time>2018-07-17T15:56:25+02:00</time>
      </trkpt>
      <trkpt lat="44.4971" lon="-1.10911">
        <ele>71</ele>
        <time>2018-07-17T15:56:33+02:00</time>
      </trkpt>
      <trkpt lat="44.49718" lon="-1.10917">
        <ele>69</ele>
        <time>2018-07-17T15:56:41+02:00</time>
      </trkpt>
      <trkpt lat="44.49726" lon="-1.10925">
        <ele>69</ele>
        <time>2018-07-17T15:56:49+02:00</time>
      </trkpt>
      <trkpt lat="44.49736" lon="-1.10931">
        <ele>69</ele>
        <time>2018-07-17T15:56:57+02:00</time>
      </trkpt>
      <trkpt lat="44.49745" lon="-1.10936">
        <ele>71</ele>
        <time>2018-07-17T15:57:04+02:00</time>
      </trkpt>
      <trkpt lat="44.49754" lon="-1.10941">
        <ele>71</ele>
        <time>2018-07-17T15:57:10+02:00</time>
      </trkpt>
      <trkpt lat="44.49763" lon="-1.10948">
        <ele>71</ele>
        <time>2018-07-17T15:57:18+02:00</time>
      </trkpt>
      <trkpt lat="44.49772" lon="-1.10952">
        <ele>70</ele>
        <time>2018-07-17T15:57:24+02:00</time>
      </trkpt>
      <trkpt lat="44.49781" lon="-1.10956">
        <ele>69</ele>
        <time>2018-07-17T15:57:30+02:00</time>
      </trkpt>
      <trkpt lat="44.4979" lon="-1.10961">
        <ele>70</ele>
        <time>2018-07-17T15:57:36+02:00</time>
      </trkpt>
      <trkpt lat="44.49798" lon="-1.10969">
        <ele>71</ele>
        <time>2018-07-17T15:57:42+02:00</time>
      </trkpt>
      <trkpt lat="44.49807" lon="-1.10974">
        <ele>72</ele>
        <time>2018-07-17T15:57:49+02:00</time>
      </trkpt>
      <trkpt lat="44.49816" lon="-1.1098">
        <ele>71</ele>
        <time>2018-07-17T15:57:57+02:00</time>
      </trkpt>
      <trkpt lat="44.49825" lon="-1.10984">
        <ele>71</ele>
        <time>2018-07-17T15:58:03+02:00</time>
      </trkpt>
      <trkpt lat="44.49833" lon="-1.1099">
        <ele>71</ele>
        <time>2018-07-17T15:58:09+02:00</time>
      </trkpt>
      <trkpt lat="44.49841" lon="-1.10997">
        <ele>71</ele>
        <time>2018-07-17T15:58:15+02:00</time>
      </trkpt>
      <trkpt lat="44.4985" lon="-1.11004">
        <ele>70</ele>
        <time>2018-07-17T15:58:21+02:00</time>
      </trkpt>
      <trkpt lat="44.49859" lon="-1.11011">
        <ele>71</ele>
        <time>2018-07-17T15:58:27+02:00</time>
      </trkpt>
      <trkpt lat="44.49867" lon="-1.11018">
        <ele>71</ele>
        <time>2018-07-17T15:58:32+02:00</time>
      </trkpt>
      <trkpt lat="44.49876" lon="-1.11025">
        <ele>71</ele>
        <time>2018-07-17T15:58:37+02:00</time>
      </trkpt>
      <trkpt lat="44.49883" lon="-1.11034">
        <ele>71</ele>
        <time>2018-07-17T15:58:42+02:00</time>
      </trkpt>
      <trkpt lat="44.49892" lon="-1.11039">
        <ele>70</ele>
        <time>2018-07-17T15:58:48+02:00</time>
      </trkpt>
      <trkpt lat="44.499" lon="-1.11047">
        <ele>70</ele>
        <time>2018-07-17T15:58:54+02:00</time>
      </trkpt>
      <trkpt lat="44.49908" lon="-1.11053">
        <ele>70</ele>
        <time>2018-07-17T15:59:01+02:00</time>
      </trkpt>
      <trkpt lat="44.49918" lon="-1.11059">
        <ele>68</ele>
        <time>2018-07-17T15:59:07+02:00</time>
      </trkpt>
      <trkpt lat="44.49927" lon="-1.11066">
        <ele>69</ele>
        <time>2018-07-17T15:59:13+02:00</time>
      </trkpt>
      <trkpt lat="44.49936" lon="-1.11074">
        <ele>70</ele>
        <time>2018-07-17T15:59:19+02:00</time>
      </trkpt>
      <trkpt lat="44.49944" lon="-1.11078">
        <ele>70</ele>
        <time>2018-07-17T15:59:24+02:00</time>
      </trkpt>
      <trkpt lat="44.49954" lon="-1.11084">
        <ele>71</ele>
        <time>2018-07-17T15:59:30+02:00</time>
      </trkpt>
      <trkpt lat="44.49964" lon="-1.11089">
        <ele>71</ele>
        <time>2018-07-17T15:59:36+02:00</time>
      </trkpt>
      <trkpt lat="44.49972" lon="-1.11093">
        <ele>72</ele>
        <time>2018-07-17T15:59:41+02:00</time>
      </trkpt>
      <trkpt lat="44.49981" lon="-1.11098">
        <ele>71</ele>
        <time>2018-07-17T15:59:46+02:00</time>
      </trkpt>
      <trkpt lat="44.49989" lon="-1.11104">
        <ele>70</ele>
        <time>2018-07-17T15:59:51+02:00</time>
      </trkpt>
      <trkpt lat="44.49998" lon="-1.1111">
        <ele>70</ele>
        <time>2018-07-17T15:59:57+02:00</time>
      </trkpt>
      <trkpt lat="44.50006" lon="-1.11116">
        <ele>69</ele>
        <time>2018-07-17T16:00:03+02:00</time>
      </trkpt>
      <trkpt lat="44.50016" lon="-1.11121">
        <ele>70</ele>
        <time>2018-07-17T16:00:10+02:00</time>
      </trkpt>
      <trkpt lat="44.50025" lon="-1.11126">
        <ele>69</ele>
        <time>2018-07-17T16:00:18+02:00</time>
      </trkpt>
      <trkpt lat="44.50036" lon="-1.11129">
        <ele>69</ele>
        <time>2018-07-17T16:00:25+02:00</time>
      </trkpt>
      <trkpt lat="44.50046" lon="-1.11132">
        <ele>69</ele>
        <time>2018-07-17T16:00:31+02:00</time>
      </trkpt>
      <trkpt lat="44.50054" lon="-1.11139">
        <ele>68</ele>
        <time>2018-07-17T16:00:37+02:00</time>
      </trkpt>
      <trkpt lat="44.50048" lon="-1.11149">
        <ele>70</ele>
        <time>2018-07-17T16:00:45+02:00</time>
      </trkpt>
      <trkpt lat="44.5004" lon="-1.11156">
        <ele>70</ele>
        <time>2018-07-17T16:00:50+02:00</time>
      </trkpt>
      <trkpt lat="44.50031" lon="-1.11163">
        <ele>69</ele>
        <time>2018-07-17T16:00:54+02:00</time>
      </trkpt>
      <trkpt lat="44.50023" lon="-1.11169">
        <ele>69</ele>
        <time>2018-07-17T16:00:58+02:00</time>
      </trkpt>
      <trkpt lat="44.50014" lon="-1.11176">
        <ele>69</ele>
        <time>2018-07-17T16:01:02+02:00</time>
      </trkpt>
      <trkpt lat="44.50005" lon="-1.11184">
        <ele>70</ele>
        <time>2018-07-17T16:01:06+02:00</time>
      </trkpt>
      <trkpt lat="44.49997" lon="-1.11193">
        <ele>71</ele>
        <time>2018-07-17T16:01:10+02:00</time>
      </trkpt>
      <trkpt lat="44.49989" lon="-1.11201">
        <ele>72</ele>
        <time>2018-07-17T16:01:14+02:00</time>
      </trkpt>
      <trkpt lat="44.4998" lon="-1.11209">
        <ele>72</ele>
        <time>2018-07-17T16:01:18+02:00</time>
      </trkpt>
      <trkpt lat="44.49971" lon="-1.11216">
        <ele>72</ele>
        <time>2018-07-17T16:01:22+02:00</time>
      </trkpt>
      <trkpt lat="44.49963" lon="-1.11223">
        <ele>73</ele>
        <time>2018-07-17T16:01:26+02:00</time>
      </trkpt>
      <trkpt lat="44.49955" lon="-1.11231">
        <ele>72</ele>
        <time>2018-07-17T16:01:30+02:00</time>
      </trkpt>
      <trkpt lat="44.49946" lon="-1.11238">
        <ele>70</ele>
        <time>2018-07-17T16:01:34+02:00</time>
      </trkpt>
      <trkpt lat="44.49938" lon="-1.11247">
        <ele>70</ele>
        <time>2018-07-17T16:01:38+02:00</time>
      </trkpt>
      <trkpt lat="44.49931" lon="-1.11257">
        <ele>70</ele>
        <time>2018-07-17T16:01:42+02:00</time>
      </trkpt>
      <trkpt lat="44.49923" lon="-1.11264">
        <ele>70</ele>
        <time>2018-07-17T16:01:46+02:00</time>
      </trkpt>
      <trkpt lat="44.49916" lon="-1.11272">
        <ele>71</ele>
        <time>2018-07-17T16:01:50+02:00</time>
      </trkpt>
      <trkpt lat="44.49908" lon="-1.1128">
        <ele>70</ele>
        <time>2018-07-17T16:01:54+02:00</time>
      </trkpt>
      <trkpt lat="44.499" lon="-1.11288">
        <ele>70</ele>
        <time>2018-07-17T16:01:58+02:00</time>
      </trkpt>
      <trkpt lat="44.49892" lon="-1.11295">
        <ele>70</ele>
        <time>2018-07-17T16:02:02+02:00</time>
      </trkpt>
      <trkpt lat="44.49884" lon="-1.11303">
        <ele>70</ele>
        <time>2018-07-17T16:02:06+02:00</time>
      </trkpt>
      <trkpt lat="44.49876" lon="-1.1131">
        <ele>69</ele>
        <time>2018-07-17T16:02:10+02:00</time>
      </trkpt>
      <trkpt lat="44.49867" lon="-1.11318">
        <ele>71</ele>
        <time>2018-07-17T16:02:14+02:00</time>
      </trkpt>
      <trkpt lat="44.49858" lon="-1.11326">
        <ele>71</ele>
        <time>2018-07-17T16:02:19+02:00</time>
      </trkpt>
      <trkpt lat="44.4985" lon="-1.11334">
        <ele>70</ele>
        <time>2018-07-17T16:02:23+02:00</time>
      </trkpt>
      <trkpt lat="44.49841" lon="-1.11342">
        <ele>70</ele>
        <time>2018-07-17T16:02:27+02:00</time>
      </trkpt>
      <trkpt lat="44.49834" lon="-1.11351">
        <ele>70</ele>
        <time>2018-07-17T16:02:31+02:00</time>
      </trkpt>
      <trkpt lat="44.49826" lon="-1.1136">
        <ele>70</ele>
        <time>2018-07-17T16:02:35+02:00</time>
      </trkpt>
      <trkpt lat="44.49819" lon="-1.11368">
        <ele>68</ele>
        <time>2018-07-17T16:02:39+02:00</time>
      </trkpt>
      <trkpt lat="44.49812" lon="-1.11377">
        <ele>69</ele>
        <time>2018-07-17T16:02:43+02:00</time>
      </trkpt>
      <trkpt lat="44.49804" lon="-1.11384">
        <ele>69</ele>
        <time>2018-07-17T16:02:47+02:00</time>
      </trkpt>
      <trkpt lat="44.49797" lon="-1.11392">
        <ele>70</ele>
        <time>2018-07-17T16:02:51+02:00</time>
      </trkpt>
      <trkpt lat="44.49788" lon="-1.11401">
        <ele>70</ele>
        <time>2018-07-17T16:02:56+02:00</time>
      </trkpt>
      <trkpt lat="44.49781" lon="-1.11409">
        <ele>70</ele>
        <time>2018-07-17T16:03:00+02:00</time>
      </trkpt>
      <trkpt lat="44.49774" lon="-1.11417">
        <ele>71</ele>
        <time>2018-07-17T16:03:04+02:00</time>
      </trkpt>
      <trkpt lat="44.49766" lon="-1.11424">
        <ele>69</ele>
        <time>2018-07-17T16:03:08+02:00</time>
      </trkpt>
      <trkpt lat="44.49758" lon="-1.11432">
        <ele>70</ele>
        <time>2018-07-17T16:03:12+02:00</time>
      </trkpt>
      <trkpt lat="44.4975" lon="-1.11441">
        <ele>71</ele>
        <time>2018-07-17T16:03:17+02:00</time>
      </trkpt>
      <trkpt lat="44.49742" lon="-1.11451">
        <ele>72</ele>
        <time>2018-07-17T16:03:22+02:00</time>
      </trkpt>
      <trkpt lat="44.49735" lon="-1.1146">
        <ele>70</ele>
        <time>2018-07-17T16:03:27+02:00</time>
      </trkpt>
      <trkpt lat="44.49727" lon="-1.11471">
        <ele>70</ele>
        <time>2018-07-17T16:03:32+02:00</time>
      </trkpt>
      <trkpt lat="44.4972" lon="-1.11481">
        <ele>70</ele>
        <time>2018-07-17T16:03:37+02:00</time>
      </trkpt>
      <trkpt lat="44.49714" lon="-1.11493">
        <ele>71</ele>
        <time>2018-07-17T16:03:43+02:00</time>
      </trkpt>
      <trkpt lat="44.49707" lon="-1.11502">
        <ele>71</ele>
        <time>2018-07-17T16:03:48+02:00</time>
      </trkpt>
      <trkpt lat="44.49699" lon="-1.11513">
        <ele>71</ele>
        <time>2018-07-17T16:03:53+02:00</time>
      </trkpt>
      <trkpt lat="44.49691" lon="-1.1152">
        <ele>69</ele>
        <time>2018-07-17T16:03:57+02:00</time>
      </trkpt>
      <trkpt lat="44.49683" lon="-1.11527">
        <ele>70</ele>
        <time>2018-07-17T16:04:01+02:00</time>
      </trkpt>
      <trkpt lat="44.49674" lon="-1.11536">
        <ele>68</ele>
        <time>2018-07-17T16:04:06+02:00</time>
      </trkpt>
      <trkpt lat="44.49668" lon="-1.11545">
        <ele>68</ele>
        <time>2018-07-17T16:04:10+02:00</time>
      </trkpt>
      <trkpt lat="44.49661" lon="-1.11557">
        <ele>68</ele>
        <time>2018-07-17T16:04:15+02:00</time>
      </trkpt>
      <trkpt lat="44.49656" lon="-1.1157">
        <ele>69</ele>
        <time>2018-07-17T16:04:20+02:00</time>
      </trkpt>
      <trkpt lat="44.49656" lon="-1.11582">
        <ele>70</ele>
        <time>2018-07-17T16:04:27+02:00</time>
      </trkpt>
      <trkpt lat="44.49653" lon="-1.11594">
        <ele>69</ele>
        <time>2018-07-17T16:04:51+02:00</time>
      </trkpt>
      <trkpt lat="44.49646" lon="-1.11605">
        <ele>69</ele>
        <time>2018-07-17T16:05:10+02:00</time>
      </trkpt>
      <trkpt lat="44.49655" lon="-1.11599">
        <ele>70</ele>
        <time>2018-07-17T16:06:18+02:00</time>
      </trkpt>
      <trkpt lat="44.49663" lon="-1.11592">
        <ele>71</ele>
        <time>2018-07-17T16:06:53+02:00</time>
      </trkpt>
      <trkpt lat="44.4967" lon="-1.11584">
        <ele>69</ele>
        <time>2018-07-17T16:07:02+02:00</time>
      </trkpt>
      <trkpt lat="44.49679" lon="-1.11582">
        <ele>71</ele>
        <time>2018-07-17T16:07:25+02:00</time>
      </trkpt>
      <trkpt lat="44.49689" lon="-1.1158">
        <ele>69</ele>
        <time>2018-07-17T16:07:31+02:00</time>
      </trkpt>
      <trkpt lat="44.49699" lon="-1.11578">
        <ele>70</ele>
        <time>2018-07-17T16:07:36+02:00</time>
      </trkpt>
      <trkpt lat="44.49709" lon="-1.11575">
        <ele>67</ele>
        <time>2018-07-17T16:07:41+02:00</time>
      </trkpt>
      <trkpt lat="44.49719" lon="-1.11573">
        <ele>67</ele>
        <time>2018-07-17T16:07:46+02:00</time>
      </trkpt>
      <trkpt lat="44.4973" lon="-1.11573">
        <ele>66</ele>
        <time>2018-07-17T16:07:51+02:00</time>
      </trkpt>
      <trkpt lat="44.49741" lon="-1.11573">
        <ele>67</ele>
        <time>2018-07-17T16:07:56+02:00</time>
      </trkpt>
      <trkpt lat="44.49751" lon="-1.11572">
        <ele>66</ele>
        <time>2018-07-17T16:08:01+02:00</time>
      </trkpt>
      <trkpt lat="44.49745" lon="-1.11583">
        <ele>71</ele>
        <time>2018-07-17T16:08:30+02:00</time>
      </trkpt>
      <trkpt lat="44.49736" lon="-1.11585">
        <ele>71</ele>
        <time>2018-07-17T16:08:35+02:00</time>
      </trkpt>
      <trkpt lat="44.49727" lon="-1.11588">
        <ele>70</ele>
        <time>2018-07-17T16:08:40+02:00</time>
      </trkpt>
      <trkpt lat="44.49719" lon="-1.11593">
        <ele>69</ele>
        <time>2018-07-17T16:08:45+02:00</time>
      </trkpt>
      <trkpt lat="44.4971" lon="-1.11598">
        <ele>69</ele>
        <time>2018-07-17T16:08:50+02:00</time>
      </trkpt>
      <trkpt lat="44.497" lon="-1.11603">
        <ele>70</ele>
        <time>2018-07-17T16:08:56+02:00</time>
      </trkpt>
      <trkpt lat="44.4969" lon="-1.11602">
        <ele>71</ele>
        <time>2018-07-17T16:09:02+02:00</time>
      </trkpt>
      <trkpt lat="44.4968" lon="-1.11603">
        <ele>71</ele>
        <time>2018-07-17T16:09:07+02:00</time>
      </trkpt>
      <trkpt lat="44.49671" lon="-1.11607">
        <ele>71</ele>
        <time>2018-07-17T16:09:13+02:00</time>
      </trkpt>
      <trkpt lat="44.49662" lon="-1.116">
        <ele>70</ele>
        <time>2018-07-17T16:09:18+02:00</time>
      </trkpt>
      <trkpt lat="44.49654" lon="-1.11592">
        <ele>71</ele>
        <time>2018-07-17T16:09:22+02:00</time>
      </trkpt>
      <trkpt lat="44.49644" lon="-1.11588">
        <ele>73</ele>
        <time>2018-07-17T16:09:27+02:00</time>
      </trkpt>
      <trkpt lat="44.49633" lon="-1.11589">
        <ele>72</ele>
        <time>2018-07-17T16:09:32+02:00</time>
      </trkpt>
      <trkpt lat="44.49624" lon="-1.1159">
        <ele>71</ele>
        <time>2018-07-17T16:09:37+02:00</time>
      </trkpt>
      <trkpt lat="44.49614" lon="-1.11596">
        <ele>71</ele>
        <time>2018-07-17T16:09:43+02:00</time>
      </trkpt>
      <trkpt lat="44.49605" lon="-1.11599">
        <ele>71</ele>
        <time>2018-07-17T16:09:48+02:00</time>
      </trkpt>
      <trkpt lat="44.49595" lon="-1.11605">
        <ele>71</ele>
        <time>2018-07-17T16:09:54+02:00</time>
      </trkpt>
      <trkpt lat="44.49587" lon="-1.1161">
        <ele>71</ele>
        <time>2018-07-17T16:09:59+02:00</time>
      </trkpt>
      <trkpt lat="44.49578" lon="-1.11615">
        <ele>70</ele>
        <time>2018-07-17T16:10:04+02:00</time>
      </trkpt>
      <trkpt lat="44.49569" lon="-1.11622">
        <ele>71</ele>
        <time>2018-07-17T16:10:10+02:00</time>
      </trkpt>
      <trkpt lat="44.4956" lon="-1.11627">
        <ele>70</ele>
        <time>2018-07-17T16:10:15+02:00</time>
      </trkpt>
      <trkpt lat="44.49551" lon="-1.11631">
        <ele>70</ele>
        <time>2018-07-17T16:10:20+02:00</time>
      </trkpt>
      <trkpt lat="44.49543" lon="-1.11637">
        <ele>70</ele>
        <time>2018-07-17T16:10:25+02:00</time>
      </trkpt>
      <trkpt lat="44.49535" lon="-1.11645">
        <ele>73</ele>
        <time>2018-07-17T16:10:31+02:00</time>
      </trkpt>
      <trkpt lat="44.49528" lon="-1.11653">
        <ele>72</ele>
        <time>2018-07-17T16:10:37+02:00</time>
      </trkpt>
      <trkpt lat="44.4952" lon="-1.11661">
        <ele>73</ele>
        <time>2018-07-17T16:10:43+02:00</time>
      </trkpt>
      <trkpt lat="44.49511" lon="-1.11668">
        <ele>71</ele>
        <time>2018-07-17T16:10:50+02:00</time>
      </trkpt>
      <trkpt lat="44.49504" lon="-1.11675">
        <ele>71</ele>
        <time>2018-07-17T16:10:56+02:00</time>
      </trkpt>
      <trkpt lat="44.49498" lon="-1.11685">
        <ele>71</ele>
        <time>2018-07-17T16:11:04+02:00</time>
      </trkpt>
      <trkpt lat="44.4949" lon="-1.11694">
        <ele>69</ele>
        <time>2018-07-17T16:11:12+02:00</time>
      </trkpt>
      <trkpt lat="44.49484" lon="-1.11703">
        <ele>69</ele>
        <time>2018-07-17T16:11:20+02:00</time>
      </trkpt>
      <trkpt lat="44.49477" lon="-1.11713">
        <ele>69</ele>
        <time>2018-07-17T16:11:29+02:00</time>
      </trkpt>
      <trkpt lat="44.4947" lon="-1.11721">
        <ele>70</ele>
        <time>2018-07-17T16:11:37+02:00</time>
      </trkpt>
      <trkpt lat="44.49462" lon="-1.11729">
        <ele>72</ele>
        <time>2018-07-17T16:11:45+02:00</time>
      </trkpt>
      <trkpt lat="44.49453" lon="-1.11737">
        <ele>72</ele>
        <time>2018-07-17T16:11:52+02:00</time>
      </trkpt>
      <trkpt lat="44.49446" lon="-1.11745">
        <ele>73</ele>
        <time>2018-07-17T16:11:58+02:00</time>
      </trkpt>
      <trkpt lat="44.49442" lon="-1.11758">
        <ele>73</ele>
        <time>2018-07-17T16:12:05+02:00</time>
      </trkpt>
      <trkpt lat="44.49439" lon="-1.1177">
        <ele>71</ele>
        <time>2018-07-17T16:12:19+02:00</time>
      </trkpt>
      <trkpt lat="44.49431" lon="-1.11778">
        <ele>73</ele>
        <time>2018-07-17T16:12:30+02:00</time>
      </trkpt>
      <trkpt lat="44.49423" lon="-1.11784">
        <ele>72</ele>
        <time>2018-07-17T16:12:41+02:00</time>
      </trkpt>
      <trkpt lat="44.49415" lon="-1.1179">
        <ele>72</ele>
        <time>2018-07-17T16:12:52+02:00</time>
      </trkpt>
      <trkpt lat="44.49408" lon="-1.11798">
        <ele>71</ele>
        <time>2018-07-17T16:13:04+02:00</time>
      </trkpt>
      <trkpt lat="44.49399" lon="-1.11805">
        <ele>72</ele>
        <time>2018-07-17T16:13:15+02:00</time>
      </trkpt>
      <trkpt lat="44.49391" lon="-1.1181">
        <ele>71</ele>
        <time>2018-07-17T16:13:22+02:00</time>
      </trkpt>
      <trkpt lat="44.49382" lon="-1.11816">
        <ele>72</ele>
        <time>2018-07-17T16:13:28+02:00</time>
      </trkpt>
      <trkpt lat="44.49372" lon="-1.11821">
        <ele>72</ele>
        <time>2018-07-17T16:13:34+02:00</time>
      </trkpt>
      <trkpt lat="44.49362" lon="-1.11824">
        <ele>70</ele>
        <time>2018-07-17T16:13:40+02:00</time>
      </trkpt>
      <trkpt lat="44.49352" lon="-1.11826">
        <ele>70</ele>
        <time>2018-07-17T16:13:46+02:00</time>
      </trkpt>
      <trkpt lat="44.49342" lon="-1.11828">
        <ele>68</ele>
        <time>2018-07-17T16:13:52+02:00</time>
      </trkpt>
      <trkpt lat="44.49332" lon="-1.1183">
        <ele>70</ele>
        <time>2018-07-17T16:13:58+02:00</time>
      </trkpt>
      <trkpt lat="44.49322" lon="-1.11835">
        <ele>70</ele>
        <time>2018-07-17T16:14:04+02:00</time>
      </trkpt>
      <trkpt lat="44.49313" lon="-1.11841">
        <ele>70</ele>
        <time>2018-07-17T16:14:11+02:00</time>
      </trkpt>
      <trkpt lat="44.49304" lon="-1.11848">
        <ele>70</ele>
        <time>2018-07-17T16:14:18+02:00</time>
      </trkpt>
      <trkpt lat="44.49297" lon="-1.11856">
        <ele>69</ele>
        <time>2018-07-17T16:14:25+02:00</time>
      </trkpt>
      <trkpt lat="44.4929" lon="-1.11867">
        <ele>71</ele>
        <time>2018-07-17T16:14:32+02:00</time>
      </trkpt>
      <trkpt lat="44.49281" lon="-1.11875">
        <ele>71</ele>
        <time>2018-07-17T16:14:38+02:00</time>
      </trkpt>
      <trkpt lat="44.49274" lon="-1.11882">
        <ele>71</ele>
        <time>2018-07-17T16:14:43+02:00</time>
      </trkpt>
      <trkpt lat="44.49266" lon="-1.11889">
        <ele>70</ele>
        <time>2018-07-17T16:14:49+02:00</time>
      </trkpt>
      <trkpt lat="44.49258" lon="-1.11897">
        <ele>71</ele>
        <time>2018-07-17T16:14:54+02:00</time>
      </trkpt>
      <trkpt lat="44.4925" lon="-1.11904">
        <ele>70</ele>
        <time>2018-07-17T16:14:59+02:00</time>
      </trkpt>
      <trkpt lat="44.49242" lon="-1.11912">
        <ele>69</ele>
        <time>2018-07-17T16:15:05+02:00</time>
      </trkpt>
      <trkpt lat="44.49235" lon="-1.1192">
        <ele>70</ele>
        <time>2018-07-17T16:15:10+02:00</time>
      </trkpt>
      <trkpt lat="44.49227" lon="-1.11928">
        <ele>69</ele>
        <time>2018-07-17T16:15:15+02:00</time>
      </trkpt>
      <trkpt lat="44.49218" lon="-1.11934">
        <ele>69</ele>
        <time>2018-07-17T16:15:20+02:00</time>
      </trkpt>
      <trkpt lat="44.4921" lon="-1.11943">
        <ele>69</ele>
        <time>2018-07-17T16:15:25+02:00</time>
      </trkpt>
      <trkpt lat="44.49202" lon="-1.11953">
        <ele>69</ele>
        <time>2018-07-17T16:15:30+02:00</time>
      </trkpt>
      <trkpt lat="44.49195" lon="-1.11964">
        <ele>70</ele>
        <time>2018-07-17T16:15:35+02:00</time>
      </trkpt>
      <trkpt lat="44.49189" lon="-1.11976">
        <ele>70</ele>
        <time>2018-07-17T16:15:40+02:00</time>
      </trkpt>
      <trkpt lat="44.49182" lon="-1.11984">
        <ele>71</ele>
        <time>2018-07-17T16:15:45+02:00</time>
      </trkpt>
      <trkpt lat="44.49174" lon="-1.11992">
        <ele>69</ele>
        <time>2018-07-17T16:15:50+02:00</time>
      </trkpt>
      <trkpt lat="44.49168" lon="-1.12001">
        <ele>69</ele>
        <time>2018-07-17T16:15:55+02:00</time>
      </trkpt>
      <trkpt lat="44.49159" lon="-1.12007">
        <ele>71</ele>
        <time>2018-07-17T16:16:00+02:00</time>
      </trkpt>
      <trkpt lat="44.49153" lon="-1.12019">
        <ele>70</ele>
        <time>2018-07-17T16:16:06+02:00</time>
      </trkpt>
      <trkpt lat="44.49144" lon="-1.12026">
        <ele>71</ele>
        <time>2018-07-17T16:16:12+02:00</time>
      </trkpt>
      <trkpt lat="44.49134" lon="-1.12032">
        <ele>72</ele>
        <time>2018-07-17T16:16:17+02:00</time>
      </trkpt>
      <trkpt lat="44.49126" lon="-1.12041">
        <ele>72</ele>
        <time>2018-07-17T16:16:23+02:00</time>
      </trkpt>
      <trkpt lat="44.49117" lon="-1.12049">
        <ele>71</ele>
        <time>2018-07-17T16:16:29+02:00</time>
      </trkpt>
      <trkpt lat="44.49108" lon="-1.12053">
        <ele>72</ele>
        <time>2018-07-17T16:16:34+02:00</time>
      </trkpt>
      <trkpt lat="44.49098" lon="-1.12059">
        <ele>72</ele>
        <time>2018-07-17T16:16:40+02:00</time>
      </trkpt>
      <trkpt lat="44.49089" lon="-1.12066">
        <ele>71</ele>
        <time>2018-07-17T16:16:45+02:00</time>
      </trkpt>
      <trkpt lat="44.49081" lon="-1.12074">
        <ele>71</ele>
        <time>2018-07-17T16:16:50+02:00</time>
      </trkpt>
      <trkpt lat="44.49072" lon="-1.12081">
        <ele>71</ele>
        <time>2018-07-17T16:16:55+02:00</time>
      </trkpt>
      <trkpt lat="44.49063" lon="-1.12089">
        <ele>70</ele>
        <time>2018-07-17T16:17:00+02:00</time>
      </trkpt>
      <trkpt lat="44.49053" lon="-1.12093">
        <ele>70</ele>
        <time>2018-07-17T16:17:05+02:00</time>
      </trkpt>
      <trkpt lat="44.49045" lon="-1.12099">
        <ele>69</ele>
        <time>2018-07-17T16:17:10+02:00</time>
      </trkpt>
      <trkpt lat="44.49036" lon="-1.12105">
        <ele>70</ele>
        <time>2018-07-17T16:17:15+02:00</time>
      </trkpt>
      <trkpt lat="44.49026" lon="-1.12111">
        <ele>70</ele>
        <time>2018-07-17T16:17:20+02:00</time>
      </trkpt>
      <trkpt lat="44.49018" lon="-1.12116">
        <ele>70</ele>
        <time>2018-07-17T16:17:25+02:00</time>
      </trkpt>
      <trkpt lat="44.49009" lon="-1.12123">
        <ele>70</ele>
        <time>2018-07-17T16:17:31+02:00</time>
      </trkpt>
      <trkpt lat="44.49001" lon="-1.12129">
        <ele>69</ele>
        <time>2018-07-17T16:17:36+02:00</time>
      </trkpt>
      <trkpt lat="44.48993" lon="-1.12135">
        <ele>69</ele>
        <time>2018-07-17T16:17:41+02:00</time>
      </trkpt>
      <trkpt lat="44.48984" lon="-1.12144">
        <ele>68</ele>
        <time>2018-07-17T16:17:47+02:00</time>
      </trkpt>
      <trkpt lat="44.48976" lon="-1.12151">
        <ele>68</ele>
        <time>2018-07-17T16:17:52+02:00</time>
      </trkpt>
      <trkpt lat="44.48968" lon="-1.12159">
        <ele>67</ele>
        <time>2018-07-17T16:17:58+02:00</time>
      </trkpt>
      <trkpt lat="44.48961" lon="-1.12166">
        <ele>68</ele>
        <time>2018-07-17T16:18:04+02:00</time>
      </trkpt>
      <trkpt lat="44.48954" lon="-1.12176">
        <ele>69</ele>
        <time>2018-07-17T16:18:10+02:00</time>
      </trkpt>
      <trkpt lat="44.48947" lon="-1.12187">
        <ele>71</ele>
        <time>2018-07-17T16:18:16+02:00</time>
      </trkpt>
      <trkpt lat="44.4894" lon="-1.12198">
        <ele>70</ele>
        <time>2018-07-17T16:18:22+02:00</time>
      </trkpt>
      <trkpt lat="44.48933" lon="-1.12206">
        <ele>70</ele>
        <time>2018-07-17T16:18:27+02:00</time>
      </trkpt>
      <trkpt lat="44.48926" lon="-1.12215">
        <ele>69</ele>
        <time>2018-07-17T16:18:32+02:00</time>
      </trkpt>
      <trkpt lat="44.48918" lon="-1.12223">
        <ele>69</ele>
        <time>2018-07-17T16:18:37+02:00</time>
      </trkpt>
      <trkpt lat="44.4891" lon="-1.12233">
        <ele>69</ele>
        <time>2018-07-17T16:18:43+02:00</time>
      </trkpt>
      <trkpt lat="44.48903" lon="-1.12244">
        <ele>69</ele>
        <time>2018-07-17T16:18:49+02:00</time>
      </trkpt>
      <trkpt lat="44.48896" lon="-1.12254">
        <ele>70</ele>
        <time>2018-07-17T16:18:55+02:00</time>
      </trkpt>
      <trkpt lat="44.48889" lon="-1.12263">
        <ele>73</ele>
        <time>2018-07-17T16:19:00+02:00</time>
      </trkpt>
      <trkpt lat="44.48881" lon="-1.12273">
        <ele>73</ele>
        <time>2018-07-17T16:19:06+02:00</time>
      </trkpt>
      <trkpt lat="44.48874" lon="-1.12282">
        <ele>72</ele>
        <time>2018-07-17T16:19:12+02:00</time>
      </trkpt>
      <trkpt lat="44.48866" lon="-1.12291">
        <ele>73</ele>
        <time>2018-07-17T16:19:18+02:00</time>
      </trkpt>
      <trkpt lat="44.48858" lon="-1.123">
        <ele>75</ele>
        <time>2018-07-17T16:19:24+02:00</time>
      </trkpt>
      <trkpt lat="44.48849" lon="-1.12308">
        <ele>73</ele>
        <time>2018-07-17T16:19:30+02:00</time>
      </trkpt>
      <trkpt lat="44.48842" lon="-1.12316">
        <ele>74</ele>
        <time>2018-07-17T16:19:35+02:00</time>
      </trkpt>
      <trkpt lat="44.48834" lon="-1.12323">
        <ele>73</ele>
        <time>2018-07-17T16:19:40+02:00</time>
      </trkpt>
      <trkpt lat="44.48825" lon="-1.1233">
        <ele>72</ele>
        <time>2018-07-17T16:19:45+02:00</time>
      </trkpt>
      <trkpt lat="44.48817" lon="-1.12337">
        <ele>72</ele>
        <time>2018-07-17T16:19:50+02:00</time>
      </trkpt>
      <trkpt lat="44.48808" lon="-1.12345">
        <ele>70</ele>
        <time>2018-07-17T16:19:56+02:00</time>
      </trkpt>
      <trkpt lat="44.48799" lon="-1.12352">
        <ele>70</ele>
        <time>2018-07-17T16:20:01+02:00</time>
      </trkpt>
      <trkpt lat="44.4879" lon="-1.12358">
        <ele>70</ele>
        <time>2018-07-17T16:20:06+02:00</time>
      </trkpt>
      <trkpt lat="44.48781" lon="-1.12363">
        <ele>70</ele>
        <time>2018-07-17T16:20:11+02:00</time>
      </trkpt>
      <trkpt lat="44.48773" lon="-1.12369">
        <ele>71</ele>
        <time>2018-07-17T16:20:16+02:00</time>
      </trkpt>
      <trkpt lat="44.48766" lon="-1.12377">
        <ele>70</ele>
        <time>2018-07-17T16:20:21+02:00</time>
      </trkpt>
      <trkpt lat="44.48759" lon="-1.12387">
        <ele>71</ele>
        <time>2018-07-17T16:20:27+02:00</time>
      </trkpt>
      <trkpt lat="44.48751" lon="-1.12396">
        <ele>73</ele>
        <time>2018-07-17T16:20:33+02:00</time>
      </trkpt>
      <trkpt lat="44.48744" lon="-1.12405">
        <ele>73</ele>
        <time>2018-07-17T16:20:40+02:00</time>
      </trkpt>
      <trkpt lat="44.48736" lon="-1.12414">
        <ele>73</ele>
        <time>2018-07-17T16:20:47+02:00</time>
      </trkpt>
      <trkpt lat="44.48729" lon="-1.12425">
        <ele>73</ele>
        <time>2018-07-17T16:20:53+02:00</time>
      </trkpt>
      <trkpt lat="44.48722" lon="-1.12436">
        <ele>73</ele>
        <time>2018-07-17T16:20:59+02:00</time>
      </trkpt>
      <trkpt lat="44.48714" lon="-1.12445">
        <ele>71</ele>
        <time>2018-07-17T16:21:05+02:00</time>
      </trkpt>
      <trkpt lat="44.48706" lon="-1.12456">
        <ele>73</ele>
        <time>2018-07-17T16:21:11+02:00</time>
      </trkpt>
      <trkpt lat="44.487" lon="-1.12465">
        <ele>73</ele>
        <time>2018-07-17T16:21:16+02:00</time>
      </trkpt>
      <trkpt lat="44.48692" lon="-1.12474">
        <ele>74</ele>
        <time>2018-07-17T16:21:21+02:00</time>
      </trkpt>
      <trkpt lat="44.48686" lon="-1.12485">
        <ele>73</ele>
        <time>2018-07-17T16:21:26+02:00</time>
      </trkpt>
      <trkpt lat="44.4868" lon="-1.12496">
        <ele>72</ele>
        <time>2018-07-17T16:21:31+02:00</time>
      </trkpt>
      <trkpt lat="44.48672" lon="-1.12507">
        <ele>73</ele>
        <time>2018-07-17T16:21:36+02:00</time>
      </trkpt>
      <trkpt lat="44.48665" lon="-1.12518">
        <ele>73</ele>
        <time>2018-07-17T16:21:41+02:00</time>
      </trkpt>
      <trkpt lat="44.48657" lon="-1.12529">
        <ele>73</ele>
        <time>2018-07-17T16:21:46+02:00</time>
      </trkpt>
      <trkpt lat="44.48651" lon="-1.12538">
        <ele>75</ele>
        <time>2018-07-17T16:21:50+02:00</time>
      </trkpt>
      <trkpt lat="44.48645" lon="-1.12551">
        <ele>73</ele>
        <time>2018-07-17T16:21:55+02:00</time>
      </trkpt>
      <trkpt lat="44.48638" lon="-1.12561">
        <ele>74</ele>
        <time>2018-07-17T16:22:00+02:00</time>
      </trkpt>
      <trkpt lat="44.48631" lon="-1.12572">
        <ele>74</ele>
        <time>2018-07-17T16:22:05+02:00</time>
      </trkpt>
      <trkpt lat="44.48625" lon="-1.12584">
        <ele>74</ele>
        <time>2018-07-17T16:22:10+02:00</time>
      </trkpt>
      <trkpt lat="44.48617" lon="-1.12596">
        <ele>76</ele>
        <time>2018-07-17T16:22:15+02:00</time>
      </trkpt>
      <trkpt lat="44.48611" lon="-1.12608">
        <ele>75</ele>
        <time>2018-07-17T16:22:20+02:00</time>
      </trkpt>
      <trkpt lat="44.48603" lon="-1.12619">
        <ele>75</ele>
        <time>2018-07-17T16:22:25+02:00</time>
      </trkpt>
      <trkpt lat="44.48597" lon="-1.12631">
        <ele>75</ele>
        <time>2018-07-17T16:22:30+02:00</time>
      </trkpt>
      <trkpt lat="44.4859" lon="-1.12641">
        <ele>76</ele>
        <time>2018-07-17T16:22:35+02:00</time>
      </trkpt>
      <trkpt lat="44.48583" lon="-1.12649">
        <ele>75</ele>
        <time>2018-07-17T16:22:39+02:00</time>
      </trkpt>
      <trkpt lat="44.48575" lon="-1.12659">
        <ele>76</ele>
        <time>2018-07-17T16:22:44+02:00</time>
      </trkpt>
      <trkpt lat="44.48569" lon="-1.12669">
        <ele>77</ele>
        <time>2018-07-17T16:22:49+02:00</time>
      </trkpt>
      <trkpt lat="44.48563" lon="-1.1268">
        <ele>77</ele>
        <time>2018-07-17T16:22:54+02:00</time>
      </trkpt>
      <trkpt lat="44.48555" lon="-1.12687">
        <ele>78</ele>
        <time>2018-07-17T16:22:59+02:00</time>
      </trkpt>
      <trkpt lat="44.48548" lon="-1.12697">
        <ele>76</ele>
        <time>2018-07-17T16:23:05+02:00</time>
      </trkpt>
      <trkpt lat="44.48542" lon="-1.12708">
        <ele>77</ele>
        <time>2018-07-17T16:23:11+02:00</time>
      </trkpt>
      <trkpt lat="44.48536" lon="-1.12719">
        <ele>77</ele>
        <time>2018-07-17T16:23:17+02:00</time>
      </trkpt>
      <trkpt lat="44.48529" lon="-1.12728">
        <ele>74</ele>
        <time>2018-07-17T16:23:22+02:00</time>
      </trkpt>
      <trkpt lat="44.48522" lon="-1.12739">
        <ele>75</ele>
        <time>2018-07-17T16:23:28+02:00</time>
      </trkpt>
      <trkpt lat="44.48515" lon="-1.12749">
        <ele>75</ele>
        <time>2018-07-17T16:23:33+02:00</time>
      </trkpt>
      <trkpt lat="44.48509" lon="-1.12759">
        <ele>76</ele>
        <time>2018-07-17T16:23:38+02:00</time>
      </trkpt>
      <trkpt lat="44.48501" lon="-1.12768">
        <ele>75</ele>
        <time>2018-07-17T16:23:43+02:00</time>
      </trkpt>
      <trkpt lat="44.48496" lon="-1.12779">
        <ele>73</ele>
        <time>2018-07-17T16:23:48+02:00</time>
      </trkpt>
      <trkpt lat="44.48489" lon="-1.12788">
        <ele>74</ele>
        <time>2018-07-17T16:23:53+02:00</time>
      </trkpt>
      <trkpt lat="44.48482" lon="-1.128">
        <ele>72</ele>
        <time>2018-07-17T16:23:59+02:00</time>
      </trkpt>
      <trkpt lat="44.48476" lon="-1.12809">
        <ele>71</ele>
        <time>2018-07-17T16:24:04+02:00</time>
      </trkpt>
      <trkpt lat="44.48467" lon="-1.12818">
        <ele>71</ele>
        <time>2018-07-17T16:24:09+02:00</time>
      </trkpt>
      <trkpt lat="44.48459" lon="-1.12825">
        <ele>72</ele>
        <time>2018-07-17T16:24:14+02:00</time>
      </trkpt>
      <trkpt lat="44.48451" lon="-1.12834">
        <ele>71</ele>
        <time>2018-07-17T16:24:19+02:00</time>
      </trkpt>
      <trkpt lat="44.48443" lon="-1.12842">
        <ele>72</ele>
        <time>2018-07-17T16:24:24+02:00</time>
      </trkpt>
      <trkpt lat="44.48434" lon="-1.12848">
        <ele>71</ele>
        <time>2018-07-17T16:24:29+02:00</time>
      </trkpt>
      <trkpt lat="44.48424" lon="-1.12851">
        <ele>72</ele>
        <time>2018-07-17T16:24:34+02:00</time>
      </trkpt>
      <trkpt lat="44.48415" lon="-1.12852">
        <ele>71</ele>
        <time>2018-07-17T16:24:39+02:00</time>
      </trkpt>
      <trkpt lat="44.48405" lon="-1.12857">
        <ele>72</ele>
        <time>2018-07-17T16:24:45+02:00</time>
      </trkpt>
      <trkpt lat="44.48398" lon="-1.12868">
        <ele>73</ele>
        <time>2018-07-17T16:24:52+02:00</time>
      </trkpt>
      <trkpt lat="44.4839" lon="-1.12878">
        <ele>74</ele>
        <time>2018-07-17T16:24:59+02:00</time>
      </trkpt>
      <trkpt lat="44.48382" lon="-1.12885">
        <ele>75</ele>
        <time>2018-07-17T16:25:04+02:00</time>
      </trkpt>
      <trkpt lat="44.48372" lon="-1.1289">
        <ele>73</ele>
        <time>2018-07-17T16:25:09+02:00</time>
      </trkpt>
      <trkpt lat="44.48364" lon="-1.12897">
        <ele>74</ele>
        <time>2018-07-17T16:25:13+02:00</time>
      </trkpt>
      <trkpt lat="44.48355" lon="-1.12906">
        <ele>74</ele>
        <time>2018-07-17T16:25:18+02:00</time>
      </trkpt>
      <trkpt lat="44.48346" lon="-1.12914">
        <ele>74</ele>
        <time>2018-07-17T16:25:23+02:00</time>
      </trkpt>
      <trkpt lat="44.48337" lon="-1.12923">
        <ele>74</ele>
        <time>2018-07-17T16:25:28+02:00</time>
      </trkpt>
      <trkpt lat="44.48329" lon="-1.1293">
        <ele>74</ele>
        <time>2018-07-17T16:25:33+02:00</time>
      </trkpt>
      <trkpt lat="44.48322" lon="-1.12939">
        <ele>72</ele>
        <time>2018-07-17T16:25:38+02:00</time>
      </trkpt>
      <trkpt lat="44.48315" lon="-1.12949">
        <ele>74</ele>
        <time>2018-07-17T16:25:43+02:00</time>
      </trkpt>
      <trkpt lat="44.48307" lon="-1.12957">
        <ele>73</ele>
        <time>2018-07-17T16:25:48+02:00</time>
      </trkpt>
      <trkpt lat="44.48299" lon="-1.12964">
        <ele>72</ele>
        <time>2018-07-17T16:25:53+02:00</time>
      </trkpt>
      <trkpt lat="44.4829" lon="-1.12971">
        <ele>73</ele>
        <time>2018-07-17T16:25:59+02:00</time>
      </trkpt>
      <trkpt lat="44.48281" lon="-1.12977">
        <ele>72</ele>
        <time>2018-07-17T16:26:04+02:00</time>
      </trkpt>
      <trkpt lat="44.48272" lon="-1.12983">
        <ele>71</ele>
        <time>2018-07-17T16:26:09+02:00</time>
      </trkpt>
      <trkpt lat="44.48264" lon="-1.12989">
        <ele>71</ele>
        <time>2018-07-17T16:26:14+02:00</time>
      </trkpt>
      <trkpt lat="44.48254" lon="-1.12996">
        <ele>71</ele>
        <time>2018-07-17T16:26:19+02:00</time>
      </trkpt>
      <trkpt lat="44.48246" lon="-1.13004">
        <ele>71</ele>
        <time>2018-07-17T16:26:24+02:00</time>
      </trkpt>
      <trkpt lat="44.48238" lon="-1.13014">
        <ele>72</ele>
        <time>2018-07-17T16:26:29+02:00</time>
      </trkpt>
      <trkpt lat="44.48231" lon="-1.13024">
        <ele>72</ele>
        <time>2018-07-17T16:26:34+02:00</time>
      </trkpt>
      <trkpt lat="44.48223" lon="-1.13034">
        <ele>74</ele>
        <time>2018-07-17T16:26:39+02:00</time>
      </trkpt>
      <trkpt lat="44.48216" lon="-1.13042">
        <ele>73</ele>
        <time>2018-07-17T16:26:44+02:00</time>
      </trkpt>
      <trkpt lat="44.48207" lon="-1.1305">
        <ele>73</ele>
        <time>2018-07-17T16:26:49+02:00</time>
      </trkpt>
      <trkpt lat="44.48199" lon="-1.13058">
        <ele>73</ele>
        <time>2018-07-17T16:26:54+02:00</time>
      </trkpt>
      <trkpt lat="44.4819" lon="-1.13064">
        <ele>73</ele>
        <time>2018-07-17T16:26:59+02:00</time>
      </trkpt>
      <trkpt lat="44.48181" lon="-1.13071">
        <ele>74</ele>
        <time>2018-07-17T16:27:04+02:00</time>
      </trkpt>
      <trkpt lat="44.48172" lon="-1.13078">
        <ele>72</ele>
        <time>2018-07-17T16:27:09+02:00</time>
      </trkpt>
      <trkpt lat="44.48164" lon="-1.13088">
        <ele>71</ele>
        <time>2018-07-17T16:27:14+02:00</time>
      </trkpt>
      <trkpt lat="44.48156" lon="-1.13097">
        <ele>72</ele>
        <time>2018-07-17T16:27:19+02:00</time>
      </trkpt>
      <trkpt lat="44.48149" lon="-1.13105">
        <ele>72</ele>
        <time>2018-07-17T16:27:24+02:00</time>
      </trkpt>
      <trkpt lat="44.48141" lon="-1.13114">
        <ele>72</ele>
        <time>2018-07-17T16:27:29+02:00</time>
      </trkpt>
      <trkpt lat="44.48135" lon="-1.13123">
        <ele>73</ele>
        <time>2018-07-17T16:27:34+02:00</time>
      </trkpt>
      <trkpt lat="44.48127" lon="-1.13133">
        <ele>73</ele>
        <time>2018-07-17T16:27:39+02:00</time>
      </trkpt>
      <trkpt lat="44.4812" lon="-1.13142">
        <ele>73</ele>
        <time>2018-07-17T16:27:44+02:00</time>
      </trkpt>
      <trkpt lat="44.48114" lon="-1.13152">
        <ele>73</ele>
        <time>2018-07-17T16:27:49+02:00</time>
      </trkpt>
      <trkpt lat="44.48108" lon="-1.13163">
        <ele>73</ele>
        <time>2018-07-17T16:27:55+02:00</time>
      </trkpt>
      <trkpt lat="44.481" lon="-1.13172">
        <ele>74</ele>
        <time>2018-07-17T16:28:01+02:00</time>
      </trkpt>
      <trkpt lat="44.48092" lon="-1.13179">
        <ele>74</ele>
        <time>2018-07-17T16:28:06+02:00</time>
      </trkpt>
      <trkpt lat="44.48083" lon="-1.13186">
        <ele>73</ele>
        <time>2018-07-17T16:28:11+02:00</time>
      </trkpt>
      <trkpt lat="44.48073" lon="-1.13191">
        <ele>72</ele>
        <time>2018-07-17T16:28:16+02:00</time>
      </trkpt>
      <trkpt lat="44.48063" lon="-1.13197">
        <ele>72</ele>
        <time>2018-07-17T16:28:21+02:00</time>
      </trkpt>
      <trkpt lat="44.48055" lon="-1.13205">
        <ele>71</ele>
        <time>2018-07-17T16:28:26+02:00</time>
      </trkpt>
      <trkpt lat="44.48047" lon="-1.13214">
        <ele>71</ele>
        <time>2018-07-17T16:28:31+02:00</time>
      </trkpt>
      <trkpt lat="44.48041" lon="-1.13224">
        <ele>73</ele>
        <time>2018-07-17T16:28:36+02:00</time>
      </trkpt>
      <trkpt lat="44.48035" lon="-1.13233">
        <ele>72</ele>
        <time>2018-07-17T16:28:41+02:00</time>
      </trkpt>
      <trkpt lat="44.48027" lon="-1.13244">
        <ele>73</ele>
        <time>2018-07-17T16:28:46+02:00</time>
      </trkpt>
      <trkpt lat="44.4802" lon="-1.13254">
        <ele>73</ele>
        <time>2018-07-17T16:28:51+02:00</time>
      </trkpt>
      <trkpt lat="44.48013" lon="-1.13264">
        <ele>74</ele>
        <time>2018-07-17T16:28:56+02:00</time>
      </trkpt>
      <trkpt lat="44.48007" lon="-1.13273">
        <ele>76</ele>
        <time>2018-07-17T16:29:00+02:00</time>
      </trkpt>
      <trkpt lat="44.47999" lon="-1.13284">
        <ele>75</ele>
        <time>2018-07-17T16:29:05+02:00</time>
      </trkpt>
      <trkpt lat="44.47993" lon="-1.13294">
        <ele>74</ele>
        <time>2018-07-17T16:29:09+02:00</time>
      </trkpt>
      <trkpt lat="44.47986" lon="-1.13305">
        <ele>74</ele>
        <time>2018-07-17T16:29:14+02:00</time>
      </trkpt>
      <trkpt lat="44.47979" lon="-1.13316">
        <ele>74</ele>
        <time>2018-07-17T16:29:19+02:00</time>
      </trkpt>
      <trkpt lat="44.47973" lon="-1.13328">
        <ele>74</ele>
        <time>2018-07-17T16:29:24+02:00</time>
      </trkpt>
      <trkpt lat="44.47967" lon="-1.13339">
        <ele>74</ele>
        <time>2018-07-17T16:29:28+02:00</time>
      </trkpt>
      <trkpt lat="44.47962" lon="-1.13352">
        <ele>76</ele>
        <time>2018-07-17T16:29:33+02:00</time>
      </trkpt>
      <trkpt lat="44.47959" lon="-1.13365">
        <ele>75</ele>
        <time>2018-07-17T16:29:37+02:00</time>
      </trkpt>
      <trkpt lat="44.47954" lon="-1.13377">
        <ele>73</ele>
        <time>2018-07-17T16:29:42+02:00</time>
      </trkpt>
      <trkpt lat="44.4795" lon="-1.1339">
        <ele>73</ele>
        <time>2018-07-17T16:29:47+02:00</time>
      </trkpt>
      <trkpt lat="44.47942" lon="-1.134">
        <ele>73</ele>
        <time>2018-07-17T16:29:52+02:00</time>
      </trkpt>
      <trkpt lat="44.47933" lon="-1.13407">
        <ele>72</ele>
        <time>2018-07-17T16:29:57+02:00</time>
      </trkpt>
      <trkpt lat="44.47925" lon="-1.13414">
        <ele>72</ele>
        <time>2018-07-17T16:30:02+02:00</time>
      </trkpt>
      <trkpt lat="44.47916" lon="-1.13421">
        <ele>72</ele>
        <time>2018-07-17T16:30:07+02:00</time>
      </trkpt>
      <trkpt lat="44.47907" lon="-1.13428">
        <ele>72</ele>
        <time>2018-07-17T16:30:12+02:00</time>
      </trkpt>
      <trkpt lat="44.47899" lon="-1.13436">
        <ele>71</ele>
        <time>2018-07-17T16:30:17+02:00</time>
      </trkpt>
      <trkpt lat="44.47892" lon="-1.13447">
        <ele>71</ele>
        <time>2018-07-17T16:30:22+02:00</time>
      </trkpt>
      <trkpt lat="44.47885" lon="-1.13458">
        <ele>72</ele>
        <time>2018-07-17T16:30:27+02:00</time>
      </trkpt>
      <trkpt lat="44.47879" lon="-1.13469">
        <ele>72</ele>
        <time>2018-07-17T16:30:32+02:00</time>
      </trkpt>
      <trkpt lat="44.47872" lon="-1.13479">
        <ele>71</ele>
        <time>2018-07-17T16:30:37+02:00</time>
      </trkpt>
      <trkpt lat="44.47864" lon="-1.13489">
        <ele>73</ele>
        <time>2018-07-17T16:30:42+02:00</time>
      </trkpt>
      <trkpt lat="44.47858" lon="-1.13499">
        <ele>72</ele>
        <time>2018-07-17T16:30:47+02:00</time>
      </trkpt>
      <trkpt lat="44.47851" lon="-1.13509">
        <ele>72</ele>
        <time>2018-07-17T16:30:52+02:00</time>
      </trkpt>
      <trkpt lat="44.47844" lon="-1.13519">
        <ele>71</ele>
        <time>2018-07-17T16:30:57+02:00</time>
      </trkpt>
      <trkpt lat="44.47837" lon="-1.13528">
        <ele>72</ele>
        <time>2018-07-17T16:31:02+02:00</time>
      </trkpt>
      <trkpt lat="44.47829" lon="-1.13537">
        <ele>73</ele>
        <time>2018-07-17T16:31:07+02:00</time>
      </trkpt>
      <trkpt lat="44.47821" lon="-1.13547">
        <ele>73</ele>
        <time>2018-07-17T16:31:12+02:00</time>
      </trkpt>
      <trkpt lat="44.47813" lon="-1.13556">
        <ele>74</ele>
        <time>2018-07-17T16:31:17+02:00</time>
      </trkpt>
      <trkpt lat="44.47805" lon="-1.13567">
        <ele>74</ele>
        <time>2018-07-17T16:31:22+02:00</time>
      </trkpt>
      <trkpt lat="44.47797" lon="-1.13576">
        <ele>74</ele>
        <time>2018-07-17T16:31:27+02:00</time>
      </trkpt>
      <trkpt lat="44.47788" lon="-1.13584">
        <ele>72</ele>
        <time>2018-07-17T16:31:32+02:00</time>
      </trkpt>
      <trkpt lat="44.4778" lon="-1.13589">
        <ele>72</ele>
        <time>2018-07-17T16:31:36+02:00</time>
      </trkpt>
      <trkpt lat="44.4777" lon="-1.13595">
        <ele>73</ele>
        <time>2018-07-17T16:31:41+02:00</time>
      </trkpt>
      <trkpt lat="44.47761" lon="-1.13603">
        <ele>70</ele>
        <time>2018-07-17T16:31:46+02:00</time>
      </trkpt>
      <trkpt lat="44.47753" lon="-1.13612">
        <ele>71</ele>
        <time>2018-07-17T16:31:51+02:00</time>
      </trkpt>
      <trkpt lat="44.47744" lon="-1.1362">
        <ele>72</ele>
        <time>2018-07-17T16:31:55+02:00</time>
      </trkpt>
      <trkpt lat="44.47737" lon="-1.13629">
        <ele>71</ele>
        <time>2018-07-17T16:32:00+02:00</time>
      </trkpt>
      <trkpt lat="44.47728" lon="-1.13639">
        <ele>73</ele>
        <time>2018-07-17T16:32:05+02:00</time>
      </trkpt>
      <trkpt lat="44.4772" lon="-1.13649">
        <ele>74</ele>
        <time>2018-07-17T16:32:10+02:00</time>
      </trkpt>
      <trkpt lat="44.47711" lon="-1.13658">
        <ele>74</ele>
        <time>2018-07-17T16:32:15+02:00</time>
      </trkpt>
      <trkpt lat="44.47704" lon="-1.13667">
        <ele>71</ele>
        <time>2018-07-17T16:32:20+02:00</time>
      </trkpt>
      <trkpt lat="44.47697" lon="-1.13677">
        <ele>70</ele>
        <time>2018-07-17T16:32:25+02:00</time>
      </trkpt>
      <trkpt lat="44.47689" lon="-1.13688">
        <ele>71</ele>
        <time>2018-07-17T16:32:30+02:00</time>
      </trkpt>
      <trkpt lat="44.47683" lon="-1.13698">
        <ele>72</ele>
        <time>2018-07-17T16:32:35+02:00</time>
      </trkpt>
      <trkpt lat="44.47676" lon="-1.13709">
        <ele>72</ele>
        <time>2018-07-17T16:32:40+02:00</time>
      </trkpt>
      <trkpt lat="44.4767" lon="-1.13719">
        <ele>71</ele>
        <time>2018-07-17T16:32:45+02:00</time>
      </trkpt>
      <trkpt lat="44.47662" lon="-1.13727">
        <ele>70</ele>
        <time>2018-07-17T16:32:50+02:00</time>
      </trkpt>
      <trkpt lat="44.47654" lon="-1.13735">
        <ele>72</ele>
        <time>2018-07-17T16:32:55+02:00</time>
      </trkpt>
      <trkpt lat="44.47646" lon="-1.13743">
        <ele>71</ele>
        <time>2018-07-17T16:33:00+02:00</time>
      </trkpt>
      <trkpt lat="44.47638" lon="-1.13752">
        <ele>72</ele>
        <time>2018-07-17T16:33:05+02:00</time>
      </trkpt>
      <trkpt lat="44.4763" lon="-1.13761">
        <ele>71</ele>
        <time>2018-07-17T16:33:10+02:00</time>
      </trkpt>
      <trkpt lat="44.47622" lon="-1.1377">
        <ele>71</ele>
        <time>2018-07-17T16:33:15+02:00</time>
      </trkpt>
      <trkpt lat="44.47615" lon="-1.13779">
        <ele>71</ele>
        <time>2018-07-17T16:33:20+02:00</time>
      </trkpt>
      <trkpt lat="44.47608" lon="-1.13789">
        <ele>71</ele>
        <time>2018-07-17T16:33:25+02:00</time>
      </trkpt>
      <trkpt lat="44.47601" lon="-1.13797">
        <ele>71</ele>
        <time>2018-07-17T16:33:30+02:00</time>
      </trkpt>
      <trkpt lat="44.47594" lon="-1.13808">
        <ele>72</ele>
        <time>2018-07-17T16:33:35+02:00</time>
      </trkpt>
      <trkpt lat="44.47588" lon="-1.13819">
        <ele>71</ele>
        <time>2018-07-17T16:33:40+02:00</time>
      </trkpt>
      <trkpt lat="44.47583" lon="-1.13832">
        <ele>71</ele>
        <time>2018-07-17T16:33:45+02:00</time>
      </trkpt>
      <trkpt lat="44.47578" lon="-1.13845">
        <ele>71</ele>
        <time>2018-07-17T16:33:50+02:00</time>
      </trkpt>
      <trkpt lat="44.47572" lon="-1.13858">
        <ele>71</ele>
        <time>2018-07-17T16:33:55+02:00</time>
      </trkpt>
      <trkpt lat="44.47568" lon="-1.13871">
        <ele>71</ele>
        <time>2018-07-17T16:34:00+02:00</time>
      </trkpt>
      <trkpt lat="44.47564" lon="-1.13884">
        <ele>72</ele>
        <time>2018-07-17T16:34:05+02:00</time>
      </trkpt>
      <trkpt lat="44.47557" lon="-1.13896">
        <ele>72</ele>
        <time>2018-07-17T16:34:10+02:00</time>
      </trkpt>
      <trkpt lat="44.47551" lon="-1.13908">
        <ele>71</ele>
        <time>2018-07-17T16:34:15+02:00</time>
      </trkpt>
      <trkpt lat="44.47545" lon="-1.13919">
        <ele>71</ele>
        <time>2018-07-17T16:34:20+02:00</time>
      </trkpt>
      <trkpt lat="44.47537" lon="-1.13928">
        <ele>72</ele>
        <time>2018-07-17T16:34:25+02:00</time>
      </trkpt>
      <trkpt lat="44.47528" lon="-1.13936">
        <ele>71</ele>
        <time>2018-07-17T16:34:30+02:00</time>
      </trkpt>
      <trkpt lat="44.47521" lon="-1.13944">
        <ele>72</ele>
        <time>2018-07-17T16:34:34+02:00</time>
      </trkpt>
      <trkpt lat="44.47514" lon="-1.13953">
        <ele>71</ele>
        <time>2018-07-17T16:34:38+02:00</time>
      </trkpt>
      <trkpt lat="44.47507" lon="-1.13966">
        <ele>72</ele>
        <time>2018-07-17T16:34:43+02:00</time>
      </trkpt>
      <trkpt lat="44.475" lon="-1.13977">
        <ele>72</ele>
        <time>2018-07-17T16:34:48+02:00</time>
      </trkpt>
      <trkpt lat="44.47493" lon="-1.13988">
        <ele>72</ele>
        <time>2018-07-17T16:34:53+02:00</time>
      </trkpt>
      <trkpt lat="44.47486" lon="-1.14">
        <ele>72</ele>
        <time>2018-07-17T16:34:58+02:00</time>
      </trkpt>
      <trkpt lat="44.4748" lon="-1.14011">
        <ele>72</ele>
        <time>2018-07-17T16:35:03+02:00</time>
      </trkpt>
      <trkpt lat="44.47473" lon="-1.14023">
        <ele>72</ele>
        <time>2018-07-17T16:35:08+02:00</time>
      </trkpt>
      <trkpt lat="44.47466" lon="-1.14034">
        <ele>73</ele>
        <time>2018-07-17T16:35:13+02:00</time>
      </trkpt>
      <trkpt lat="44.4746" lon="-1.14047">
        <ele>74</ele>
        <time>2018-07-17T16:35:18+02:00</time>
      </trkpt>
      <trkpt lat="44.47454" lon="-1.14059">
        <ele>74</ele>
        <time>2018-07-17T16:35:23+02:00</time>
      </trkpt>
      <trkpt lat="44.47448" lon="-1.14071">
        <ele>74</ele>
        <time>2018-07-17T16:35:28+02:00</time>
      </trkpt>
      <trkpt lat="44.47448" lon="-1.14085">
        <ele>72</ele>
        <time>2018-07-17T16:35:34+02:00</time>
      </trkpt>
      <trkpt lat="44.47456" lon="-1.1408">
        <ele>70</ele>
        <time>2018-07-17T16:35:59+02:00</time>
      </trkpt>
      <trkpt lat="44.47463" lon="-1.1407">
        <ele>70</ele>
        <time>2018-07-17T16:36:07+02:00</time>
      </trkpt>
      <trkpt lat="44.47471" lon="-1.14062">
        <ele>71</ele>
        <time>2018-07-17T16:36:16+02:00</time>
      </trkpt>
      <trkpt lat="44.47478" lon="-1.14053">
        <ele>70</ele>
        <time>2018-07-17T16:36:23+02:00</time>
      </trkpt>
      <trkpt lat="44.47486" lon="-1.14048">
        <ele>68</ele>
        <time>2018-07-17T16:36:31+02:00</time>
      </trkpt>
      <trkpt lat="44.47496" lon="-1.14047">
        <ele>69</ele>
        <time>2018-07-17T16:36:39+02:00</time>
      </trkpt>
      <trkpt lat="44.47506" lon="-1.14046">
        <ele>70</ele>
        <time>2018-07-17T16:36:46+02:00</time>
      </trkpt>
      <trkpt lat="44.47515" lon="-1.14043">
        <ele>72</ele>
        <time>2018-07-17T16:36:51+02:00</time>
      </trkpt>
      <trkpt lat="44.47525" lon="-1.14043">
        <ele>70</ele>
        <time>2018-07-17T16:36:56+02:00</time>
      </trkpt>
      <trkpt lat="44.47536" lon="-1.14043">
        <ele>69</ele>
        <time>2018-07-17T16:37:01+02:00</time>
      </trkpt>
      <trkpt lat="44.47546" lon="-1.14043">
        <ele>70</ele>
        <time>2018-07-17T16:37:06+02:00</time>
      </trkpt>
      <trkpt lat="44.47557" lon="-1.14042">
        <ele>70</ele>
        <time>2018-07-17T16:37:11+02:00</time>
      </trkpt>
      <trkpt lat="44.47566" lon="-1.14039">
        <ele>71</ele>
        <time>2018-07-17T16:37:15+02:00</time>
      </trkpt>
      <trkpt lat="44.47574" lon="-1.14034">
        <ele>70</ele>
        <time>2018-07-17T16:37:19+02:00</time>
      </trkpt>
      <trkpt lat="44.47584" lon="-1.14032">
        <ele>70</ele>
        <time>2018-07-17T16:37:23+02:00</time>
      </trkpt>
      <trkpt lat="44.47593" lon="-1.14031">
        <ele>70</ele>
        <time>2018-07-17T16:37:27+02:00</time>
      </trkpt>
      <trkpt lat="44.47604" lon="-1.1403">
        <ele>71</ele>
        <time>2018-07-17T16:37:32+02:00</time>
      </trkpt>
      <trkpt lat="44.47613" lon="-1.14028">
        <ele>70</ele>
        <time>2018-07-17T16:37:36+02:00</time>
      </trkpt>
      <trkpt lat="44.47624" lon="-1.14024">
        <ele>70</ele>
        <time>2018-07-17T16:37:41+02:00</time>
      </trkpt>
      <trkpt lat="44.47633" lon="-1.14021">
        <ele>70</ele>
        <time>2018-07-17T16:37:45+02:00</time>
      </trkpt>
      <trkpt lat="44.47642" lon="-1.14018">
        <ele>70</ele>
        <time>2018-07-17T16:37:49+02:00</time>
      </trkpt>
      <trkpt lat="44.47654" lon="-1.14017">
        <ele>70</ele>
        <time>2018-07-17T16:37:54+02:00</time>
      </trkpt>
      <trkpt lat="44.47663" lon="-1.14015">
        <ele>69</ele>
        <time>2018-07-17T16:37:58+02:00</time>
      </trkpt>
      <trkpt lat="44.47672" lon="-1.14014">
        <ele>70</ele>
        <time>2018-07-17T16:38:02+02:00</time>
      </trkpt>
      <trkpt lat="44.47683" lon="-1.14012">
        <ele>70</ele>
        <time>2018-07-17T16:38:07+02:00</time>
      </trkpt>
      <trkpt lat="44.47692" lon="-1.14007">
        <ele>69</ele>
        <time>2018-07-17T16:38:11+02:00</time>
      </trkpt>
      <trkpt lat="44.477" lon="-1.13999">
        <ele>68</ele>
        <time>2018-07-17T16:38:15+02:00</time>
      </trkpt>
      <trkpt lat="44.47707" lon="-1.1399">
        <ele>70</ele>
        <time>2018-07-17T16:38:19+02:00</time>
      </trkpt>
      <trkpt lat="44.47712" lon="-1.13977">
        <ele>70</ele>
        <time>2018-07-17T16:38:23+02:00</time>
      </trkpt>
      <trkpt lat="44.47717" lon="-1.13966">
        <ele>70</ele>
        <time>2018-07-17T16:38:27+02:00</time>
      </trkpt>
      <trkpt lat="44.4772" lon="-1.13954">
        <ele>70</ele>
        <time>2018-07-17T16:38:31+02:00</time>
      </trkpt>
      <trkpt lat="44.47727" lon="-1.13942">
        <ele>71</ele>
        <time>2018-07-17T16:38:36+02:00</time>
      </trkpt>
      <trkpt lat="44.47734" lon="-1.13931">
        <ele>71</ele>
        <time>2018-07-17T16:38:41+02:00</time>
      </trkpt>
      <trkpt lat="44.47743" lon="-1.13921">
        <ele>70</ele>
        <time>2018-07-17T16:38:46+02:00</time>
      </trkpt>
      <trkpt lat="44.4775" lon="-1.13912">
        <ele>70</ele>
        <time>2018-07-17T16:38:50+02:00</time>
      </trkpt>
      <trkpt lat="44.47759" lon="-1.13902">
        <ele>70</ele>
        <time>2018-07-17T16:38:54+02:00</time>
      </trkpt>
      <trkpt lat="44.47768" lon="-1.13896">
        <ele>69</ele>
        <time>2018-07-17T16:38:58+02:00</time>
      </trkpt>
      <trkpt lat="44.47777" lon="-1.13889">
        <ele>70</ele>
        <time>2018-07-17T16:39:02+02:00</time>
      </trkpt>
      <trkpt lat="44.47786" lon="-1.13883">
        <ele>70</ele>
        <time>2018-07-17T16:39:06+02:00</time>
      </trkpt>
      <trkpt lat="44.47796" lon="-1.13877">
        <ele>69</ele>
        <time>2018-07-17T16:39:10+02:00</time>
      </trkpt>
      <trkpt lat="44.47805" lon="-1.13871">
        <ele>69</ele>
        <time>2018-07-17T16:39:14+02:00</time>
      </trkpt>
      <trkpt lat="44.47815" lon="-1.13865">
        <ele>70</ele>
        <time>2018-07-17T16:39:18+02:00</time>
      </trkpt>
      <trkpt lat="44.47825" lon="-1.1386">
        <ele>69</ele>
        <time>2018-07-17T16:39:22+02:00</time>
      </trkpt>
      <trkpt lat="44.47835" lon="-1.13856">
        <ele>70</ele>
        <time>2018-07-17T16:39:26+02:00</time>
      </trkpt>
      <trkpt lat="44.47844" lon="-1.13852">
        <ele>69</ele>
        <time>2018-07-17T16:39:30+02:00</time>
      </trkpt>
      <trkpt lat="44.47855" lon="-1.13849">
        <ele>69</ele>
        <time>2018-07-17T16:39:34+02:00</time>
      </trkpt>
      <trkpt lat="44.47864" lon="-1.13845">
        <ele>71</ele>
        <time>2018-07-17T16:39:38+02:00</time>
      </trkpt>
      <trkpt lat="44.47874" lon="-1.13841">
        <ele>70</ele>
        <time>2018-07-17T16:39:42+02:00</time>
      </trkpt>
      <trkpt lat="44.47883" lon="-1.13837">
        <ele>70</ele>
        <time>2018-07-17T16:39:46+02:00</time>
      </trkpt>
      <trkpt lat="44.47893" lon="-1.13835">
        <ele>71</ele>
        <time>2018-07-17T16:39:50+02:00</time>
      </trkpt>
      <trkpt lat="44.47903" lon="-1.13832">
        <ele>69</ele>
        <time>2018-07-17T16:39:54+02:00</time>
      </trkpt>
      <trkpt lat="44.47913" lon="-1.13828">
        <ele>69</ele>
        <time>2018-07-17T16:39:58+02:00</time>
      </trkpt>
      <trkpt lat="44.47922" lon="-1.13826">
        <ele>68</ele>
        <time>2018-07-17T16:40:02+02:00</time>
      </trkpt>
      <trkpt lat="44.47932" lon="-1.13822">
        <ele>67</ele>
        <time>2018-07-17T16:40:06+02:00</time>
      </trkpt>
      <trkpt lat="44.47942" lon="-1.13819">
        <ele>67</ele>
        <time>2018-07-17T16:40:10+02:00</time>
      </trkpt>
      <trkpt lat="44.47951" lon="-1.13815">
        <ele>68</ele>
        <time>2018-07-17T16:40:14+02:00</time>
      </trkpt>
      <trkpt lat="44.4796" lon="-1.13812">
        <ele>68</ele>
        <time>2018-07-17T16:40:18+02:00</time>
      </trkpt>
      <trkpt lat="44.4797" lon="-1.13807">
        <ele>70</ele>
        <time>2018-07-17T16:40:23+02:00</time>
      </trkpt>
      <trkpt lat="44.47979" lon="-1.13801">
        <ele>70</ele>
        <time>2018-07-17T16:40:27+02:00</time>
      </trkpt>
      <trkpt lat="44.47987" lon="-1.13795">
        <ele>69</ele>
        <time>2018-07-17T16:40:31+02:00</time>
      </trkpt>
      <trkpt lat="44.47996" lon="-1.13791">
        <ele>69</ele>
        <time>2018-07-17T16:40:35+02:00</time>
      </trkpt>
      <trkpt lat="44.48004" lon="-1.13783">
        <ele>69</ele>
        <time>2018-07-17T16:40:39+02:00</time>
      </trkpt>
      <trkpt lat="44.48013" lon="-1.13778">
        <ele>70</ele>
        <time>2018-07-17T16:40:43+02:00</time>
      </trkpt>
      <trkpt lat="44.48021" lon="-1.13774">
        <ele>71</ele>
        <time>2018-07-17T16:40:47+02:00</time>
      </trkpt>
      <trkpt lat="44.48029" lon="-1.13767">
        <ele>70</ele>
        <time>2018-07-17T16:40:51+02:00</time>
      </trkpt>
      <trkpt lat="44.48037" lon="-1.13759">
        <ele>70</ele>
        <time>2018-07-17T16:40:55+02:00</time>
      </trkpt>
      <trkpt lat="44.48045" lon="-1.1375">
        <ele>69</ele>
        <time>2018-07-17T16:40:59+02:00</time>
      </trkpt>
      <trkpt lat="44.48053" lon="-1.13742">
        <ele>69</ele>
        <time>2018-07-17T16:41:03+02:00</time>
      </trkpt>
      <trkpt lat="44.4806" lon="-1.13731">
        <ele>69</ele>
        <time>2018-07-17T16:41:07+02:00</time>
      </trkpt>
      <trkpt lat="44.48068" lon="-1.13721">
        <ele>69</ele>
        <time>2018-07-17T16:41:11+02:00</time>
      </trkpt>
      <trkpt lat="44.48074" lon="-1.1371">
        <ele>70</ele>
        <time>2018-07-17T16:41:15+02:00</time>
      </trkpt>
      <trkpt lat="44.48082" lon="-1.13699">
        <ele>69</ele>
        <time>2018-07-17T16:41:19+02:00</time>
      </trkpt>
      <trkpt lat="44.48089" lon="-1.13689">
        <ele>69</ele>
        <time>2018-07-17T16:41:23+02:00</time>
      </trkpt>
      <trkpt lat="44.48097" lon="-1.13679">
        <ele>72</ele>
        <time>2018-07-17T16:41:27+02:00</time>
      </trkpt>
      <trkpt lat="44.48105" lon="-1.13671">
        <ele>72</ele>
        <time>2018-07-17T16:41:31+02:00</time>
      </trkpt>
      <trkpt lat="44.48114" lon="-1.13663">
        <ele>71</ele>
        <time>2018-07-17T16:41:35+02:00</time>
      </trkpt>
      <trkpt lat="44.48122" lon="-1.13653">
        <ele>69</ele>
        <time>2018-07-17T16:41:39+02:00</time>
      </trkpt>
      <trkpt lat="44.4813" lon="-1.13643">
        <ele>71</ele>
        <time>2018-07-17T16:41:43+02:00</time>
      </trkpt>
      <trkpt lat="44.48137" lon="-1.13632">
        <ele>70</ele>
        <time>2018-07-17T16:41:47+02:00</time>
      </trkpt>
      <trkpt lat="44.48145" lon="-1.13621">
        <ele>69</ele>
        <time>2018-07-17T16:41:51+02:00</time>
      </trkpt>
      <trkpt lat="44.48152" lon="-1.1361">
        <ele>69</ele>
        <time>2018-07-17T16:41:55+02:00</time>
      </trkpt>
      <trkpt lat="44.48158" lon="-1.13601">
        <ele>69</ele>
        <time>2018-07-17T16:41:58+02:00</time>
      </trkpt>
      <trkpt lat="44.48165" lon="-1.1359">
        <ele>69</ele>
        <time>2018-07-17T16:42:02+02:00</time>
      </trkpt>
      <trkpt lat="44.48173" lon="-1.1358">
        <ele>69</ele>
        <time>2018-07-17T16:42:06+02:00</time>
      </trkpt>
      <trkpt lat="44.4818" lon="-1.13569">
        <ele>70</ele>
        <time>2018-07-17T16:42:10+02:00</time>
      </trkpt>
      <trkpt lat="44.48187" lon="-1.13559">
        <ele>70</ele>
        <time>2018-07-17T16:42:14+02:00</time>
      </trkpt>
      <trkpt lat="44.48193" lon="-1.13548">
        <ele>71</ele>
        <time>2018-07-17T16:42:18+02:00</time>
      </trkpt>
      <trkpt lat="44.482" lon="-1.13538">
        <ele>71</ele>
        <time>2018-07-17T16:42:22+02:00</time>
      </trkpt>
      <trkpt lat="44.48207" lon="-1.13527">
        <ele>72</ele>
        <time>2018-07-17T16:42:26+02:00</time>
      </trkpt>
      <trkpt lat="44.48214" lon="-1.13516">
        <ele>72</ele>
        <time>2018-07-17T16:42:30+02:00</time>
      </trkpt>
      <trkpt lat="44.4822" lon="-1.13505">
        <ele>72</ele>
        <time>2018-07-17T16:42:34+02:00</time>
      </trkpt>
      <trkpt lat="44.48227" lon="-1.13494">
        <ele>72</ele>
        <time>2018-07-17T16:42:38+02:00</time>
      </trkpt>
      <trkpt lat="44.48234" lon="-1.13484">
        <ele>71</ele>
        <time>2018-07-17T16:42:42+02:00</time>
      </trkpt>
      <trkpt lat="44.4824" lon="-1.13473">
        <ele>71</ele>
        <time>2018-07-17T16:42:46+02:00</time>
      </trkpt>
      <trkpt lat="44.48247" lon="-1.13461">
        <ele>71</ele>
        <time>2018-07-17T16:42:50+02:00</time>
      </trkpt>
      <trkpt lat="44.48254" lon="-1.1345">
        <ele>71</ele>
        <time>2018-07-17T16:42:54+02:00</time>
      </trkpt>
      <trkpt lat="44.4826" lon="-1.13439">
        <ele>71</ele>
        <time>2018-07-17T16:42:58+02:00</time>
      </trkpt>
      <trkpt lat="44.48267" lon="-1.13426">
        <ele>71</ele>
        <time>2018-07-17T16:43:02+02:00</time>
      </trkpt>
      <trkpt lat="44.48273" lon="-1.13415">
        <ele>70</ele>
        <time>2018-07-17T16:43:06+02:00</time>
      </trkpt>
      <trkpt lat="44.48279" lon="-1.13403">
        <ele>70</ele>
        <time>2018-07-17T16:43:10+02:00</time>
      </trkpt>
      <trkpt lat="44.48286" lon="-1.13393">
        <ele>70</ele>
        <time>2018-07-17T16:43:14+02:00</time>
      </trkpt>
      <trkpt lat="44.48294" lon="-1.13382">
        <ele>70</ele>
        <time>2018-07-17T16:43:18+02:00</time>
      </trkpt>
      <trkpt lat="44.483" lon="-1.1337">
        <ele>70</ele>
        <time>2018-07-17T16:43:22+02:00</time>
      </trkpt>
      <trkpt lat="44.48306" lon="-1.13357">
        <ele>70</ele>
        <time>2018-07-17T16:43:26+02:00</time>
      </trkpt>
      <trkpt lat="44.48313" lon="-1.13345">
        <ele>71</ele>
        <time>2018-07-17T16:43:30+02:00</time>
      </trkpt>
      <trkpt lat="44.4832" lon="-1.13333">
        <ele>71</ele>
        <time>2018-07-17T16:43:34+02:00</time>
      </trkpt>
      <trkpt lat="44.48326" lon="-1.13322">
        <ele>71</ele>
        <time>2018-07-17T16:43:38+02:00</time>
      </trkpt>
      <trkpt lat="44.48333" lon="-1.13312">
        <ele>71</ele>
        <time>2018-07-17T16:43:42+02:00</time>
      </trkpt>
      <trkpt lat="44.48339" lon="-1.13301">
        <ele>71</ele>
        <time>2018-07-17T16:43:46+02:00</time>
      </trkpt>
      <trkpt lat="44.48346" lon="-1.1329">
        <ele>71</ele>
        <time>2018-07-17T16:43:50+02:00</time>
      </trkpt>
      <trkpt lat="44.48353" lon="-1.13278">
        <ele>70</ele>
        <time>2018-07-17T16:43:55+02:00</time>
      </trkpt>
      <trkpt lat="44.4836" lon="-1.13269">
        <ele>69</ele>
        <time>2018-07-17T16:43:59+02:00</time>
      </trkpt>
      <trkpt lat="44.48368" lon="-1.13259">
        <ele>68</ele>
        <time>2018-07-17T16:44:03+02:00</time>
      </trkpt>
      <trkpt lat="44.48376" lon="-1.1325">
        <ele>69</ele>
        <time>2018-07-17T16:44:07+02:00</time>
      </trkpt>
      <trkpt lat="44.48383" lon="-1.1324">
        <ele>69</ele>
        <time>2018-07-17T16:44:11+02:00</time>
      </trkpt>
      <trkpt lat="44.4839" lon="-1.1323">
        <ele>70</ele>
        <time>2018-07-17T16:44:15+02:00</time>
      </trkpt>
      <trkpt lat="44.48396" lon="-1.13219">
        <ele>70</ele>
        <time>2018-07-17T16:44:19+02:00</time>
      </trkpt>
      <trkpt lat="44.48403" lon="-1.13208">
        <ele>70</ele>
        <time>2018-07-17T16:44:23+02:00</time>
      </trkpt>
      <trkpt lat="44.48409" lon="-1.13196">
        <ele>70</ele>
        <time>2018-07-17T16:44:27+02:00</time>
      </trkpt>
      <trkpt lat="44.48415" lon="-1.13185">
        <ele>71</ele>
        <time>2018-07-17T16:44:31+02:00</time>
      </trkpt>
      <trkpt lat="44.48422" lon="-1.13175">
        <ele>70</ele>
        <time>2018-07-17T16:44:35+02:00</time>
      </trkpt>
      <trkpt lat="44.48429" lon="-1.13165">
        <ele>69</ele>
        <time>2018-07-17T16:44:39+02:00</time>
      </trkpt>
      <trkpt lat="44.48436" lon="-1.13155">
        <ele>69</ele>
        <time>2018-07-17T16:44:43+02:00</time>
      </trkpt>
      <trkpt lat="44.48443" lon="-1.13145">
        <ele>69</ele>
        <time>2018-07-17T16:44:47+02:00</time>
      </trkpt>
      <trkpt lat="44.4845" lon="-1.13135">
        <ele>69</ele>
        <time>2018-07-17T16:44:51+02:00</time>
      </trkpt>
      <trkpt lat="44.48457" lon="-1.13126">
        <ele>70</ele>
        <time>2018-07-17T16:44:55+02:00</time>
      </trkpt>
      <trkpt lat="44.48463" lon="-1.13116">
        <ele>70</ele>
        <time>2018-07-17T16:44:59+02:00</time>
      </trkpt>
      <trkpt lat="44.48469" lon="-1.13105">
        <ele>70</ele>
        <time>2018-07-17T16:45:03+02:00</time>
      </trkpt>
      <trkpt lat="44.48476" lon="-1.13096">
        <ele>71</ele>
        <time>2018-07-17T16:45:07+02:00</time>
      </trkpt>
      <trkpt lat="44.48482" lon="-1.13086">
        <ele>71</ele>
        <time>2018-07-17T16:45:11+02:00</time>
      </trkpt>
      <trkpt lat="44.48489" lon="-1.13077">
        <ele>71</ele>
        <time>2018-07-17T16:45:15+02:00</time>
      </trkpt>
      <trkpt lat="44.48495" lon="-1.13068">
        <ele>71</ele>
        <time>2018-07-17T16:45:19+02:00</time>
      </trkpt>
      <trkpt lat="44.48502" lon="-1.13057">
        <ele>70</ele>
        <time>2018-07-17T16:45:23+02:00</time>
      </trkpt>
      <trkpt lat="44.48507" lon="-1.13046">
        <ele>70</ele>
        <time>2018-07-17T16:45:27+02:00</time>
      </trkpt>
      <trkpt lat="44.48513" lon="-1.13035">
        <ele>70</ele>
        <time>2018-07-17T16:45:31+02:00</time>
      </trkpt>
      <trkpt lat="44.48519" lon="-1.13024">
        <ele>70</ele>
        <time>2018-07-17T16:45:35+02:00</time>
      </trkpt>
      <trkpt lat="44.48524" lon="-1.13013">
        <ele>70</ele>
        <time>2018-07-17T16:45:39+02:00</time>
      </trkpt>
      <trkpt lat="44.48529" lon="-1.13002">
        <ele>70</ele>
        <time>2018-07-17T16:45:43+02:00</time>
      </trkpt>
      <trkpt lat="44.48534" lon="-1.12992">
        <ele>71</ele>
        <time>2018-07-17T16:45:47+02:00</time>
      </trkpt>
      <trkpt lat="44.4854" lon="-1.12978">
        <ele>69</ele>
        <time>2018-07-17T16:45:52+02:00</time>
      </trkpt>
      <trkpt lat="44.48545" lon="-1.12968">
        <ele>69</ele>
        <time>2018-07-17T16:45:56+02:00</time>
      </trkpt>
      <trkpt lat="44.4855" lon="-1.12958">
        <ele>69</ele>
        <time>2018-07-17T16:46:00+02:00</time>
      </trkpt>
      <trkpt lat="44.48556" lon="-1.12944">
        <ele>70</ele>
        <time>2018-07-17T16:46:05+02:00</time>
      </trkpt>
      <trkpt lat="44.48561" lon="-1.12931">
        <ele>70</ele>
        <time>2018-07-17T16:46:10+02:00</time>
      </trkpt>
      <trkpt lat="44.48567" lon="-1.1292">
        <ele>70</ele>
        <time>2018-07-17T16:46:14+02:00</time>
      </trkpt>
      <trkpt lat="44.48572" lon="-1.12908">
        <ele>70</ele>
        <time>2018-07-17T16:46:18+02:00</time>
      </trkpt>
      <trkpt lat="44.48578" lon="-1.12896">
        <ele>70</ele>
        <time>2018-07-17T16:46:22+02:00</time>
      </trkpt>
      <trkpt lat="44.48585" lon="-1.12886">
        <ele>69</ele>
        <time>2018-07-17T16:46:26+02:00</time>
      </trkpt>
      <trkpt lat="44.4859" lon="-1.12875">
        <ele>70</ele>
        <time>2018-07-17T16:46:30+02:00</time>
      </trkpt>
      <trkpt lat="44.48594" lon="-1.12862">
        <ele>71</ele>
        <time>2018-07-17T16:46:34+02:00</time>
      </trkpt>
      <trkpt lat="44.48599" lon="-1.1285">
        <ele>71</ele>
        <time>2018-07-17T16:46:38+02:00</time>
      </trkpt>
      <trkpt lat="44.48605" lon="-1.12838">
        <ele>70</ele>
        <time>2018-07-17T16:46:42+02:00</time>
      </trkpt>
      <trkpt lat="44.48611" lon="-1.12827">
        <ele>72</ele>
        <time>2018-07-17T16:46:46+02:00</time>
      </trkpt>
      <trkpt lat="44.48616" lon="-1.12814">
        <ele>72</ele>
        <time>2018-07-17T16:46:50+02:00</time>
      </trkpt>
      <trkpt lat="44.48621" lon="-1.12802">
        <ele>72</ele>
        <time>2018-07-17T16:46:54+02:00</time>
      </trkpt>
      <trkpt lat="44.48627" lon="-1.12791">
        <ele>72</ele>
        <time>2018-07-17T16:46:58+02:00</time>
      </trkpt>
      <trkpt lat="44.48634" lon="-1.1278">
        <ele>72</ele>
        <time>2018-07-17T16:47:02+02:00</time>
      </trkpt>
      <trkpt lat="44.48639" lon="-1.12767">
        <ele>72</ele>
        <time>2018-07-17T16:47:06+02:00</time>
      </trkpt>
      <trkpt lat="44.48644" lon="-1.12755">
        <ele>71</ele>
        <time>2018-07-17T16:47:10+02:00</time>
      </trkpt>
      <trkpt lat="44.48651" lon="-1.12744">
        <ele>72</ele>
        <time>2018-07-17T16:47:14+02:00</time>
      </trkpt>
      <trkpt lat="44.48656" lon="-1.12732">
        <ele>72</ele>
        <time>2018-07-17T16:47:18+02:00</time>
      </trkpt>
      <trkpt lat="44.48659" lon="-1.12718">
        <ele>72</ele>
        <time>2018-07-17T16:47:22+02:00</time>
      </trkpt>
      <trkpt lat="44.48665" lon="-1.12706">
        <ele>71</ele>
        <time>2018-07-17T16:47:26+02:00</time>
      </trkpt>
      <trkpt lat="44.48671" lon="-1.12695">
        <ele>71</ele>
        <time>2018-07-17T16:47:30+02:00</time>
      </trkpt>
      <trkpt lat="44.48677" lon="-1.12683">
        <ele>71</ele>
        <time>2018-07-17T16:47:34+02:00</time>
      </trkpt>
      <trkpt lat="44.48683" lon="-1.12672">
        <ele>71</ele>
        <time>2018-07-17T16:47:38+02:00</time>
      </trkpt>
      <trkpt lat="44.48689" lon="-1.1266">
        <ele>71</ele>
        <time>2018-07-17T16:47:42+02:00</time>
      </trkpt>
      <trkpt lat="44.48693" lon="-1.12647">
        <ele>71</ele>
        <time>2018-07-17T16:47:46+02:00</time>
      </trkpt>
      <trkpt lat="44.48697" lon="-1.12633">
        <ele>71</ele>
        <time>2018-07-17T16:47:50+02:00</time>
      </trkpt>
      <trkpt lat="44.48702" lon="-1.1262">
        <ele>72</ele>
        <time>2018-07-17T16:47:54+02:00</time>
      </trkpt>
      <trkpt lat="44.48708" lon="-1.12608">
        <ele>73</ele>
        <time>2018-07-17T16:47:58+02:00</time>
      </trkpt>
      <trkpt lat="44.48713" lon="-1.12596">
        <ele>72</ele>
        <time>2018-07-17T16:48:02+02:00</time>
      </trkpt>
      <trkpt lat="44.48719" lon="-1.12584">
        <ele>73</ele>
        <time>2018-07-17T16:48:06+02:00</time>
      </trkpt>
      <trkpt lat="44.48722" lon="-1.12571">
        <ele>72</ele>
        <time>2018-07-17T16:48:10+02:00</time>
      </trkpt>
      <trkpt lat="44.48727" lon="-1.12559">
        <ele>71</ele>
        <time>2018-07-17T16:48:14+02:00</time>
      </trkpt>
      <trkpt lat="44.48731" lon="-1.12547">
        <ele>70</ele>
        <time>2018-07-17T16:48:18+02:00</time>
      </trkpt>
      <trkpt lat="44.48735" lon="-1.12534">
        <ele>69</ele>
        <time>2018-07-17T16:48:22+02:00</time>
      </trkpt>
      <trkpt lat="44.48739" lon="-1.12522">
        <ele>70</ele>
        <time>2018-07-17T16:48:26+02:00</time>
      </trkpt>
      <trkpt lat="44.48742" lon="-1.12509">
        <ele>70</ele>
        <time>2018-07-17T16:48:30+02:00</time>
      </trkpt>
      <trkpt lat="44.48747" lon="-1.12496">
        <ele>70</ele>
        <time>2018-07-17T16:48:35+02:00</time>
      </trkpt>
      <trkpt lat="44.4875" lon="-1.12483">
        <ele>71</ele>
        <time>2018-07-17T16:48:39+02:00</time>
      </trkpt>
      <trkpt lat="44.48753" lon="-1.12471">
        <ele>71</ele>
        <time>2018-07-17T16:48:43+02:00</time>
      </trkpt>
      <trkpt lat="44.48757" lon="-1.1246">
        <ele>71</ele>
        <time>2018-07-17T16:48:47+02:00</time>
      </trkpt>
      <trkpt lat="44.48761" lon="-1.12448">
        <ele>71</ele>
        <time>2018-07-17T16:48:51+02:00</time>
      </trkpt>
      <trkpt lat="44.48766" lon="-1.12435">
        <ele>71</ele>
        <time>2018-07-17T16:48:56+02:00</time>
      </trkpt>
      <trkpt lat="44.4877" lon="-1.12421">
        <ele>72</ele>
        <time>2018-07-17T16:49:01+02:00</time>
      </trkpt>
      <trkpt lat="44.48774" lon="-1.12406">
        <ele>72</ele>
        <time>2018-07-17T16:49:06+02:00</time>
      </trkpt>
      <trkpt lat="44.48779" lon="-1.12393">
        <ele>72</ele>
        <time>2018-07-17T16:49:11+02:00</time>
      </trkpt>
      <trkpt lat="44.48784" lon="-1.1238">
        <ele>72</ele>
        <time>2018-07-17T16:49:15+02:00</time>
      </trkpt>
      <trkpt lat="44.48788" lon="-1.12369">
        <ele>71</ele>
        <time>2018-07-17T16:49:19+02:00</time>
      </trkpt>
      <trkpt lat="44.48792" lon="-1.12355">
        <ele>72</ele>
        <time>2018-07-17T16:49:23+02:00</time>
      </trkpt>
      <trkpt lat="44.48795" lon="-1.12342">
        <ele>71</ele>
        <time>2018-07-17T16:49:27+02:00</time>
      </trkpt>
      <trkpt lat="44.488" lon="-1.12329">
        <ele>70</ele>
        <time>2018-07-17T16:49:31+02:00</time>
      </trkpt>
      <trkpt lat="44.48805" lon="-1.12316">
        <ele>69</ele>
        <time>2018-07-17T16:49:35+02:00</time>
      </trkpt>
      <trkpt lat="44.48808" lon="-1.12302">
        <ele>69</ele>
        <time>2018-07-17T16:49:39+02:00</time>
      </trkpt>
      <trkpt lat="44.48813" lon="-1.1229">
        <ele>70</ele>
        <time>2018-07-17T16:49:43+02:00</time>
      </trkpt>
      <trkpt lat="44.48818" lon="-1.12276">
        <ele>70</ele>
        <time>2018-07-17T16:49:47+02:00</time>
      </trkpt>
      <trkpt lat="44.48821" lon="-1.12261">
        <ele>70</ele>
        <time>2018-07-17T16:49:51+02:00</time>
      </trkpt>
      <trkpt lat="44.48825" lon="-1.12247">
        <ele>70</ele>
        <time>2018-07-17T16:49:55+02:00</time>
      </trkpt>
      <trkpt lat="44.48829" lon="-1.12233">
        <ele>70</ele>
        <time>2018-07-17T16:49:59+02:00</time>
      </trkpt>
      <trkpt lat="44.48833" lon="-1.12219">
        <ele>70</ele>
        <time>2018-07-17T16:50:03+02:00</time>
      </trkpt>
      <trkpt lat="44.48836" lon="-1.12205">
        <ele>70</ele>
        <time>2018-07-17T16:50:07+02:00</time>
      </trkpt>
      <trkpt lat="44.48839" lon="-1.12191">
        <ele>71</ele>
        <time>2018-07-17T16:50:11+02:00</time>
      </trkpt>
      <trkpt lat="44.48842" lon="-1.12178">
        <ele>72</ele>
        <time>2018-07-17T16:50:15+02:00</time>
      </trkpt>
      <trkpt lat="44.48846" lon="-1.12165">
        <ele>72</ele>
        <time>2018-07-17T16:50:19+02:00</time>
      </trkpt>
      <trkpt lat="44.48851" lon="-1.12151">
        <ele>71</ele>
        <time>2018-07-17T16:50:23+02:00</time>
      </trkpt>
      <trkpt lat="44.48854" lon="-1.12138">
        <ele>71</ele>
        <time>2018-07-17T16:50:27+02:00</time>
      </trkpt>
      <trkpt lat="44.48858" lon="-1.12124">
        <ele>71</ele>
        <time>2018-07-17T16:50:31+02:00</time>
      </trkpt>
      <trkpt lat="44.48862" lon="-1.1211">
        <ele>70</ele>
        <time>2018-07-17T16:50:35+02:00</time>
      </trkpt>
      <trkpt lat="44.48865" lon="-1.12095">
        <ele>71</ele>
        <time>2018-07-17T16:50:39+02:00</time>
      </trkpt>
      <trkpt lat="44.48868" lon="-1.12079">
        <ele>71</ele>
        <time>2018-07-17T16:50:43+02:00</time>
      </trkpt>
      <trkpt lat="44.48871" lon="-1.12064">
        <ele>71</ele>
        <time>2018-07-17T16:50:47+02:00</time>
      </trkpt>
      <trkpt lat="44.48874" lon="-1.12048">
        <ele>70</ele>
        <time>2018-07-17T16:50:51+02:00</time>
      </trkpt>
      <trkpt lat="44.48876" lon="-1.12034">
        <ele>70</ele>
        <time>2018-07-17T16:50:55+02:00</time>
      </trkpt>
      <trkpt lat="44.48878" lon="-1.1202">
        <ele>71</ele>
        <time>2018-07-17T16:50:59+02:00</time>
      </trkpt>
      <trkpt lat="44.48879" lon="-1.12006">
        <ele>71</ele>
        <time>2018-07-17T16:51:03+02:00</time>
      </trkpt>
      <trkpt lat="44.48881" lon="-1.11991">
        <ele>71</ele>
        <time>2018-07-17T16:51:07+02:00</time>
      </trkpt>
      <trkpt lat="44.48883" lon="-1.11975">
        <ele>72</ele>
        <time>2018-07-17T16:51:11+02:00</time>
      </trkpt>
      <trkpt lat="44.48886" lon="-1.1196">
        <ele>73</ele>
        <time>2018-07-17T16:51:15+02:00</time>
      </trkpt>
      <trkpt lat="44.48889" lon="-1.11945">
        <ele>72</ele>
        <time>2018-07-17T16:51:19+02:00</time>
      </trkpt>
      <trkpt lat="44.48892" lon="-1.11931">
        <ele>71</ele>
        <time>2018-07-17T16:51:23+02:00</time>
      </trkpt>
      <trkpt lat="44.48895" lon="-1.11917">
        <ele>71</ele>
        <time>2018-07-17T16:51:27+02:00</time>
      </trkpt>
      <trkpt lat="44.48898" lon="-1.11901">
        <ele>71</ele>
        <time>2018-07-17T16:51:31+02:00</time>
      </trkpt>
      <trkpt lat="44.48899" lon="-1.11885">
        <ele>71</ele>
        <time>2018-07-17T16:51:35+02:00</time>
      </trkpt>
      <trkpt lat="44.48902" lon="-1.1187">
        <ele>71</ele>
        <time>2018-07-17T16:51:39+02:00</time>
      </trkpt>
      <trkpt lat="44.48905" lon="-1.11856">
        <ele>71</ele>
        <time>2018-07-17T16:51:43+02:00</time>
      </trkpt>
      <trkpt lat="44.48906" lon="-1.11839">
        <ele>71</ele>
        <time>2018-07-17T16:51:47+02:00</time>
      </trkpt>
      <trkpt lat="44.48909" lon="-1.11824">
        <ele>70</ele>
        <time>2018-07-17T16:51:51+02:00</time>
      </trkpt>
      <trkpt lat="44.48912" lon="-1.11809">
        <ele>69</ele>
        <time>2018-07-17T16:51:55+02:00</time>
      </trkpt>
      <trkpt lat="44.48913" lon="-1.11796">
        <ele>70</ele>
        <time>2018-07-17T16:51:59+02:00</time>
      </trkpt>
      <trkpt lat="44.48915" lon="-1.11782">
        <ele>69</ele>
        <time>2018-07-17T16:52:03+02:00</time>
      </trkpt>
      <trkpt lat="44.48917" lon="-1.11769">
        <ele>70</ele>
        <time>2018-07-17T16:52:07+02:00</time>
      </trkpt>
      <trkpt lat="44.48919" lon="-1.11754">
        <ele>70</ele>
        <time>2018-07-17T16:52:11+02:00</time>
      </trkpt>
      <trkpt lat="44.48921" lon="-1.11742">
        <ele>70</ele>
        <time>2018-07-17T16:52:15+02:00</time>
      </trkpt>
      <trkpt lat="44.48924" lon="-1.11729">
        <ele>70</ele>
        <time>2018-07-17T16:52:19+02:00</time>
      </trkpt>
      <trkpt lat="44.48926" lon="-1.11716">
        <ele>69</ele>
        <time>2018-07-17T16:52:23+02:00</time>
      </trkpt>
      <trkpt lat="44.48928" lon="-1.11703">
        <ele>69</ele>
        <time>2018-07-17T16:52:27+02:00</time>
      </trkpt>
      <trkpt lat="44.4893" lon="-1.1169">
        <ele>70</ele>
        <time>2018-07-17T16:52:31+02:00</time>
      </trkpt>
      <trkpt lat="44.48931" lon="-1.11677">
        <ele>70</ele>
        <time>2018-07-17T16:52:35+02:00</time>
      </trkpt>
      <trkpt lat="44.48932" lon="-1.11662">
        <ele>69</ele>
        <time>2018-07-17T16:52:40+02:00</time>
      </trkpt>
      <trkpt lat="44.48934" lon="-1.11648">
        <ele>70</ele>
        <time>2018-07-17T16:52:44+02:00</time>
      </trkpt>
      <trkpt lat="44.48935" lon="-1.11633">
        <ele>71</ele>
        <time>2018-07-17T16:52:49+02:00</time>
      </trkpt>
      <trkpt lat="44.48935" lon="-1.1162">
        <ele>71</ele>
        <time>2018-07-17T16:52:53+02:00</time>
      </trkpt>
      <trkpt lat="44.48935" lon="-1.11605">
        <ele>71</ele>
        <time>2018-07-17T16:52:58+02:00</time>
      </trkpt>
      <trkpt lat="44.48936" lon="-1.11592">
        <ele>70</ele>
        <time>2018-07-17T16:53:02+02:00</time>
      </trkpt>
      <trkpt lat="44.48938" lon="-1.11579">
        <ele>71</ele>
        <time>2018-07-17T16:53:06+02:00</time>
      </trkpt>
      <trkpt lat="44.48939" lon="-1.11566">
        <ele>71</ele>
        <time>2018-07-17T16:53:10+02:00</time>
      </trkpt>
      <trkpt lat="44.48939" lon="-1.11553">
        <ele>72</ele>
        <time>2018-07-17T16:53:14+02:00</time>
      </trkpt>
      <trkpt lat="44.48939" lon="-1.1154">
        <ele>72</ele>
        <time>2018-07-17T16:53:18+02:00</time>
      </trkpt>
      <trkpt lat="44.4894" lon="-1.11527">
        <ele>71</ele>
        <time>2018-07-17T16:53:22+02:00</time>
      </trkpt>
      <trkpt lat="44.48942" lon="-1.11514">
        <ele>70</ele>
        <time>2018-07-17T16:53:26+02:00</time>
      </trkpt>
      <trkpt lat="44.48944" lon="-1.11502">
        <ele>71</ele>
        <time>2018-07-17T16:53:30+02:00</time>
      </trkpt>
      <trkpt lat="44.48946" lon="-1.11488">
        <ele>71</ele>
        <time>2018-07-17T16:53:34+02:00</time>
      </trkpt>
      <trkpt lat="44.48946" lon="-1.11475">
        <ele>71</ele>
        <time>2018-07-17T16:53:38+02:00</time>
      </trkpt>
      <trkpt lat="44.48947" lon="-1.11461">
        <ele>69</ele>
        <time>2018-07-17T16:53:42+02:00</time>
      </trkpt>
      <trkpt lat="44.48949" lon="-1.11446">
        <ele>71</ele>
        <time>2018-07-17T16:53:47+02:00</time>
      </trkpt>
      <trkpt lat="44.48951" lon="-1.11431">
        <ele>70</ele>
        <time>2018-07-17T16:53:52+02:00</time>
      </trkpt>
      <trkpt lat="44.48952" lon="-1.11417">
        <ele>70</ele>
        <time>2018-07-17T16:53:56+02:00</time>
      </trkpt>
      <trkpt lat="44.48953" lon="-1.11403">
        <ele>70</ele>
        <time>2018-07-17T16:54:00+02:00</time>
      </trkpt>
      <trkpt lat="44.48955" lon="-1.11389">
        <ele>69</ele>
        <time>2018-07-17T16:54:04+02:00</time>
      </trkpt>
      <trkpt lat="44.48956" lon="-1.11375">
        <ele>70</ele>
        <time>2018-07-17T16:54:08+02:00</time>
      </trkpt>
      <trkpt lat="44.48957" lon="-1.11361">
        <ele>71</ele>
        <time>2018-07-17T16:54:12+02:00</time>
      </trkpt>
      <trkpt lat="44.48958" lon="-1.11348">
        <ele>71</ele>
        <time>2018-07-17T16:54:16+02:00</time>
      </trkpt>
      <trkpt lat="44.4896" lon="-1.11335">
        <ele>72</ele>
        <time>2018-07-17T16:54:20+02:00</time>
      </trkpt>
      <trkpt lat="44.48962" lon="-1.11322">
        <ele>70</ele>
        <time>2018-07-17T16:54:24+02:00</time>
      </trkpt>
      <trkpt lat="44.48964" lon="-1.11307">
        <ele>70</ele>
        <time>2018-07-17T16:54:29+02:00</time>
      </trkpt>
      <trkpt lat="44.48965" lon="-1.11292">
        <ele>71</ele>
        <time>2018-07-17T16:54:34+02:00</time>
      </trkpt>
      <trkpt lat="44.48966" lon="-1.11277">
        <ele>71</ele>
        <time>2018-07-17T16:54:39+02:00</time>
      </trkpt>
      <trkpt lat="44.48968" lon="-1.11263">
        <ele>70</ele>
        <time>2018-07-17T16:54:44+02:00</time>
      </trkpt>
      <trkpt lat="44.4897" lon="-1.11248">
        <ele>70</ele>
        <time>2018-07-17T16:54:49+02:00</time>
      </trkpt>
      <trkpt lat="44.48972" lon="-1.11236">
        <ele>71</ele>
        <time>2018-07-17T16:54:53+02:00</time>
      </trkpt>
      <trkpt lat="44.48973" lon="-1.11222">
        <ele>71</ele>
        <time>2018-07-17T16:54:57+02:00</time>
      </trkpt>
      <trkpt lat="44.48975" lon="-1.11207">
        <ele>72</ele>
        <time>2018-07-17T16:55:02+02:00</time>
      </trkpt>
      <trkpt lat="44.48977" lon="-1.11194">
        <ele>72</ele>
        <time>2018-07-17T16:55:06+02:00</time>
      </trkpt>
      <trkpt lat="44.48978" lon="-1.11179">
        <ele>72</ele>
        <time>2018-07-17T16:55:11+02:00</time>
      </trkpt>
      <trkpt lat="44.4898" lon="-1.11165">
        <ele>71</ele>
        <time>2018-07-17T16:55:16+02:00</time>
      </trkpt>
      <trkpt lat="44.48981" lon="-1.1115">
        <ele>72</ele>
        <time>2018-07-17T16:55:21+02:00</time>
      </trkpt>
      <trkpt lat="44.48984" lon="-1.11135">
        <ele>71</ele>
        <time>2018-07-17T16:55:26+02:00</time>
      </trkpt>
      <trkpt lat="44.48986" lon="-1.1112">
        <ele>72</ele>
        <time>2018-07-17T16:55:31+02:00</time>
      </trkpt>
      <trkpt lat="44.48987" lon="-1.11107">
        <ele>72</ele>
        <time>2018-07-17T16:55:36+02:00</time>
      </trkpt>
      <trkpt lat="44.48988" lon="-1.11094">
        <ele>73</ele>
        <time>2018-07-17T16:55:41+02:00</time>
      </trkpt>
      <trkpt lat="44.4899" lon="-1.11081">
        <ele>73</ele>
        <time>2018-07-17T16:55:46+02:00</time>
      </trkpt>
      <trkpt lat="44.48992" lon="-1.11067">
        <ele>72</ele>
        <time>2018-07-17T16:55:52+02:00</time>
      </trkpt>
      <trkpt lat="44.48993" lon="-1.11053">
        <ele>72</ele>
        <time>2018-07-17T16:55:58+02:00</time>
      </trkpt>
      <trkpt lat="44.48995" lon="-1.11039">
        <ele>71</ele>
        <time>2018-07-17T16:56:04+02:00</time>
      </trkpt>
      <trkpt lat="44.48997" lon="-1.11026">
        <ele>71</ele>
        <time>2018-07-17T16:56:09+02:00</time>
      </trkpt>
      <trkpt lat="44.48999" lon="-1.11011">
        <ele>70</ele>
        <time>2018-07-17T16:56:14+02:00</time>
      </trkpt>
      <trkpt lat="44.49" lon="-1.10999">
        <ele>70</ele>
        <time>2018-07-17T16:56:18+02:00</time>
      </trkpt>
      <trkpt lat="44.49003" lon="-1.10986">
        <ele>70</ele>
        <time>2018-07-17T16:56:22+02:00</time>
      </trkpt>
      <trkpt lat="44.49004" lon="-1.10971">
        <ele>71</ele>
        <time>2018-07-17T16:56:26+02:00</time>
      </trkpt>
      <trkpt lat="44.49005" lon="-1.10956">
        <ele>71</ele>
        <time>2018-07-17T16:56:30+02:00</time>
      </trkpt>
      <trkpt lat="44.49007" lon="-1.10942">
        <ele>71</ele>
        <time>2018-07-17T16:56:34+02:00</time>
      </trkpt>
      <trkpt lat="44.4901" lon="-1.10927">
        <ele>71</ele>
        <time>2018-07-17T16:56:38+02:00</time>
      </trkpt>
      <trkpt lat="44.49011" lon="-1.10912">
        <ele>72</ele>
        <time>2018-07-17T16:56:42+02:00</time>
      </trkpt>
      <trkpt lat="44.49013" lon="-1.10897">
        <ele>71</ele>
        <time>2018-07-17T16:56:46+02:00</time>
      </trkpt>
      <trkpt lat="44.49014" lon="-1.10883">
        <ele>71</ele>
        <time>2018-07-17T16:56:50+02:00</time>
      </trkpt>
      <trkpt lat="44.49014" lon="-1.10868">
        <ele>71</ele>
        <time>2018-07-17T16:56:54+02:00</time>
      </trkpt>
      <trkpt lat="44.49014" lon="-1.10854">
        <ele>70</ele>
        <time>2018-07-17T16:56:58+02:00</time>
      </trkpt>
      <trkpt lat="44.49016" lon="-1.1084">
        <ele>69</ele>
        <time>2018-07-17T16:57:02+02:00</time>
      </trkpt>
      <trkpt lat="44.49017" lon="-1.10826">
        <ele>70</ele>
        <time>2018-07-17T16:57:06+02:00</time>
      </trkpt>
      <trkpt lat="44.49018" lon="-1.10812">
        <ele>71</ele>
        <time>2018-07-17T16:57:10+02:00</time>
      </trkpt>
      <trkpt lat="44.49019" lon="-1.10798">
        <ele>71</ele>
        <time>2018-07-17T16:57:14+02:00</time>
      </trkpt>
      <trkpt lat="44.4902" lon="-1.10786">
        <ele>71</ele>
        <time>2018-07-17T16:57:18+02:00</time>
      </trkpt>
      <trkpt lat="44.49021" lon="-1.10772">
        <ele>71</ele>
        <time>2018-07-17T16:57:22+02:00</time>
      </trkpt>
      <trkpt lat="44.49022" lon="-1.10759">
        <ele>71</ele>
        <time>2018-07-17T16:57:26+02:00</time>
      </trkpt>
      <trkpt lat="44.49023" lon="-1.10744">
        <ele>71</ele>
        <time>2018-07-17T16:57:31+02:00</time>
      </trkpt>
      <trkpt lat="44.49025" lon="-1.10732">
        <ele>73</ele>
        <time>2018-07-17T16:57:35+02:00</time>
      </trkpt>
      <trkpt lat="44.49026" lon="-1.10716">
        <ele>72</ele>
        <time>2018-07-17T16:57:40+02:00</time>
      </trkpt>
      <trkpt lat="44.49028" lon="-1.10703">
        <ele>71</ele>
        <time>2018-07-17T16:57:44+02:00</time>
      </trkpt>
      <trkpt lat="44.49028" lon="-1.10691">
        <ele>70</ele>
        <time>2018-07-17T16:57:48+02:00</time>
      </trkpt>
      <trkpt lat="44.49029" lon="-1.10675">
        <ele>70</ele>
        <time>2018-07-17T16:57:53+02:00</time>
      </trkpt>
      <trkpt lat="44.4903" lon="-1.10662">
        <ele>70</ele>
        <time>2018-07-17T16:57:57+02:00</time>
      </trkpt>
      <trkpt lat="44.49031" lon="-1.10647">
        <ele>70</ele>
        <time>2018-07-17T16:58:02+02:00</time>
      </trkpt>
      <trkpt lat="44.49033" lon="-1.10634">
        <ele>70</ele>
        <time>2018-07-17T16:58:06+02:00</time>
      </trkpt>
      <trkpt lat="44.49033" lon="-1.10621">
        <ele>71</ele>
        <time>2018-07-17T16:58:10+02:00</time>
      </trkpt>
      <trkpt lat="44.49034" lon="-1.10607">
        <ele>72</ele>
        <time>2018-07-17T16:58:14+02:00</time>
      </trkpt>
      <trkpt lat="44.49034" lon="-1.10594">
        <ele>73</ele>
        <time>2018-07-17T16:58:18+02:00</time>
      </trkpt>
      <trkpt lat="44.49035" lon="-1.1058">
        <ele>72</ele>
        <time>2018-07-17T16:58:23+02:00</time>
      </trkpt>
      <trkpt lat="44.49036" lon="-1.10567">
        <ele>72</ele>
        <time>2018-07-17T16:58:28+02:00</time>
      </trkpt>
      <trkpt lat="44.49036" lon="-1.10552">
        <ele>71</ele>
        <time>2018-07-17T16:58:33+02:00</time>
      </trkpt>
      <trkpt lat="44.49035" lon="-1.10538">
        <ele>72</ele>
        <time>2018-07-17T16:58:38+02:00</time>
      </trkpt>
      <trkpt lat="44.49035" lon="-1.10525">
        <ele>73</ele>
        <time>2018-07-17T16:58:43+02:00</time>
      </trkpt>
      <trkpt lat="44.49035" lon="-1.10511">
        <ele>72</ele>
        <time>2018-07-17T16:58:48+02:00</time>
      </trkpt>
      <trkpt lat="44.49036" lon="-1.10497">
        <ele>72</ele>
        <time>2018-07-17T16:58:53+02:00</time>
      </trkpt>
      <trkpt lat="44.49035" lon="-1.10482">
        <ele>73</ele>
        <time>2018-07-17T16:58:58+02:00</time>
      </trkpt>
      <trkpt lat="44.49035" lon="-1.10469">
        <ele>73</ele>
        <time>2018-07-17T16:59:02+02:00</time>
      </trkpt>
      <trkpt lat="44.49036" lon="-1.10454">
        <ele>72</ele>
        <time>2018-07-17T16:59:07+02:00</time>
      </trkpt>
      <trkpt lat="44.49035" lon="-1.10438">
        <ele>72</ele>
        <time>2018-07-17T16:59:12+02:00</time>
      </trkpt>
      <trkpt lat="44.49034" lon="-1.10425">
        <ele>71</ele>
        <time>2018-07-17T16:59:16+02:00</time>
      </trkpt>
      <trkpt lat="44.49034" lon="-1.1041">
        <ele>73</ele>
        <time>2018-07-17T16:59:21+02:00</time>
      </trkpt>
      <trkpt lat="44.49034" lon="-1.10395">
        <ele>72</ele>
        <time>2018-07-17T16:59:26+02:00</time>
      </trkpt>
      <trkpt lat="44.49034" lon="-1.10381">
        <ele>73</ele>
        <time>2018-07-17T16:59:31+02:00</time>
      </trkpt>
      <trkpt lat="44.49034" lon="-1.10366">
        <ele>73</ele>
        <time>2018-07-17T16:59:36+02:00</time>
      </trkpt>
      <trkpt lat="44.49034" lon="-1.10352">
        <ele>72</ele>
        <time>2018-07-17T16:59:41+02:00</time>
      </trkpt>
      <trkpt lat="44.49033" lon="-1.10337">
        <ele>72</ele>
        <time>2018-07-17T16:59:46+02:00</time>
      </trkpt>
      <trkpt lat="44.49032" lon="-1.10323">
        <ele>72</ele>
        <time>2018-07-17T16:59:51+02:00</time>
      </trkpt>
      <trkpt lat="44.49031" lon="-1.10309">
        <ele>73</ele>
        <time>2018-07-17T16:59:56+02:00</time>
      </trkpt>
      <trkpt lat="44.49031" lon="-1.10294">
        <ele>73</ele>
        <time>2018-07-17T17:00:01+02:00</time>
      </trkpt>
      <trkpt lat="44.49033" lon="-1.10279">
        <ele>73</ele>
        <time>2018-07-17T17:00:06+02:00</time>
      </trkpt>
      <trkpt lat="44.49035" lon="-1.10267">
        <ele>72</ele>
        <time>2018-07-17T17:00:10+02:00</time>
      </trkpt>
      <trkpt lat="44.49036" lon="-1.10252">
        <ele>73</ele>
        <time>2018-07-17T17:00:14+02:00</time>
      </trkpt>
      <trkpt lat="44.49036" lon="-1.10239">
        <ele>73</ele>
        <time>2018-07-17T17:00:18+02:00</time>
      </trkpt>
      <trkpt lat="44.49035" lon="-1.10226">
        <ele>73</ele>
        <time>2018-07-17T17:00:22+02:00</time>
      </trkpt>
      <trkpt lat="44.49036" lon="-1.10213">
        <ele>72</ele>
        <time>2018-07-17T17:00:26+02:00</time>
      </trkpt>
      <trkpt lat="44.49037" lon="-1.10201">
        <ele>73</ele>
        <time>2018-07-17T17:00:30+02:00</time>
      </trkpt>
      <trkpt lat="44.49037" lon="-1.10185">
        <ele>73</ele>
        <time>2018-07-17T17:00:35+02:00</time>
      </trkpt>
      <trkpt lat="44.49037" lon="-1.10172">
        <ele>72</ele>
        <time>2018-07-17T17:00:39+02:00</time>
      </trkpt>
      <trkpt lat="44.49037" lon="-1.10159">
        <ele>71</ele>
        <time>2018-07-17T17:00:43+02:00</time>
      </trkpt>
      <trkpt lat="44.49037" lon="-1.10146">
        <ele>71</ele>
        <time>2018-07-17T17:00:47+02:00</time>
      </trkpt>
      <trkpt lat="44.49038" lon="-1.10133">
        <ele>70</ele>
        <time>2018-07-17T17:00:51+02:00</time>
      </trkpt>
      <trkpt lat="44.49039" lon="-1.1012">
        <ele>70</ele>
        <time>2018-07-17T17:00:55+02:00</time>
      </trkpt>
      <trkpt lat="44.4904" lon="-1.10107">
        <ele>70</ele>
        <time>2018-07-17T17:00:59+02:00</time>
      </trkpt>
      <trkpt lat="44.4904" lon="-1.10092">
        <ele>71</ele>
        <time>2018-07-17T17:01:03+02:00</time>
      </trkpt>
      <trkpt lat="44.49041" lon="-1.10077">
        <ele>71</ele>
        <time>2018-07-17T17:01:07+02:00</time>
      </trkpt>
      <trkpt lat="44.49041" lon="-1.10064">
        <ele>70</ele>
        <time>2018-07-17T17:01:11+02:00</time>
      </trkpt>
      <trkpt lat="44.49041" lon="-1.1005">
        <ele>70</ele>
        <time>2018-07-17T17:01:15+02:00</time>
      </trkpt>
      <trkpt lat="44.49041" lon="-1.10037">
        <ele>72</ele>
        <time>2018-07-17T17:01:19+02:00</time>
      </trkpt>
      <trkpt lat="44.49042" lon="-1.10022">
        <ele>72</ele>
        <time>2018-07-17T17:01:23+02:00</time>
      </trkpt>
      <trkpt lat="44.49043" lon="-1.10008">
        <ele>72</ele>
        <time>2018-07-17T17:01:27+02:00</time>
      </trkpt>
      <trkpt lat="44.49043" lon="-1.09993">
        <ele>72</ele>
        <time>2018-07-17T17:01:31+02:00</time>
      </trkpt>
      <trkpt lat="44.49043" lon="-1.09979">
        <ele>73</ele>
        <time>2018-07-17T17:01:35+02:00</time>
      </trkpt>
      <trkpt lat="44.49046" lon="-1.09964">
        <ele>73</ele>
        <time>2018-07-17T17:01:39+02:00</time>
      </trkpt>
      <trkpt lat="44.49048" lon="-1.09948">
        <ele>72</ele>
        <time>2018-07-17T17:01:43+02:00</time>
      </trkpt>
      <trkpt lat="44.4905" lon="-1.09933">
        <ele>71</ele>
        <time>2018-07-17T17:01:47+02:00</time>
      </trkpt>
      <trkpt lat="44.49052" lon="-1.09919">
        <ele>71</ele>
        <time>2018-07-17T17:01:51+02:00</time>
      </trkpt>
      <trkpt lat="44.49055" lon="-1.09903">
        <ele>70</ele>
        <time>2018-07-17T17:01:55+02:00</time>
      </trkpt>
      <trkpt lat="44.49055" lon="-1.09888">
        <ele>70</ele>
        <time>2018-07-17T17:01:59+02:00</time>
      </trkpt>
      <trkpt lat="44.49056" lon="-1.09873">
        <ele>71</ele>
        <time>2018-07-17T17:02:03+02:00</time>
      </trkpt>
      <trkpt lat="44.49057" lon="-1.09857">
        <ele>72</ele>
        <time>2018-07-17T17:02:07+02:00</time>
      </trkpt>
      <trkpt lat="44.49059" lon="-1.09844">
        <ele>71</ele>
        <time>2018-07-17T17:02:10+02:00</time>
      </trkpt>
      <trkpt lat="44.4906" lon="-1.09831">
        <ele>72</ele>
        <time>2018-07-17T17:02:13+02:00</time>
      </trkpt>
      <trkpt lat="44.49061" lon="-1.09818">
        <ele>72</ele>
        <time>2018-07-17T17:02:16+02:00</time>
      </trkpt>
      <trkpt lat="44.49062" lon="-1.09803">
        <ele>72</ele>
        <time>2018-07-17T17:02:20+02:00</time>
      </trkpt>
      <trkpt lat="44.49065" lon="-1.09788">
        <ele>71</ele>
        <time>2018-07-17T17:02:24+02:00</time>
      </trkpt>
      <trkpt lat="44.49066" lon="-1.09774">
        <ele>71</ele>
        <time>2018-07-17T17:02:27+02:00</time>
      </trkpt>
      <trkpt lat="44.49066" lon="-1.09761">
        <ele>72</ele>
        <time>2018-07-17T17:02:30+02:00</time>
      </trkpt>
      <trkpt lat="44.49066" lon="-1.09748">
        <ele>71</ele>
        <time>2018-07-17T17:02:33+02:00</time>
      </trkpt>
      <trkpt lat="44.49066" lon="-1.09731">
        <ele>72</ele>
        <time>2018-07-17T17:02:37+02:00</time>
      </trkpt>
      <trkpt lat="44.49065" lon="-1.09715">
        <ele>71</ele>
        <time>2018-07-17T17:02:41+02:00</time>
      </trkpt>
      <trkpt lat="44.49066" lon="-1.09699">
        <ele>72</ele>
        <time>2018-07-17T17:02:45+02:00</time>
      </trkpt>
      <trkpt lat="44.49066" lon="-1.09683">
        <ele>71</ele>
        <time>2018-07-17T17:02:49+02:00</time>
      </trkpt>
      <trkpt lat="44.49066" lon="-1.09669">
        <ele>71</ele>
        <time>2018-07-17T17:02:53+02:00</time>
      </trkpt>
      <trkpt lat="44.49067" lon="-1.09656">
        <ele>71</ele>
        <time>2018-07-17T17:02:57+02:00</time>
      </trkpt>
      <trkpt lat="44.49067" lon="-1.09643">
        <ele>71</ele>
        <time>2018-07-17T17:03:01+02:00</time>
      </trkpt>
      <trkpt lat="44.49067" lon="-1.09629">
        <ele>72</ele>
        <time>2018-07-17T17:03:06+02:00</time>
      </trkpt>
      <trkpt lat="44.49066" lon="-1.09615">
        <ele>71</ele>
        <time>2018-07-17T17:03:11+02:00</time>
      </trkpt>
      <trkpt lat="44.49066" lon="-1.09602">
        <ele>72</ele>
        <time>2018-07-17T17:03:16+02:00</time>
      </trkpt>
      <trkpt lat="44.49067" lon="-1.0959">
        <ele>70</ele>
        <time>2018-07-17T17:03:21+02:00</time>
      </trkpt>
      <trkpt lat="44.49068" lon="-1.09577">
        <ele>71</ele>
        <time>2018-07-17T17:03:26+02:00</time>
      </trkpt>
      <trkpt lat="44.49069" lon="-1.09564">
        <ele>71</ele>
        <time>2018-07-17T17:03:31+02:00</time>
      </trkpt>
      <trkpt lat="44.49069" lon="-1.09549">
        <ele>71</ele>
        <time>2018-07-17T17:03:37+02:00</time>
      </trkpt>
      <trkpt lat="44.4907" lon="-1.09535">
        <ele>71</ele>
        <time>2018-07-17T17:03:42+02:00</time>
      </trkpt>
      <trkpt lat="44.49071" lon="-1.0952">
        <ele>71</ele>
        <time>2018-07-17T17:03:47+02:00</time>
      </trkpt>
      <trkpt lat="44.49071" lon="-1.09507">
        <ele>72</ele>
        <time>2018-07-17T17:03:52+02:00</time>
      </trkpt>
      <trkpt lat="44.49071" lon="-1.09494">
        <ele>71</ele>
        <time>2018-07-17T17:03:57+02:00</time>
      </trkpt>
      <trkpt lat="44.49071" lon="-1.09482">
        <ele>71</ele>
        <time>2018-07-17T17:04:02+02:00</time>
      </trkpt>
      <trkpt lat="44.49072" lon="-1.09469">
        <ele>71</ele>
        <time>2018-07-17T17:04:07+02:00</time>
      </trkpt>
      <trkpt lat="44.49071" lon="-1.09456">
        <ele>71</ele>
        <time>2018-07-17T17:04:12+02:00</time>
      </trkpt>
      <trkpt lat="44.4907" lon="-1.09442">
        <ele>71</ele>
        <time>2018-07-17T17:04:17+02:00</time>
      </trkpt>
      <trkpt lat="44.49071" lon="-1.09427">
        <ele>71</ele>
        <time>2018-07-17T17:04:22+02:00</time>
      </trkpt>
      <trkpt lat="44.49072" lon="-1.09414">
        <ele>72</ele>
        <time>2018-07-17T17:04:27+02:00</time>
      </trkpt>
      <trkpt lat="44.49072" lon="-1.094">
        <ele>71</ele>
        <time>2018-07-17T17:04:33+02:00</time>
      </trkpt>
      <trkpt lat="44.49073" lon="-1.09385">
        <ele>72</ele>
        <time>2018-07-17T17:04:39+02:00</time>
      </trkpt>
      <trkpt lat="44.49074" lon="-1.09371">
        <ele>72</ele>
        <time>2018-07-17T17:04:45+02:00</time>
      </trkpt>
      <trkpt lat="44.49076" lon="-1.09357">
        <ele>71</ele>
        <time>2018-07-17T17:04:51+02:00</time>
      </trkpt>
      <trkpt lat="44.49078" lon="-1.09344">
        <ele>70</ele>
        <time>2018-07-17T17:04:56+02:00</time>
      </trkpt>
      <trkpt lat="44.4908" lon="-1.0933">
        <ele>71</ele>
        <time>2018-07-17T17:05:02+02:00</time>
      </trkpt>
      <trkpt lat="44.49081" lon="-1.09317">
        <ele>71</ele>
        <time>2018-07-17T17:05:07+02:00</time>
      </trkpt>
      <trkpt lat="44.49081" lon="-1.09303">
        <ele>71</ele>
        <time>2018-07-17T17:05:13+02:00</time>
      </trkpt>
      <trkpt lat="44.49082" lon="-1.09288">
        <ele>70</ele>
        <time>2018-07-17T17:05:19+02:00</time>
      </trkpt>
      <trkpt lat="44.49083" lon="-1.09273">
        <ele>72</ele>
        <time>2018-07-17T17:05:25+02:00</time>
      </trkpt>
      <trkpt lat="44.49083" lon="-1.09258">
        <ele>71</ele>
        <time>2018-07-17T17:05:31+02:00</time>
      </trkpt>
      <trkpt lat="44.49083" lon="-1.09244">
        <ele>71</ele>
        <time>2018-07-17T17:05:37+02:00</time>
      </trkpt>
      <trkpt lat="44.49083" lon="-1.09231">
        <ele>71</ele>
        <time>2018-07-17T17:05:43+02:00</time>
      </trkpt>
      <trkpt lat="44.49084" lon="-1.09217">
        <ele>71</ele>
        <time>2018-07-17T17:05:49+02:00</time>
      </trkpt>
      <trkpt lat="44.49084" lon="-1.09203">
        <ele>72</ele>
        <time>2018-07-17T17:05:55+02:00</time>
      </trkpt>
      <trkpt lat="44.49086" lon="-1.09188">
        <ele>71</ele>
        <time>2018-07-17T17:06:01+02:00</time>
      </trkpt>
      <trkpt lat="44.49088" lon="-1.09173">
        <ele>71</ele>
        <time>2018-07-17T17:06:06+02:00</time>
      </trkpt>
      <trkpt lat="44.4909" lon="-1.09158">
        <ele>70</ele>
        <time>2018-07-17T17:06:11+02:00</time>
      </trkpt>
      <trkpt lat="44.49092" lon="-1.09142">
        <ele>70</ele>
        <time>2018-07-17T17:06:16+02:00</time>
      </trkpt>
      <trkpt lat="44.49093" lon="-1.09127">
        <ele>70</ele>
        <time>2018-07-17T17:06:21+02:00</time>
      </trkpt>
      <trkpt lat="44.49093" lon="-1.09113">
        <ele>71</ele>
        <time>2018-07-17T17:06:26+02:00</time>
      </trkpt>
      <trkpt lat="44.49094" lon="-1.09098">
        <ele>71</ele>
        <time>2018-07-17T17:06:31+02:00</time>
      </trkpt>
      <trkpt lat="44.49096" lon="-1.09085">
        <ele>71</ele>
        <time>2018-07-17T17:06:35+02:00</time>
      </trkpt>
      <trkpt lat="44.49097" lon="-1.09072">
        <ele>70</ele>
        <time>2018-07-17T17:06:39+02:00</time>
      </trkpt>
      <trkpt lat="44.49098" lon="-1.09058">
        <ele>70</ele>
        <time>2018-07-17T17:06:43+02:00</time>
      </trkpt>
      <trkpt lat="44.49099" lon="-1.09044">
        <ele>70</ele>
        <time>2018-07-17T17:06:47+02:00</time>
      </trkpt>
      <trkpt lat="44.491" lon="-1.09031">
        <ele>70</ele>
        <time>2018-07-17T17:06:51+02:00</time>
      </trkpt>
      <trkpt lat="44.49103" lon="-1.09018">
        <ele>70</ele>
        <time>2018-07-17T17:06:55+02:00</time>
      </trkpt>
      <trkpt lat="44.49106" lon="-1.09004">
        <ele>72</ele>
        <time>2018-07-17T17:06:59+02:00</time>
      </trkpt>
      <trkpt lat="44.49109" lon="-1.08991">
        <ele>71</ele>
        <time>2018-07-17T17:07:03+02:00</time>
      </trkpt>
      <trkpt lat="44.49112" lon="-1.08977">
        <ele>71</ele>
        <time>2018-07-17T17:07:07+02:00</time>
      </trkpt>
      <trkpt lat="44.49114" lon="-1.08962">
        <ele>71</ele>
        <time>2018-07-17T17:07:11+02:00</time>
      </trkpt>
      <trkpt lat="44.49116" lon="-1.08948">
        <ele>72</ele>
        <time>2018-07-17T17:07:15+02:00</time>
      </trkpt>
      <trkpt lat="44.49118" lon="-1.08935">
        <ele>70</ele>
        <time>2018-07-17T17:07:19+02:00</time>
      </trkpt>
      <trkpt lat="44.49121" lon="-1.08922">
        <ele>70</ele>
        <time>2018-07-17T17:07:23+02:00</time>
      </trkpt>
      <trkpt lat="44.49122" lon="-1.08909">
        <ele>69</ele>
        <time>2018-07-17T17:07:27+02:00</time>
      </trkpt>
      <trkpt lat="44.49124" lon="-1.08896">
        <ele>70</ele>
        <time>2018-07-17T17:07:31+02:00</time>
      </trkpt>
      <trkpt lat="44.49124" lon="-1.08882">
        <ele>71</ele>
        <time>2018-07-17T17:07:36+02:00</time>
      </trkpt>
      <trkpt lat="44.49124" lon="-1.08869">
        <ele>71</ele>
        <time>2018-07-17T17:07:41+02:00</time>
      </trkpt>
      <trkpt lat="44.49126" lon="-1.08854">
        <ele>71</ele>
        <time>2018-07-17T17:07:46+02:00</time>
      </trkpt>
      <trkpt lat="44.49127" lon="-1.0884">
        <ele>70</ele>
        <time>2018-07-17T17:07:51+02:00</time>
      </trkpt>
      <trkpt lat="44.49129" lon="-1.08825">
        <ele>70</ele>
        <time>2018-07-17T17:07:56+02:00</time>
      </trkpt>
      <trkpt lat="44.49131" lon="-1.08812">
        <ele>70</ele>
        <time>2018-07-17T17:08:01+02:00</time>
      </trkpt>
      <trkpt lat="44.49133" lon="-1.08798">
        <ele>70</ele>
        <time>2018-07-17T17:08:06+02:00</time>
      </trkpt>
      <trkpt lat="44.49135" lon="-1.08785">
        <ele>70</ele>
        <time>2018-07-17T17:08:10+02:00</time>
      </trkpt>
      <trkpt lat="44.49136" lon="-1.08772">
        <ele>70</ele>
        <time>2018-07-17T17:08:14+02:00</time>
      </trkpt>
      <trkpt lat="44.49139" lon="-1.08759">
        <ele>69</ele>
        <time>2018-07-17T17:08:18+02:00</time>
      </trkpt>
      <trkpt lat="44.49141" lon="-1.08746">
        <ele>69</ele>
        <time>2018-07-17T17:08:22+02:00</time>
      </trkpt>
      <trkpt lat="44.49142" lon="-1.08734">
        <ele>70</ele>
        <time>2018-07-17T17:08:26+02:00</time>
      </trkpt>
      <trkpt lat="44.49144" lon="-1.08721">
        <ele>70</ele>
        <time>2018-07-17T17:08:30+02:00</time>
      </trkpt>
      <trkpt lat="44.49146" lon="-1.08708">
        <ele>70</ele>
        <time>2018-07-17T17:08:34+02:00</time>
      </trkpt>
      <trkpt lat="44.49147" lon="-1.08693">
        <ele>71</ele>
        <time>2018-07-17T17:08:39+02:00</time>
      </trkpt>
      <trkpt lat="44.49148" lon="-1.08678">
        <ele>71</ele>
        <time>2018-07-17T17:08:44+02:00</time>
      </trkpt>
      <trkpt lat="44.4915" lon="-1.08663">
        <ele>71</ele>
        <time>2018-07-17T17:08:49+02:00</time>
      </trkpt>
      <trkpt lat="44.49151" lon="-1.08648">
        <ele>70</ele>
        <time>2018-07-17T17:08:54+02:00</time>
      </trkpt>
      <trkpt lat="44.49151" lon="-1.08634">
        <ele>70</ele>
        <time>2018-07-17T17:08:59+02:00</time>
      </trkpt>
      <trkpt lat="44.49153" lon="-1.08621">
        <ele>70</ele>
        <time>2018-07-17T17:09:04+02:00</time>
      </trkpt>
      <trkpt lat="44.49154" lon="-1.08607">
        <ele>71</ele>
        <time>2018-07-17T17:09:09+02:00</time>
      </trkpt>
      <trkpt lat="44.49156" lon="-1.08594">
        <ele>71</ele>
        <time>2018-07-17T17:09:14+02:00</time>
      </trkpt>
      <trkpt lat="44.49157" lon="-1.08579">
        <ele>71</ele>
        <time>2018-07-17T17:09:20+02:00</time>
      </trkpt>
      <trkpt lat="44.49158" lon="-1.08566">
        <ele>72</ele>
        <time>2018-07-17T17:09:25+02:00</time>
      </trkpt>
      <trkpt lat="44.4916" lon="-1.08553">
        <ele>71</ele>
        <time>2018-07-17T17:09:30+02:00</time>
      </trkpt>
      <trkpt lat="44.49162" lon="-1.0854">
        <ele>71</ele>
        <time>2018-07-17T17:09:35+02:00</time>
      </trkpt>
      <trkpt lat="44.49164" lon="-1.08526">
        <ele>71</ele>
        <time>2018-07-17T17:09:40+02:00</time>
      </trkpt>
      <trkpt lat="44.49167" lon="-1.08513">
        <ele>70</ele>
        <time>2018-07-17T17:09:45+02:00</time>
      </trkpt>
      <trkpt lat="44.4917" lon="-1.085">
        <ele>69</ele>
        <time>2018-07-17T17:09:50+02:00</time>
      </trkpt>
      <trkpt lat="44.49173" lon="-1.08486">
        <ele>69</ele>
        <time>2018-07-17T17:09:55+02:00</time>
      </trkpt>
      <trkpt lat="44.49176" lon="-1.08474">
        <ele>69</ele>
        <time>2018-07-17T17:10:00+02:00</time>
      </trkpt>
      <trkpt lat="44.49179" lon="-1.08461">
        <ele>68</ele>
        <time>2018-07-17T17:10:05+02:00</time>
      </trkpt>
      <trkpt lat="44.4918" lon="-1.08448">
        <ele>69</ele>
        <time>2018-07-17T17:10:10+02:00</time>
      </trkpt>
      <trkpt lat="44.49182" lon="-1.08435">
        <ele>70</ele>
        <time>2018-07-17T17:10:15+02:00</time>
      </trkpt>
      <trkpt lat="44.49184" lon="-1.0842">
        <ele>71</ele>
        <time>2018-07-17T17:10:21+02:00</time>
      </trkpt>
      <trkpt lat="44.49185" lon="-1.08405">
        <ele>70</ele>
        <time>2018-07-17T17:10:27+02:00</time>
      </trkpt>
      <trkpt lat="44.49189" lon="-1.08393">
        <ele>70</ele>
        <time>2018-07-17T17:10:32+02:00</time>
      </trkpt>
      <trkpt lat="44.49191" lon="-1.08381">
        <ele>70</ele>
        <time>2018-07-17T17:10:37+02:00</time>
      </trkpt>
      <trkpt lat="44.49194" lon="-1.08367">
        <ele>69</ele>
        <time>2018-07-17T17:10:43+02:00</time>
      </trkpt>
      <trkpt lat="44.49197" lon="-1.08354">
        <ele>70</ele>
        <time>2018-07-17T17:10:49+02:00</time>
      </trkpt>
      <trkpt lat="44.49201" lon="-1.0834">
        <ele>70</ele>
        <time>2018-07-17T17:10:55+02:00</time>
      </trkpt>
      <trkpt lat="44.49205" lon="-1.08328">
        <ele>69</ele>
        <time>2018-07-17T17:11:00+02:00</time>
      </trkpt>
      <trkpt lat="44.4921" lon="-1.08315">
        <ele>69</ele>
        <time>2018-07-17T17:11:05+02:00</time>
      </trkpt>
      <trkpt lat="44.49214" lon="-1.08302">
        <ele>69</ele>
        <time>2018-07-17T17:11:10+02:00</time>
      </trkpt>
      <trkpt lat="44.49218" lon="-1.08291">
        <ele>70</ele>
        <time>2018-07-17T17:11:15+02:00</time>
      </trkpt>
      <trkpt lat="44.49223" lon="-1.08279">
        <ele>70</ele>
        <time>2018-07-17T17:11:20+02:00</time>
      </trkpt>
      <trkpt lat="44.4923" lon="-1.08268">
        <ele>70</ele>
        <time>2018-07-17T17:11:26+02:00</time>
      </trkpt>
      <trkpt lat="44.49237" lon="-1.08257">
        <ele>71</ele>
        <time>2018-07-17T17:11:32+02:00</time>
      </trkpt>
      <trkpt lat="44.49244" lon="-1.08247">
        <ele>71</ele>
        <time>2018-07-17T17:11:38+02:00</time>
      </trkpt>
      <trkpt lat="44.4925" lon="-1.08237">
        <ele>71</ele>
        <time>2018-07-17T17:11:44+02:00</time>
      </trkpt>
      <trkpt lat="44.49258" lon="-1.08229">
        <ele>71</ele>
        <time>2018-07-17T17:11:49+02:00</time>
      </trkpt>
      <trkpt lat="44.49266" lon="-1.0822">
        <ele>71</ele>
        <time>2018-07-17T17:11:54+02:00</time>
      </trkpt>
      <trkpt lat="44.49273" lon="-1.08212">
        <ele>71</ele>
        <time>2018-07-17T17:11:58+02:00</time>
      </trkpt>
      <trkpt lat="44.49279" lon="-1.08202">
        <ele>71</ele>
        <time>2018-07-17T17:12:03+02:00</time>
      </trkpt>
      <trkpt lat="44.49287" lon="-1.08194">
        <ele>71</ele>
        <time>2018-07-17T17:12:09+02:00</time>
      </trkpt>
      <trkpt lat="44.49294" lon="-1.08183">
        <ele>71</ele>
        <time>2018-07-17T17:12:16+02:00</time>
      </trkpt>
      <trkpt lat="44.49301" lon="-1.08174">
        <ele>71</ele>
        <time>2018-07-17T17:12:22+02:00</time>
      </trkpt>
      <trkpt lat="44.49307" lon="-1.08164">
        <ele>71</ele>
        <time>2018-07-17T17:12:28+02:00</time>
      </trkpt>
      <trkpt lat="44.49315" lon="-1.08155">
        <ele>70</ele>
        <time>2018-07-17T17:12:35+02:00</time>
      </trkpt>
      <trkpt lat="44.49321" lon="-1.08144">
        <ele>70</ele>
        <time>2018-07-17T17:12:41+02:00</time>
      </trkpt>
      <trkpt lat="44.49327" lon="-1.08133">
        <ele>70</ele>
        <time>2018-07-17T17:12:47+02:00</time>
      </trkpt>
      <trkpt lat="44.49333" lon="-1.08122">
        <ele>70</ele>
        <time>2018-07-17T17:12:53+02:00</time>
      </trkpt>
      <trkpt lat="44.4934" lon="-1.08111">
        <ele>71</ele>
        <time>2018-07-17T17:12:59+02:00</time>
      </trkpt>
      <trkpt lat="44.49346" lon="-1.08101">
        <ele>69</ele>
        <time>2018-07-17T17:13:04+02:00</time>
      </trkpt>
      <trkpt lat="44.49353" lon="-1.0809">
        <ele>68</ele>
        <time>2018-07-17T17:13:09+02:00</time>
      </trkpt>
      <trkpt lat="44.49359" lon="-1.08078">
        <ele>68</ele>
        <time>2018-07-17T17:13:15+02:00</time>
      </trkpt>
      <trkpt lat="44.49365" lon="-1.08069">
        <ele>68</ele>
        <time>2018-07-17T17:13:20+02:00</time>
      </trkpt>
      <trkpt lat="44.49372" lon="-1.08058">
        <ele>69</ele>
        <time>2018-07-17T17:13:26+02:00</time>
      </trkpt>
      <trkpt lat="44.49378" lon="-1.08047">
        <ele>70</ele>
        <time>2018-07-17T17:13:32+02:00</time>
      </trkpt>
      <trkpt lat="44.49385" lon="-1.08037">
        <ele>71</ele>
        <time>2018-07-17T17:13:39+02:00</time>
      </trkpt>
      <trkpt lat="44.49392" lon="-1.08029">
        <ele>71</ele>
        <time>2018-07-17T17:13:45+02:00</time>
      </trkpt>
      <trkpt lat="44.49399" lon="-1.0802">
        <ele>71</ele>
        <time>2018-07-17T17:13:52+02:00</time>
      </trkpt>
      <trkpt lat="44.49407" lon="-1.08011">
        <ele>70</ele>
        <time>2018-07-17T17:14:00+02:00</time>
      </trkpt>
      <trkpt lat="44.49415" lon="-1.08004">
        <ele>70</ele>
        <time>2018-07-17T17:14:08+02:00</time>
      </trkpt>
      <trkpt lat="44.49424" lon="-1.07999">
        <ele>70</ele>
        <time>2018-07-17T17:14:16+02:00</time>
      </trkpt>
      <trkpt lat="44.49433" lon="-1.08001">
        <ele>71</ele>
        <time>2018-07-17T17:22:36+02:00</time>
      </trkpt>
      <trkpt lat="44.49437" lon="-1.0799">
        <ele>69</ele>
        <time>2018-07-17T17:25:10+02:00</time>
      </trkpt>
      <trkpt lat="44.49444" lon="-1.07981">
        <ele>70</ele>
        <time>2018-07-17T17:25:35+02:00</time>
      </trkpt>
      <trkpt lat="44.49451" lon="-1.0797">
        <ele>69</ele>
        <time>2018-07-17T17:26:13+02:00</time>
      </trkpt>
      <trkpt lat="44.49457" lon="-1.07961">
        <ele>68</ele>
        <time>2018-07-17T17:26:49+02:00</time>
      </trkpt>
      <trkpt lat="44.49463" lon="-1.0795">
        <ele>69</ele>
        <time>2018-07-17T17:27:15+02:00</time>
      </trkpt>
      <trkpt lat="44.49468" lon="-1.07939">
        <ele>69</ele>
        <time>2018-07-17T17:27:36+02:00</time>
      </trkpt>
      <trkpt lat="44.49473" lon="-1.07928">
        <ele>70</ele>
        <time>2018-07-17T17:27:50+02:00</time>
      </trkpt>
      <trkpt lat="44.49477" lon="-1.07917">
        <ele>69</ele>
        <time>2018-07-17T17:28:08+02:00</time>
      </trkpt>
      <trkpt lat="44.49476" lon="-1.07904">
        <ele>69</ele>
        <time>2018-07-17T17:28:20+02:00</time>
      </trkpt>
      <trkpt lat="44.49475" lon="-1.07892">
        <ele>72</ele>
        <time>2018-07-17T17:28:39+02:00</time>
      </trkpt>
      <trkpt lat="44.4948" lon="-1.07881">
        <ele>74</ele>
        <time>2018-07-17T17:28:49+02:00</time>
      </trkpt>
    </trkseg>
  </trk>
</gpx>